Darstellungsparameter: Aktuell verwendete Einstellungen:
Skalierung der Graphiken ... ?
xyx+y,   Skalierungsfaktor:      Skalierung: Modus: x, Faktor: 1
Darstellungszeitraum ... ?
Vom - - bis: - -   Zeitraum: 22.07.2010 - 21.07.2020
Min/Max/Avg-Anzeige ... ?
Zeige MMA aktuell
Zeige MMA Monat
Zeige MMA alles
Zeige --A aktuell
Zeige --A Monat
Zeige --A alles
Keine MMA-Anzeige
MMA:
Average (ber die Originaldaten)
MMA-Basis: 23.02.2003 - 03.08.2020
Quicknavigation für Darstellung... ?
Tage:      1T, 2T, 3T, 5T -1T -2T -3T -5T +1T +2T +3T +5T
Wochen: 1W, 2W, 3W -1W -2W -3W +1W +2W +3W
Monate: 1M, 3M, 6M -1M -3M -6M +1M +3M +6M
Jahre:    1J, 3J, 5J, 10J -1J -3J -5J -10J +1J +3J +5J +10J
Nutze für die Darstellung ... ?
Originaldaten oder ...
Mittelwerte Minima Maxima auf...
Stundenbasis Tagesbasis Wochenbasis
Monatsbasis Jahresbasis      Datenbasis: Mittelwerte auf Stundenbasis
Darstellen als:
Statistik (Auto) Statistik J:M      Darstellung:
Zur Graphik,    zurück zur Übersicht aller Sensoren.
 
Tabellarische Datenbersicht: ?
 
Sensor: Nr:Datum:Temp:Abs-Feuchte:Windchill:Wind:
Aussen-T/F 1 22-07-2010 00:00:00 22.56 C 11.58 g/m*3 22.56 C 0 km/h
2 22-07-2010 01:00:00 22.16 C 11.64 g/m*3 22.16 C 0 km/h
3 22-07-2010 02:00:00 21.28 C 11.51 g/m*3 21.28 C 0 km/h
4 22-07-2010 03:00:00 20.92 C 11.16 g/m*3 20.92 C 0 km/h
5 22-07-2010 04:00:00 20.5 C 10.36 g/m*3 20.5 C 0 km/h
6 22-07-2010 05:00:00 19.9 C 9.83 g/m*3 19.9 C 0 km/h
7 22-07-2010 06:00:00 18.92 C 10.93 g/m*3 18.92 C 0 km/h
8 22-07-2010 07:00:00 19.24 C 11.54 g/m*3 19.24 C 0 km/h
9 22-07-2010 08:00:00 21.04 C 10.94 g/m*3 21.04 C 0 km/h
10 22-07-2010 09:00:00 22.06 C 10.32 g/m*3 22.06 C 0 km/h
11 22-07-2010 10:00:00 21.58 C 10.68 g/m*3 21.58 C 0 km/h
12 22-07-2010 11:00:00 21.78 C 11.84 g/m*3 21.78 C 0 km/h
13 22-07-2010 12:00:00 22.38 C 11.47 g/m*3 22.38 C 0 km/h
14 22-07-2010 13:00:00 20.9 C 12.79 g/m*3 20.9 C 0 km/h
15 22-07-2010 14:00:00 21.26 C 12.53 g/m*3 21.26 C 0 km/h
16 22-07-2010 15:00:00 21.38 C 12.92 g/m*3 21.38 C 0 km/h
17 22-07-2010 16:00:00 23.2 C 11.56 g/m*3 23.2 C 0 km/h
18 22-07-2010 17:00:00 22.04 C 13.31 g/m*3 22.04 C 0 km/h
19 22-07-2010 18:00:00 23 C 12.09 g/m*3 23 C 0 km/h
20 22-07-2010 19:00:00 22.68 C 11.91 g/m*3 22.68 C 0 km/h
21 22-07-2010 20:00:00 21.86 C 12.01 g/m*3 21.86 C 0 km/h
22 22-07-2010 21:00:00 21.06 C 11.91 g/m*3 21.06 C 0 km/h
23 22-07-2010 22:00:00 20.48 C 11.8 g/m*3 20.48 C 0 km/h
24 22-07-2010 23:00:00 20.2 C 11.82 g/m*3 20.2 C 0 km/h
25 23-07-2010 00:00:00 20.1 C 12.06 g/m*3 20.1 C 0 km/h
Sensor: Nr:Datum:Temp:Abs-Feuchte:Windchill:Wind:
Aussen-T/F 26 23-07-2010 01:00:00 20 C 12.3 g/m*3 20 C 0 km/h
27 23-07-2010 02:00:00 19.22 C 12.22 g/m*3 19.22 C 0 km/h
28 23-07-2010 03:00:00 16.34 C 11.63 g/m*3 16.34 C 0 km/h
29 23-07-2010 04:00:00 16.04 C 11.69 g/m*3 16.04 C 0 km/h
30 23-07-2010 05:00:00 15.9 C 11.51 g/m*3 15.9 C 0 km/h
31 23-07-2010 06:00:00 15.86 C 11.54 g/m*3 15.86 C 0 km/h
32 23-07-2010 07:00:00 17.26 C 12.26 g/m*3 17.26 C 0 km/h
33 23-07-2010 08:00:00 18.02 C 12.09 g/m*3 18.02 C 0 km/h
34 23-07-2010 09:00:00 19.08 C 11.82 g/m*3 19.08 C 0 km/h
35 23-07-2010 10:00:00 21.4 C 10.46 g/m*3 21.4 C 0 km/h
36 23-07-2010 11:00:00 24.14 C 9.69 g/m*3 24.14 C 0 km/h
37 23-07-2010 12:00:00 26.46 C 8.09 g/m*3 26.46 C 0 km/h
38 23-07-2010 13:00:00 27.82 C 6.62 g/m*3 27.82 C 0 km/h
39 23-07-2010 14:00:00 29.34 C 6.55 g/m*3 29.34 C 0 km/h
40 23-07-2010 15:00:00 28.4 C 6.39 g/m*3 28.4 C 0 km/h
41 23-07-2010 16:00:00 28.54 C 6.33 g/m*3 28.54 C 0 km/h
42 23-07-2010 17:00:00 22.32 C 9.33 g/m*3 22.32 C 0 km/h
43 23-07-2010 18:00:00 18.1 C 11.53 g/m*3 18.1 C 0 km/h
44 23-07-2010 19:00:00 16.96 C 12.18 g/m*3 16.96 C 0 km/h
45 23-07-2010 20:00:00 15.98 C 12.3 g/m*3 15.98 C 0 km/h
46 23-07-2010 21:00:00 15.58 C 12.25 g/m*3 15.58 C 0 km/h
47 23-07-2010 22:00:00 15.125 C 12.02 g/m*3 15.13 C 0 km/h
48 23-07-2010 23:00:00 15.1 C 12.08 g/m*3 15.1 C 0 km/h
49 24-07-2010 00:00:00 15.02 C 12.07 g/m*3 15.02 C 0 km/h
50 24-07-2010 01:00:00 15.12 C 12.14 g/m*3 15.12 C 0 km/h
Sensor: Nr:Datum:Temp:Abs-Feuchte:Windchill:Wind:
Aussen-T/F 51 24-07-2010 02:00:00 15.26 C 12.38 g/m*3 15.26 C 0 km/h
52 24-07-2010 03:00:00 15.56 C 12.6 g/m*3 15.56 C 0 km/h
53 24-07-2010 04:00:00 15.64 C 12.4 g/m*3 15.64 C 0 km/h
54 24-07-2010 05:00:00 15.54 C 11.95 g/m*3 15.54 C 0 km/h
55 24-07-2010 06:00:00 15.42 C 11.65 g/m*3 15.42 C 0 km/h
56 24-07-2010 07:00:00 15.5 C 11.58 g/m*3 15.5 C 0 km/h
57 24-07-2010 08:00:00 16.16 C 11.31 g/m*3 16.16 C 0 km/h
58 24-07-2010 09:00:00 17.24 C 10.8 g/m*3 17.24 C 0 km/h
59 24-07-2010 10:00:00 18.62 C 9.66 g/m*3 18.62 C 0 km/h
60 24-07-2010 11:00:00 19.44 C 8.83 g/m*3 19.44 C 0 km/h
61 24-07-2010 12:00:00 20.52 C 8.19 g/m*3 20.52 C 0 km/h
62 24-07-2010 13:00:00 22.72 C 6.63 g/m*3 22.72 C 0 km/h
63 24-07-2010 14:00:00 23.48 C 6.17 g/m*3 23.48 C 0 km/h
64 24-07-2010 15:00:00 24.1 C 5.47 g/m*3 24.1 C 0 km/h
65 24-07-2010 16:00:00 23.86 C 4.66 g/m*3 23.86 C 0 km/h
66 24-07-2010 17:00:00 24.36 C 4.44 g/m*3 24.36 C 0 km/h
67 24-07-2010 18:00:00 23.48 C 4.22 g/m*3 23.48 C 0 km/h
68 24-07-2010 19:00:00 23.22 C 4.16 g/m*3 23.22 C 0 km/h
69 24-07-2010 20:00:00 22.72 C 4.05 g/m*3 22.72 C 0 km/h
70 24-07-2010 21:00:00 19.76 C 4.5 g/m*3 19.76 C 0 km/h
71 24-07-2010 22:00:00 17.5 C 5.19 g/m*3 17.5 C 0 km/h
72 24-07-2010 23:00:00 15.92 C 6.1 g/m*3 15.92 C 0 km/h
73 25-07-2010 00:00:00 14.54 C 6.58 g/m*3 14.54 C 0 km/h
74 25-07-2010 01:00:00 13.5 C 6.81 g/m*3 13.5 C 0 km/h
75 25-07-2010 02:00:00 12.7 C 6.97 g/m*3 12.7 C 0 km/h
Sensor: Nr:Datum:Temp:Abs-Feuchte:Windchill:Wind:
Aussen-T/F 76 25-07-2010 03:00:00 11.86 C 7.06 g/m*3 11.86 C 0 km/h
77 25-07-2010 04:00:00 10.96 C 7.31 g/m*3 10.96 C 0 km/h
78 25-07-2010 05:00:00 10.16 C 7.38 g/m*3 10.16 C 0 km/h
79 25-07-2010 06:00:00 10.04 C 7.4 g/m*3 10.04 C 0 km/h
80 25-07-2010 07:00:00 10.92 C 7.55 g/m*3 10.92 C 0 km/h
81 25-07-2010 08:00:00 12.12 C 7.9 g/m*3 12.12 C 0 km/h
82 25-07-2010 09:00:00 14.94 C 7.61 g/m*3 14.94 C 0 km/h
83 25-07-2010 10:00:00 17.8 C 6.77 g/m*3 17.8 C 0 km/h
84 25-07-2010 11:00:00 20.86 C 6.14 g/m*3 20.86 C 0 km/h
85 25-07-2010 12:00:00 22.94 C 5.9 g/m*3 22.94 C 0 km/h
86 25-07-2010 13:00:00 23.38 C 6.22 g/m*3 23.38 C 0 km/h
87 25-07-2010 14:00:00 22.2 C 6.95 g/m*3 22.2 C 0 km/h
88 25-07-2010 15:00:00 21.58 C 7.01 g/m*3 21.58 C 0 km/h
89 25-07-2010 16:00:00 21.98 C 7.13 g/m*3 21.98 C 0 km/h
90 25-07-2010 17:00:00 23.4 C 6.6 g/m*3 23.4 C 0 km/h
91 25-07-2010 18:00:00 22.26 C 7.53 g/m*3 22.26 C 0 km/h
92 25-07-2010 19:00:00 20.8 C 7.89 g/m*3 20.8 C 0 km/h
93 25-07-2010 20:00:00 20.16 C 7.82 g/m*3 20.16 C 0 km/h
94 25-07-2010 21:00:00 19.08 C 9.43 g/m*3 19.08 C 0 km/h
95 25-07-2010 22:00:00 18.38 C 10.18 g/m*3 18.38 C 0 km/h
96 25-07-2010 23:00:00 17.88 C 10.28 g/m*3 17.88 C 0 km/h
97 26-07-2010 00:00:00 17.56 C 9.93 g/m*3 17.56 C 0 km/h
98 26-07-2010 01:00:00 17.26 C 9.99 g/m*3 17.26 C 0 km/h
99 26-07-2010 02:00:00 16.8 C 10.04 g/m*3 16.8 C 0 km/h
100 26-07-2010 03:00:00 16.42 C 10.2 g/m*3 16.42 C 0 km/h
Sensor: Nr:Datum:Temp:Abs-Feuchte:Windchill:Wind:
Aussen-T/F 101 26-07-2010 04:00:00 16.24 C 10.59 g/m*3 16.24 C 0 km/h
102 26-07-2010 05:00:00 15.52 C 11.28 g/m*3 15.52 C 0 km/h
103 26-07-2010 06:00:00 15.4 C 11.46 g/m*3 15.4 C 0 km/h
104 26-07-2010 07:00:00 16.02 C 11.95 g/m*3 16.02 C 0 km/h
105 26-07-2010 08:00:00 16.98 C 11.91 g/m*3 16.98 C 0 km/h
106 26-07-2010 09:00:00 18.38 C 11.72 g/m*3 18.38 C 0 km/h
107 26-07-2010 10:00:00 20.24 C 10.76 g/m*3 20.24 C 0 km/h
108 26-07-2010 11:00:00 20.94 C 10.59 g/m*3 20.94 C 0 km/h
109 26-07-2010 12:00:00 19.04 C 12.55 g/m*3 19.04 C 0 km/h
110 26-07-2010 13:00:00 18.16 C 12.72 g/m*3 18.16 C 0 km/h
111 26-07-2010 14:00:00 17.36 C 13.16 g/m*3 17.36 C 0 km/h
112 26-07-2010 15:00:00 17.92 C 13.7 g/m*3 17.92 C 0 km/h
113 26-07-2010 16:00:00 19.68 C 13.4 g/m*3 19.68 C 0 km/h
114 26-07-2010 17:00:00 19.08 C 11.33 g/m*3 19.08 C 0 km/h
115 26-07-2010 18:00:00 17.16 C 11.34 g/m*3 17.16 C 0 km/h
116 26-07-2010 19:00:00 16.92 C 11.61 g/m*3 16.92 C 0 km/h
117 26-07-2010 20:00:00 16.16 C 11.12 g/m*3 16.16 C 0 km/h
118 26-07-2010 21:00:00 15.3 C 11.28 g/m*3 15.3 C 0 km/h
119 26-07-2010 22:00:00 15.22 C 10.86 g/m*3 15.22 C 0 km/h
120 26-07-2010 23:00:00 15.26 C 10.84 g/m*3 15.26 C 0 km/h
121 27-07-2010 00:00:00 15.34 C 11.13 g/m*3 15.34 C 0 km/h
122 27-07-2010 01:00:00 15.48 C 11.2 g/m*3 15.48 C 0 km/h
123 27-07-2010 02:00:00 15.6 C 11.04 g/m*3 15.6 C 0 km/h
124 27-07-2010 03:00:00 15.42 C 10.97 g/m*3 15.42 C 0 km/h
125 27-07-2010 04:00:00 15.26 C 10.84 g/m*3 15.26 C 0 km/h
Sensor: Nr:Datum:Temp:Abs-Feuchte:Windchill:Wind:
Aussen-T/F 126 27-07-2010 05:00:00 15.14 C 10.84 g/m*3 15.14 C 0 km/h
127 27-07-2010 06:00:00 15.28 C 10.77 g/m*3 15.28 C 0 km/h
128 27-07-2010 07:00:00 15.68 C 10.64 g/m*3 15.68 C 0 km/h
129 27-07-2010 08:00:00 16.22 C 10.6 g/m*3 16.22 C 0 km/h
130 27-07-2010 09:00:00 16.88 C 10.54 g/m*3 16.88 C 0 km/h
131 27-07-2010 10:00:00 18.52 C 10.07 g/m*3 18.52 C 0 km/h
132 27-07-2010 11:00:00 20.18 C 9.57 g/m*3 20.18 C 0 km/h
133 27-07-2010 12:00:00 22.08 C 9.09 g/m*3 22.08 C 0 km/h
134 27-07-2010 13:00:00 23.96 C 7.9 g/m*3 23.96 C 0 km/h
135 27-07-2010 14:00:00 24.42 C 7.66 g/m*3 24.42 C 0 km/h
136 27-07-2010 15:00:00 25.38 C 7.57 g/m*3 25.38 C 0 km/h
137 27-07-2010 16:00:00 27.9 C 6.82 g/m*3 27.9 C 0 km/h
138 27-07-2010 17:00:00 28.32 C 6.2 g/m*3 28.32 C 0 km/h
139 27-07-2010 18:00:00 25.06 C 7.67 g/m*3 25.06 C 0 km/h
140 27-07-2010 19:00:00 23.42 C 8.63 g/m*3 23.42 C 0 km/h
141 27-07-2010 20:00:00 22 C 8.38 g/m*3 22 C 0 km/h
142 27-07-2010 21:00:00 20.46 C 8.7 g/m*3 20.46 C 0 km/h
143 27-07-2010 22:00:00 19.12 C 9.16 g/m*3 19.12 C 0 km/h
144 27-07-2010 23:00:00 18.44 C 9.33 g/m*3 18.44 C 0 km/h
145 28-07-2010 00:00:00 18.2 C 9.79 g/m*3 18.2 C 0 km/h
146 28-07-2010 01:00:00 17.16 C 9.85 g/m*3 17.16 C 0 km/h
147 28-07-2010 02:00:00 16.96 C 10.22 g/m*3 16.96 C 0 km/h
148 28-07-2010 03:00:00 17.04 C 10.33 g/m*3 17.04 C 0 km/h
149 28-07-2010 04:00:00 16.96 C 10.48 g/m*3 16.96 C 0 km/h
150 28-07-2010 05:00:00 16.84 C 10.58 g/m*3 16.84 C 0 km/h
Sensor: Nr:Datum:Temp:Abs-Feuchte:Windchill:Wind:
Aussen-T/F 151 28-07-2010 06:00:00 17.02 C 10.81 g/m*3 17.02 C 0 km/h
152 28-07-2010 07:00:00 16.32 C 12.11 g/m*3 16.32 C 0 km/h
153 28-07-2010 08:00:00 17.1 C 13.01 g/m*3 17.1 C 0 km/h
154 28-07-2010 09:00:00 17.56 C 12.78 g/m*3 17.56 C 0 km/h
155 28-07-2010 10:00:00 17.7 C 13.25 g/m*3 17.7 C 0 km/h
156 28-07-2010 11:00:00 20.26 C 13.58 g/m*3 20.26 C 0 km/h
157 28-07-2010 12:00:00 21.22 C 13.02 g/m*3 21.22 C 0 km/h
158 28-07-2010 13:00:00 23.74 C 12.26 g/m*3 23.74 C 0 km/h
159 28-07-2010 14:00:00 25.74 C 9.31 g/m*3 25.74 C 0 km/h
160 28-07-2010 15:00:00 26 C 7.69 g/m*3 26 C 0 km/h
161 28-07-2010 16:00:00 27.78 C 7.04 g/m*3 27.78 C 0 km/h
162 28-07-2010 17:00:00 28.8 C 6.65 g/m*3 28.8 C 0 km/h
163 28-07-2010 18:00:00 26.74 C 6.7 g/m*3 26.74 C 0 km/h
164 28-07-2010 19:00:00 22.5 C 10.07 g/m*3 22.5 C 0 km/h
165 28-07-2010 20:00:00 21.78 C 10.2 g/m*3 21.78 C 0 km/h
166 28-07-2010 21:00:00 20.6 C 10.63 g/m*3 20.6 C 0 km/h
167 28-07-2010 22:00:00 19.78 C 11.26 g/m*3 19.78 C 0 km/h
168 28-07-2010 23:00:00 18.38 C 13.01 g/m*3 18.38 C 0 km/h
169 29-07-2010 00:00:00 17.16 C 13.12 g/m*3 17.16 C 0 km/h
170 29-07-2010 01:00:00 16.06 C 12.63 g/m*3 16.06 C 0 km/h
171 29-07-2010 02:00:00 15.16 C 12.04 g/m*3 15.16 C 0 km/h
172 29-07-2010 03:00:00 14.76 C 11.85 g/m*3 14.76 C 0 km/h
173 29-07-2010 04:00:00 14.44 C 11.65 g/m*3 14.44 C 0 km/h
174 29-07-2010 05:00:00 14.34 C 11.6 g/m*3 14.34 C 0 km/h
175 29-07-2010 06:00:00 14.62 C 11.9 g/m*3 14.62 C 0 km/h
Sensor: Nr:Datum:Temp:Abs-Feuchte:Windchill:Wind:
Aussen-T/F 176 29-07-2010 07:00:00 14.88 C 12.07 g/m*3 14.88 C 0 km/h
177 29-07-2010 08:00:00 15.38 C 12.47 g/m*3 15.38 C 0 km/h
178 29-07-2010 09:00:00 15.48 C 12.23 g/m*3 15.48 C 0 km/h
179 29-07-2010 10:00:00 15.22 C 11.67 g/m*3 15.22 C 0 km/h
180 29-07-2010 11:00:00 14.64 C 11.42 g/m*3 14.64 C 0 km/h
181 29-07-2010 12:00:00 17.28 C 12.6 g/m*3 17.28 C 0 km/h
182 29-07-2010 13:00:00 18.44 C 11.1 g/m*3 18.44 C 0 km/h
183 29-07-2010 14:00:00 17.76 C 10.93 g/m*3 17.76 C 0 km/h
184 29-07-2010 15:00:00 18.24 C 10.75 g/m*3 18.24 C 0 km/h
185 29-07-2010 16:00:00 19.64 C 10.93 g/m*3 19.64 C 0 km/h
186 29-07-2010 17:00:00 17.12 C 11.16 g/m*3 17.12 C 0 km/h
187 29-07-2010 18:00:00 17.82 C 11.31 g/m*3 17.82 C 0 km/h
188 29-07-2010 19:00:00 18.34 C 9.69 g/m*3 18.34 C 0 km/h
189 29-07-2010 20:00:00 17.6 C 9.51 g/m*3 17.6 C 0 km/h
190 29-07-2010 21:00:00 16.04 C 9.92 g/m*3 16.04 C 0 km/h
191 29-07-2010 22:00:00 15.66 C 9.9 g/m*3 15.66 C 0 km/h
192 29-07-2010 23:00:00 15.7 C 9.61 g/m*3 15.7 C 0 km/h
193 30-07-2010 00:00:00 15.2 C 9.84 g/m*3 15.2 C 0 km/h
194 30-07-2010 01:00:00 15.2 C 9.86 g/m*3 15.2 C 0 km/h
195 30-07-2010 02:00:00 14.74 C 9.89 g/m*3 14.74 C 0 km/h
196 30-07-2010 03:00:00 14.6 C 10.24 g/m*3 14.6 C 0 km/h
197 30-07-2010 04:00:00 14.42 C 10.4 g/m*3 14.42 C 0 km/h
198 30-07-2010 05:00:00 14.7 C 10.6 g/m*3 14.7 C 0 km/h
199 30-07-2010 06:00:00 14.76 C 10.51 g/m*3 14.76 C 0 km/h
200 30-07-2010 07:00:00 15.18 C 10.53 g/m*3 15.18 C 0 km/h
Sensor: Nr:Datum:Temp:Abs-Feuchte:Windchill:Wind:
Aussen-T/F 201 30-07-2010 08:00:00 16.28 C 10.56 g/m*3 16.28 C 0 km/h
202 30-07-2010 09:00:00 17.26 C 9.79 g/m*3 17.26 C 0 km/h
203 30-07-2010 10:00:00 19 C 9 g/m*3 19 C 0 km/h
204 30-07-2010 11:00:00 22 C 8.35 g/m*3 22 C 0 km/h
205 30-07-2010 12:00:00 21.54 C 8.32 g/m*3 21.54 C 0 km/h
206 30-07-2010 13:00:00 24 C 7.48 g/m*3 24 C 0 km/h
207 30-07-2010 14:00:00 24.48 C 7.6 g/m*3 24.48 C 0 km/h
208 30-07-2010 15:00:00 25.14 C 7.15 g/m*3 25.14 C 0 km/h
209 30-07-2010 16:00:00 25.94 C 6.6 g/m*3 25.94 C 0 km/h
210 30-07-2010 17:00:00 26.82 C 6.42 g/m*3 26.82 C 0 km/h
211 30-07-2010 18:00:00 26.8 C 6.06 g/m*3 26.8 C 0 km/h
212 30-07-2010 19:00:00 26.02 C 6.97 g/m*3 26.02 C 0 km/h
213 30-07-2010 20:00:00 22.54 C 7.53 g/m*3 22.54 C 0 km/h
214 30-07-2010 21:00:00 19.84 C 7.7 g/m*3 19.84 C 0 km/h
215 30-07-2010 22:00:00 18.5 C 7.47 g/m*3 18.5 C 0 km/h
216 30-07-2010 23:00:00 17 C 8.54 g/m*3 17 C 0 km/h
217 31-07-2010 00:00:00 15.92 C 8.73 g/m*3 15.92 C 0 km/h
218 31-07-2010 01:00:00 14.84 C 8.79 g/m*3 14.84 C 0 km/h
219 31-07-2010 02:00:00 14.04 C 8.66 g/m*3 14.04 C 0 km/h
220 31-07-2010 03:00:00 13.34 C 8.64 g/m*3 13.34 C 0 km/h
221 31-07-2010 04:00:00 12.7 C 8.66 g/m*3 12.7 C 0 km/h
222 31-07-2010 05:00:00 12.26 C 8.67 g/m*3 12.26 C 0 km/h
223 31-07-2010 06:00:00 12.02 C 8.77 g/m*3 12.02 C 0 km/h
224 31-07-2010 07:00:00 12.6 C 9.12 g/m*3 12.6 C 0 km/h
225 31-07-2010 08:00:00 13.84 C 9.27 g/m*3 13.84 C 0 km/h
Sensor: Nr:Datum:Temp:Abs-Feuchte:Windchill:Wind:
Aussen-T/F 226 31-07-2010 09:00:00 16.36 C 9.55 g/m*3 16.36 C 0 km/h
227 31-07-2010 10:00:00 22 C 9.04 g/m*3 22 C 0 km/h
228 31-07-2010 11:00:00 23.48 C 7.44 g/m*3 23.48 C 0 km/h
229 31-07-2010 12:00:00 24.12 C 6.83 g/m*3 24.12 C 0 km/h
230 31-07-2010 13:00:00 25.56 C 6.56 g/m*3 25.56 C 0 km/h
231 31-07-2010 14:00:00 26.84 C 6.63 g/m*3 26.84 C 0 km/h
232 31-07-2010 15:00:00 27.88 C 6.32 g/m*3 27.88 C 0 km/h
233 31-07-2010 16:00:00 29.44 C 6 g/m*3 29.44 C 0 km/h
234 31-07-2010 17:00:00 29.84 C 6.01 g/m*3 29.84 C 0 km/h
235 31-07-2010 18:00:00 29.86 C 6.08 g/m*3 29.86 C 0 km/h
236 31-07-2010 19:00:00 27.88 C 7.24 g/m*3 27.88 C 0 km/h
237 31-07-2010 20:00:00 24.6 C 8.19 g/m*3 24.6 C 0 km/h
238 31-07-2010 21:00:00 23.04 C 8.41 g/m*3 23.04 C 0 km/h
239 31-07-2010 22:00:00 22.02 C 9.17 g/m*3 22.02 C 0 km/h
240 31-07-2010 23:00:00 20.5 C 11.74 g/m*3 20.5 C 0 km/h
241 01-08-2010 00:00:00 19.4 C 12.38 g/m*3 19.4 C 0 km/h
242 01-08-2010 01:00:00 18.26 C 13.1 g/m*3 18.26 C 0 km/h
243 01-08-2010 02:00:00 18.1 C 13.38 g/m*3 18.1 C 0 km/h
244 01-08-2010 03:00:00 17.98 C 13.16 g/m*3 17.98 C 0 km/h
245 01-08-2010 04:00:00 17.84 C 12.93 g/m*3 17.84 C 0 km/h
246 01-08-2010 05:00:00 17.72 C 12.78 g/m*3 17.72 C 0 km/h
247 01-08-2010 06:00:00 17.42 C 13.15 g/m*3 17.42 C 0 km/h
248 01-08-2010 07:00:00 18.34 C 13.73 g/m*3 18.34 C 0 km/h
249 01-08-2010 08:00:00 19.68 C 13.77 g/m*3 19.68 C 0 km/h
250 01-08-2010 09:00:00 20.86 C 13.56 g/m*3 20.86 C 0 km/h
Sensor: Nr:Datum:Temp:Abs-Feuchte:Windchill:Wind:
Aussen-T/F 251 01-08-2010 10:00:00 21.94 C 13.58 g/m*3 21.94 C 0 km/h
252 01-08-2010 11:00:00 24.06 C 12.92 g/m*3 24.06 C 0 km/h
253 01-08-2010 12:00:00 25.46 C 10.72 g/m*3 25.46 C 0 km/h
254 01-08-2010 13:00:00 27.84 C 9.43 g/m*3 27.84 C 0 km/h
255 01-08-2010 14:00:00 29.02 C 7.94 g/m*3 29.02 C 0 km/h
256 01-08-2010 15:00:00 30.04 C 7.23 g/m*3 30.04 C 0 km/h
257 01-08-2010 16:00:00 30.66 C 7.1 g/m*3 30.66 C 0 km/h
258 01-08-2010 17:00:00 30.1 C 7.44 g/m*3 30.1 C 0 km/h
259 01-08-2010 18:00:00 28.36 C 8.38 g/m*3 28.36 C 0 km/h
260 01-08-2010 19:00:00 25.88 C 9.48 g/m*3 25.88 C 0 km/h
261 01-08-2010 20:00:00 24.64 C 10.24 g/m*3 24.64 C 0 km/h
262 01-08-2010 21:00:00 23.16 C 9.83 g/m*3 23.16 C 0 km/h
263 01-08-2010 22:00:00 21.96 C 9.53 g/m*3 21.96 C 0 km/h
264 01-08-2010 23:00:00 21.08 C 9.97 g/m*3 21.08 C 0 km/h
265 02-08-2010 00:00:00 19.74 C 10.01 g/m*3 19.74 C 0 km/h
266 02-08-2010 01:00:00 19.24 C 10.28 g/m*3 19.24 C 0 km/h
267 02-08-2010 02:00:00 18.64 C 10.53 g/m*3 18.64 C 0 km/h
268 02-08-2010 03:00:00 17.94 C 10.62 g/m*3 17.94 C 0 km/h
269 02-08-2010 04:00:00 17.1 C 10.86 g/m*3 17.1 C 0 km/h
270 02-08-2010 05:00:00 16.32 C 10.64 g/m*3 16.32 C 0 km/h
271 02-08-2010 06:00:00 16.48 C 10.91 g/m*3 16.48 C 0 km/h
272 02-08-2010 07:00:00 16.38 C 10.96 g/m*3 16.38 C 0 km/h
273 02-08-2010 08:00:00 16.86 C 11.16 g/m*3 16.86 C 0 km/h
274 02-08-2010 09:00:00 18.68 C 11.16 g/m*3 18.68 C 0 km/h
275 02-08-2010 10:00:00 20.88 C 10.59 g/m*3 20.88 C 0 km/h
Sensor: Nr:Datum:Temp:Abs-Feuchte:Windchill:Wind:
Aussen-T/F 276 02-08-2010 11:00:00 23.84 C 9.31 g/m*3 23.84 C 0 km/h
277 02-08-2010 12:00:00 25.54 C 8.16 g/m*3 25.54 C 0 km/h
278 02-08-2010 13:00:00 23.28 C 8.65 g/m*3 23.28 C 0 km/h
279 02-08-2010 14:00:00 20.48 C 11.23 g/m*3 20.48 C 0 km/h
280 02-08-2010 15:00:00 21.32 C 11.23 g/m*3 21.32 C 0 km/h
281 02-08-2010 16:00:00 23.06 C 10.93 g/m*3 23.06 C 0 km/h
282 02-08-2010 17:00:00 24.2 C 9.77 g/m*3 24.2 C 0 km/h
283 02-08-2010 18:00:00 21.28 C 11.17 g/m*3 21.28 C 0 km/h
284 02-08-2010 19:00:00 20.02 C 12.35 g/m*3 20.02 C 0 km/h
285 02-08-2010 20:00:00 18.6 C 13.5 g/m*3 18.6 C 0 km/h
286 02-08-2010 21:00:00 17.58 C 13.45 g/m*3 17.58 C 0 km/h
287 02-08-2010 22:00:00 17.12 C 13.32 g/m*3 17.12 C 0 km/h
288 02-08-2010 23:00:00 16.04 C 12.43 g/m*3 16.04 C 0 km/h
289 03-08-2010 00:00:00 15.94 C 12.08 g/m*3 15.94 C 0 km/h
290 03-08-2010 01:00:00 15.96 C 12.02 g/m*3 15.96 C 0 km/h
291 03-08-2010 02:00:00 15.46 C 11.76 g/m*3 15.46 C 0 km/h
292 03-08-2010 03:00:00 15.26 C 12.06 g/m*3 15.26 C 0 km/h
293 03-08-2010 04:00:00 15.02 C 12.04 g/m*3 15.02 C 0 km/h
294 03-08-2010 05:00:00 14.96 C 12.08 g/m*3 14.96 C 0 km/h
295 03-08-2010 06:00:00 14.62 C 11.9 g/m*3 14.62 C 0 km/h
296 03-08-2010 07:00:00 15.06 C 12.23 g/m*3 15.06 C 0 km/h
297 03-08-2010 08:00:00 15.96 C 12.37 g/m*3 15.96 C 0 km/h
298 03-08-2010 09:00:00 16.78 C 11.71 g/m*3 16.78 C 0 km/h
299 03-08-2010 10:00:00 17.64 C 11.03 g/m*3 17.64 C 0 km/h
300 03-08-2010 11:00:00 18.94 C 9.58 g/m*3 18.94 C 0 km/h
Sensor: Nr:Datum:Temp:Abs-Feuchte:Windchill:Wind:
Aussen-T/F 301 03-08-2010 12:00:00 21.22 C 7.94 g/m*3 21.22 C 0 km/h
302 03-08-2010 13:00:00 21.34 C 7.66 g/m*3 21.34 C 0 km/h
303 03-08-2010 14:00:00 21.88 C 8.29 g/m*3 21.88 C 0 km/h
304 03-08-2010 15:00:00 24.2 C 6.29 g/m*3 24.2 C 0 km/h
305 03-08-2010 16:00:00 25.38 C 5.31 g/m*3 25.38 C 0 km/h
306 03-08-2010 17:00:00 25.84 C 4.97 g/m*3 25.84 C 0 km/h
307 03-08-2010 18:00:00 26.12 C 5.15 g/m*3 26.12 C 0 km/h
308 03-08-2010 19:00:00 23.6 C 5.91 g/m*3 23.6 C 0 km/h
309 03-08-2010 20:00:00 21.72 C 7.22 g/m*3 21.72 C 0 km/h
310 03-08-2010 21:00:00 18.32 C 7.61 g/m*3 18.32 C 0 km/h
311 03-08-2010 22:00:00 17.26 C 8.29 g/m*3 17.26 C 0 km/h
312 03-08-2010 23:00:00 16.12 C 8.51 g/m*3 16.12 C 0 km/h
313 04-08-2010 00:00:00 15.44 C 8.98 g/m*3 15.44 C 0 km/h
314 04-08-2010 01:00:00 15.68 C 9.22 g/m*3 15.68 C 0 km/h
315 04-08-2010 02:00:00 15.42 C 9.71 g/m*3 15.42 C 0 km/h
316 04-08-2010 03:00:00 15.36 C 9.7 g/m*3 15.36 C 0 km/h
317 04-08-2010 04:00:00 15.2 C 9.53 g/m*3 15.2 C 0 km/h
318 04-08-2010 05:00:00 15.14 C 9.57 g/m*3 15.14 C 0 km/h
319 04-08-2010 06:00:00 15.28 C 9.78 g/m*3 15.28 C 0 km/h
320 04-08-2010 07:00:00 15.88 C 10.01 g/m*3 15.88 C 0 km/h
321 04-08-2010 08:00:00 16.86 C 9.96 g/m*3 16.86 C 0 km/h
322 04-08-2010 09:00:00 18.8 C 9.86 g/m*3 18.8 C 0 km/h
323 04-08-2010 10:00:00 21.08 C 9.13 g/m*3 21.08 C 0 km/h
324 04-08-2010 11:00:00 22.5 C 8.11 g/m*3 22.5 C 0 km/h
325 04-08-2010 12:00:00 23.72 C 7.02 g/m*3 23.72 C 0 km/h
Sensor: Nr:Datum:Temp:Abs-Feuchte:Windchill:Wind:
Aussen-T/F 326 04-08-2010 13:00:00 24.98 C 6.39 g/m*3 24.98 C 0 km/h
327 04-08-2010 14:00:00 24.56 C 6.65 g/m*3 24.56 C 0 km/h
328 04-08-2010 15:00:00 23.88 C 6.83 g/m*3 23.88 C 0 km/h
329 04-08-2010 16:00:00 23.36 C 7.01 g/m*3 23.36 C 0 km/h
330 04-08-2010 17:00:00 23.1 C 7.23 g/m*3 23.1 C 0 km/h
331 04-08-2010 18:00:00 23.32 C 7.37 g/m*3 23.32 C 0 km/h
332 04-08-2010 19:00:00 22.44 C 7.84 g/m*3 22.44 C 0 km/h
333 04-08-2010 20:00:00 21.14 C 8.98 g/m*3 21.14 C 0 km/h
334 04-08-2010 21:00:00 20.1 C 9.11 g/m*3 20.1 C 0 km/h
335 04-08-2010 22:00:00 19.325 C 10.09 g/m*3 19.33 C 0 km/h
336 04-08-2010 23:00:00 18.32 C 11.46 g/m*3 18.32 C 0 km/h
337 05-08-2010 00:00:00 16.78 C 12.37 g/m*3 16.78 C 0 km/h
338 05-08-2010 01:00:00 16.28 C 12.44 g/m*3 16.28 C 0 km/h
339 05-08-2010 02:00:00 15.82 C 12.37 g/m*3 15.82 C 0 km/h
340 05-08-2010 03:00:00 15.54 C 12.3 g/m*3 15.54 C 0 km/h
341 05-08-2010 04:00:00 15.3 C 12.14 g/m*3 15.3 C 0 km/h
342 05-08-2010 05:00:00 15.32 C 12.21 g/m*3 15.32 C 0 km/h
343 05-08-2010 06:00:00 15.68 C 12.56 g/m*3 15.68 C 0 km/h
344 05-08-2010 07:00:00 15.72 C 12.57 g/m*3 15.72 C 0 km/h
345 05-08-2010 08:00:00 16.2 C 12.55 g/m*3 16.2 C 0 km/h
346 05-08-2010 09:00:00 16.84 C 11.44 g/m*3 16.84 C 0 km/h
347 05-08-2010 10:00:00 17.46 C 10.38 g/m*3 17.46 C 0 km/h
348 05-08-2010 11:00:00 18.36 C 9.67 g/m*3 18.36 C 0 km/h
349 05-08-2010 12:00:00 18.42 C 9.35 g/m*3 18.42 C 0 km/h
350 05-08-2010 13:00:00 18.98 C 8.2 g/m*3 18.98 C 0 km/h
Sensor: Nr:Datum:Temp:Abs-Feuchte:Windchill:Wind:
Aussen-T/F 351 05-08-2010 14:00:00 21.28 C 7.56 g/m*3 21.28 C 0 km/h
352 05-08-2010 15:00:00 23 C 6.41 g/m*3 23 C 0 km/h
353 05-08-2010 16:00:00 25.08 C 5.69 g/m*3 25.08 C 0 km/h
354 05-08-2010 17:00:00 23.98 C 5.3 g/m*3 23.98 C 0 km/h
355 05-08-2010 18:00:00 22.7 C 5.62 g/m*3 22.7 C 0 km/h
356 05-08-2010 19:00:00 21.26 C 6.17 g/m*3 21.26 C 0 km/h
357 05-08-2010 20:00:00 20.22 C 6.9 g/m*3 20.22 C 0 km/h
358 05-08-2010 21:00:00 18.94 C 7.15 g/m*3 18.94 C 0 km/h
359 05-08-2010 22:00:00 17.7 C 7.48 g/m*3 17.7 C 0 km/h
360 05-08-2010 23:00:00 17 C 8.1 g/m*3 17 C 0 km/h
361 06-08-2010 00:00:00 16.02 C 8.48 g/m*3 16.02 C 0 km/h
362 06-08-2010 01:00:00 15.26 C 8.62 g/m*3 15.26 C 0 km/h
363 06-08-2010 02:00:00 14.52 C 8.87 g/m*3 14.52 C 0 km/h
364 06-08-2010 03:00:00 13.96 C 8.86 g/m*3 13.96 C 0 km/h
365 06-08-2010 04:00:00 13.44 C 9.3 g/m*3 13.44 C 0 km/h
366 06-08-2010 05:00:00 12.96 C 9.34 g/m*3 12.96 C 0 km/h
367 06-08-2010 06:00:00 13.34 C 9.29 g/m*3 13.34 C 0 km/h
368 06-08-2010 07:00:00 13.18 C 9.27 g/m*3 13.18 C 0 km/h
369 06-08-2010 08:00:00 13.48 C 9.49 g/m*3 13.48 C 0 km/h
370 06-08-2010 09:00:00 15.46 C 9.44 g/m*3 15.46 C 0 km/h
371 06-08-2010 10:00:00 17.84 C 8.31 g/m*3 17.84 C 0 km/h
372 06-08-2010 11:00:00 19.84 C 7.22 g/m*3 19.84 C 0 km/h
373 06-08-2010 12:00:00 21.34 C 6.17 g/m*3 21.34 C 0 km/h
374 06-08-2010 13:00:00 23.7 C 4.79 g/m*3 23.7 C 0 km/h
375 06-08-2010 14:00:00 24.84 C 4.56 g/m*3 24.84 C 0 km/h
Sensor: Nr:Datum:Temp:Abs-Feuchte:Windchill:Wind:
Aussen-T/F 376 06-08-2010 15:00:00 25.28 C 4.68 g/m*3 25.28 C 0 km/h
377 06-08-2010 16:00:00 28.1 C 5.47 g/m*3 28.1 C 0 km/h
378 06-08-2010 17:00:00 24.86 C 7.63 g/m*3 24.86 C 0 km/h
379 06-08-2010 18:00:00 26.42 C 4.98 g/m*3 26.42 C 0 km/h
380 06-08-2010 19:00:00 26.2 C 4.92 g/m*3 26.2 C 0 km/h
381 06-08-2010 20:00:00 23.66 C 5.29 g/m*3 23.66 C 0 km/h
382 06-08-2010 21:00:00 19.3 C 6.14 g/m*3 19.3 C 0 km/h
383 06-08-2010 22:00:00 17.72 C 6.34 g/m*3 17.72 C 0 km/h
384 06-08-2010 23:00:00 16.4 C 6.67 g/m*3 16.4 C 0 km/h
385 07-08-2010 00:00:00 15.04 C 7.15 g/m*3 15.04 C 0 km/h
386 07-08-2010 01:00:00 13.94 C 7.55 g/m*3 13.94 C 0 km/h
387 07-08-2010 02:00:00 13 C 7.89 g/m*3 13 C 0 km/h
388 07-08-2010 03:00:00 12.32 C 7.74 g/m*3 12.32 C 0 km/h
389 07-08-2010 04:00:00 11.64 C 7.71 g/m*3 11.64 C 0 km/h
390 07-08-2010 05:00:00 11.06 C 7.7 g/m*3 11.06 C 0 km/h
391 07-08-2010 06:00:00 10.48 C 7.77 g/m*3 10.48 C 0 km/h
392 07-08-2010 07:00:00 10.7 C 7.96 g/m*3 10.7 C 0 km/h
393 07-08-2010 08:00:00 11.74 C 8.07 g/m*3 11.74 C 0 km/h
394 07-08-2010 09:00:00 14.06 C 8.4 g/m*3 14.06 C 0 km/h
395 07-08-2010 10:00:00 18.22 C 8.5 g/m*3 18.22 C 0 km/h
396 07-08-2010 11:00:00 21.26 C 6.36 g/m*3 21.26 C 0 km/h
397 07-08-2010 12:00:00 22.86 C 5.46 g/m*3 22.86 C 0 km/h
398 07-08-2010 13:00:00 25.48 C 4.87 g/m*3 25.48 C 0 km/h
399 07-08-2010 14:00:00 26.66 C 5.05 g/m*3 26.66 C 0 km/h
400 07-08-2010 15:00:00 27.78 C 5.37 g/m*3 27.78 C 0 km/h
Sensor: Nr:Datum:Temp:Abs-Feuchte:Windchill:Wind:
Aussen-T/F 401 07-08-2010 16:00:00 29.2 C 5.81 g/m*3 29.2 C 0 km/h
402 07-08-2010 17:00:00 29.3 C 5.84 g/m*3 29.3 C 0 km/h
403 07-08-2010 18:00:00 27.4 C 6.26 g/m*3 27.4 C 0 km/h
404 07-08-2010 19:00:00 25.16 C 6.83 g/m*3 25.16 C 0 km/h
405 07-08-2010 20:00:00 23.86 C 6.99 g/m*3 23.86 C 0 km/h
406 07-08-2010 21:00:00 22.46 C 7.05 g/m*3 22.46 C 0 km/h
407 07-08-2010 22:00:00 21.96 C 7.4 g/m*3 21.96 C 0 km/h
408 07-08-2010 23:00:00 21.6 C 7.74 g/m*3 21.6 C 0 km/h
409 08-08-2010 00:00:00 21.04 C 8.12 g/m*3 21.04 C 0 km/h
410 08-08-2010 01:00:00 20.16 C 8.44 g/m*3 20.16 C 0 km/h
411 08-08-2010 02:00:00 19.82 C 9.44 g/m*3 19.82 C 0 km/h
412 08-08-2010 03:00:00 18.68 C 10.01 g/m*3 18.68 C 0 km/h
413 08-08-2010 04:00:00 18.36 C 10.39 g/m*3 18.36 C 0 km/h
414 08-08-2010 05:00:00 17.56 C 11.46 g/m*3 17.56 C 0 km/h
415 08-08-2010 06:00:00 16.68 C 12.49 g/m*3 16.68 C 0 km/h
416 08-08-2010 07:00:00 16.66 C 12.96 g/m*3 16.66 C 0 km/h
417 08-08-2010 08:00:00 17.2 C 13.47 g/m*3 17.2 C 0 km/h
418 08-08-2010 09:00:00 17.64 C 13.35 g/m*3 17.64 C 0 km/h
419 08-08-2010 10:00:00 18.46 C 12.66 g/m*3 18.46 C 0 km/h
420 08-08-2010 11:00:00 16.48 C 12.15 g/m*3 16.48 C 0 km/h
421 08-08-2010 12:00:00 16.58 C 12.56 g/m*3 16.58 C 0 km/h
422 08-08-2010 13:00:00 17.16 C 12.86 g/m*3 17.16 C 0 km/h
423 08-08-2010 14:00:00 18.98 C 12.57 g/m*3 18.98 C 0 km/h
424 08-08-2010 15:00:00 20.18 C 12.5 g/m*3 20.18 C 0 km/h
425 08-08-2010 16:00:00 19.94 C 12.36 g/m*3 19.94 C 0 km/h
Sensor: Nr:Datum:Temp:Abs-Feuchte:Windchill:Wind:
Aussen-T/F 426 08-08-2010 17:00:00 21.68 C 12 g/m*3 21.68 C 0 km/h
427 08-08-2010 18:00:00 21.42 C 10.21 g/m*3 21.42 C 0 km/h
428 08-08-2010 19:00:00 19.98 C 10.77 g/m*3 19.98 C 0 km/h
429 08-08-2010 20:00:00 17.72 C 11.81 g/m*3 17.72 C 0 km/h
430 08-08-2010 21:00:00 17.46 C 11.42 g/m*3 17.46 C 0 km/h
431 08-08-2010 22:00:00 17.1 C 11.5 g/m*3 17.1 C 0 km/h
432 08-08-2010 23:00:00 16.7 C 11.68 g/m*3 16.7 C 0 km/h
433 09-08-2010 00:00:00 16.42 C 12.05 g/m*3 16.42 C 0 km/h
434 09-08-2010 01:00:00 16.44 C 12.17 g/m*3 16.44 C 0 km/h
435 09-08-2010 02:00:00 15.6 C 11.68 g/m*3 15.6 C 0 km/h
436 09-08-2010 03:00:00 15.6 C 11.7 g/m*3 15.6 C 0 km/h
437 09-08-2010 04:00:00 15.74 C 11.4 g/m*3 15.74 C 0 km/h
438 09-08-2010 05:00:00 14.84 C 10.97 g/m*3 14.84 C 0 km/h
439 09-08-2010 06:00:00 14.6 C 11.31 g/m*3 14.6 C 0 km/h
440 09-08-2010 07:00:00 14.6 C 11.34 g/m*3 14.6 C 0 km/h
441 09-08-2010 08:00:00 15.22 C 11.05 g/m*3 15.22 C 0 km/h
442 09-08-2010 09:00:00 15.8 C 10.82 g/m*3 15.8 C 0 km/h
443 09-08-2010 10:00:00 17.4 C 10.55 g/m*3 17.4 C 0 km/h
444 09-08-2010 11:00:00 19.6 C 9.25 g/m*3 19.6 C 0 km/h
445 09-08-2010 12:00:00 21.3 C 8.61 g/m*3 21.3 C 0 km/h
446 09-08-2010 13:00:00 24.36 C 8.17 g/m*3 24.36 C 0 km/h
447 09-08-2010 14:00:00 24.1 C 7.83 g/m*3 24.1 C 0 km/h
448 09-08-2010 15:00:00 25.54 C 7.59 g/m*3 25.54 C 0 km/h
449 09-08-2010 16:00:00 26.18 C 6.84 g/m*3 26.18 C 0 km/h
450 09-08-2010 17:00:00 26.22 C 8.08 g/m*3 26.22 C 0 km/h
Sensor: Nr:Datum:Temp:Abs-Feuchte:Windchill:Wind:
Aussen-T/F 451 09-08-2010 18:00:00 27.5 C 7.88 g/m*3 27.5 C 0 km/h
452 09-08-2010 19:00:00 23.52 C 8.81 g/m*3 23.52 C 0 km/h
453 09-08-2010 20:00:00 21.26 C 8.55 g/m*3 21.26 C 0 km/h
454 09-08-2010 21:00:00 19.76 C 8.79 g/m*3 19.76 C 0 km/h
455 09-08-2010 22:00:00 18.64 C 8.97 g/m*3 18.64 C 0 km/h
456 09-08-2010 23:00:00 18.12 C 9.25 g/m*3 18.12 C 0 km/h
457 10-08-2010 00:00:00 17.62 C 9.79 g/m*3 17.62 C 0 km/h
458 10-08-2010 01:00:00 17.52 C 10.15 g/m*3 17.52 C 0 km/h
459 10-08-2010 02:00:00 17.38 C 10.04 g/m*3 17.38 C 0 km/h
460 10-08-2010 03:00:00 17.14 C 10.1 g/m*3 17.14 C 0 km/h
461 10-08-2010 04:00:00 16.86 C 10.24 g/m*3 16.86 C 0 km/h
462 10-08-2010 05:00:00 15.62 C 10.09 g/m*3 15.62 C 0 km/h
463 10-08-2010 06:00:00 14.66 C 9.92 g/m*3 14.66 C 0 km/h
464 10-08-2010 07:00:00 14.88 C 10.31 g/m*3 14.88 C 0 km/h
465 10-08-2010 08:00:00 15.84 C 10.71 g/m*3 15.84 C 0 km/h
466 10-08-2010 09:00:00 18.2 C 10.6 g/m*3 18.2 C 0 km/h
467 10-08-2010 10:00:00 20.92 C 11.01 g/m*3 20.92 C 0 km/h
468 10-08-2010 11:00:00 23.74 C 9.52 g/m*3 23.74 C 0 km/h
469 10-08-2010 12:00:00 25.9 C 6.83 g/m*3 25.9 C 0 km/h
470 10-08-2010 13:00:00 28.16 C 5.98 g/m*3 28.16 C 0 km/h
471 10-08-2010 14:00:00 29.04 C 6.22 g/m*3 29.04 C 0 km/h
472 10-08-2010 15:00:00 28.46 C 7.36 g/m*3 28.46 C 0 km/h
473 10-08-2010 16:00:00 29.88 C 6.51 g/m*3 29.88 C 0 km/h
474 10-08-2010 17:00:00 29.94 C 6.47 g/m*3 29.94 C 0 km/h
475 10-08-2010 18:00:00 29.68 C 6.74 g/m*3 29.68 C 0 km/h
Sensor: Nr:Datum:Temp:Abs-Feuchte:Windchill:Wind:
Aussen-T/F 476 10-08-2010 19:00:00 26.94 C 8.16 g/m*3 26.94 C 0 km/h
477 10-08-2010 20:00:00 24.76 C 8.27 g/m*3 24.76 C 0 km/h
478 10-08-2010 21:00:00 23.36 C 8.77 g/m*3 23.36 C 0 km/h
479 10-08-2010 22:00:00 22.86 C 8.93 g/m*3 22.86 C 0 km/h
480 10-08-2010 23:00:00 21.9 C 9.26 g/m*3 21.9 C 0 km/h
481 11-08-2010 00:00:00 21.46 C 9.67 g/m*3 21.46 C 0 km/h
482 11-08-2010 01:00:00 20.54 C 10.56 g/m*3 20.54 C 0 km/h
483 11-08-2010 02:00:00 18.38 C 12.32 g/m*3 18.38 C 0 km/h
484 11-08-2010 03:00:00 17.64 C 13.14 g/m*3 17.64 C 0 km/h
485 11-08-2010 04:00:00 17.52 C 13.4 g/m*3 17.52 C 0 km/h
486 11-08-2010 05:00:00 17.42 C 13.24 g/m*3 17.42 C 0 km/h
487 11-08-2010 06:00:00 17.4 C 13.04 g/m*3 17.4 C 0 km/h
488 11-08-2010 07:00:00 17.62 C 13.03 g/m*3 17.62 C 0 km/h
489 11-08-2010 08:00:00 18.68 C 13.02 g/m*3 18.68 C 0 km/h
490 11-08-2010 09:00:00 19.64 C 11.51 g/m*3 19.64 C 0 km/h
491 11-08-2010 10:00:00 20.8 C 11.08 g/m*3 20.8 C 0 km/h
492 11-08-2010 11:00:00 20.62 C 11.18 g/m*3 20.62 C 0 km/h
493 11-08-2010 12:00:00 22.46 C 11 g/m*3 22.46 C 0 km/h
494 11-08-2010 13:00:00 23.8 C 10.37 g/m*3 23.8 C 0 km/h
495 11-08-2010 14:00:00 24.4 C 10.1 g/m*3 24.4 C 0 km/h
496 11-08-2010 15:00:00 25.56 C 9.88 g/m*3 25.56 C 0 km/h
497 11-08-2010 16:00:00 22.88 C 12 g/m*3 22.88 C 0 km/h
498 11-08-2010 17:00:00 21.74 C 14 g/m*3 21.74 C 0 km/h
499 11-08-2010 18:00:00 22.86 C 14.31 g/m*3 22.86 C 0 km/h
500 11-08-2010 19:00:00 21.28 C 13.7 g/m*3 21.28 C 0 km/h
Sensor: Nr:Datum:Temp:Abs-Feuchte:Windchill:Wind:
Aussen-T/F 501 11-08-2010 20:00:00 19.56 C 13.57 g/m*3 19.56 C 0 km/h
502 11-08-2010 21:00:00 18.84 C 14.4 g/m*3 18.84 C 0 km/h
503 11-08-2010 22:00:00 18.48 C 14.38 g/m*3 18.48 C 0 km/h
504 11-08-2010 23:00:00 18.3 C 14.38 g/m*3 18.3 C 0 km/h
505 12-08-2010 00:00:00 17.88 C 14.27 g/m*3 17.88 C 0 km/h
506 12-08-2010 01:00:00 17.52 C 14.03 g/m*3 17.52 C 0 km/h
507 12-08-2010 02:00:00 17.16 C 13.73 g/m*3 17.16 C 0 km/h
508 12-08-2010 03:00:00 16.86 C 13.49 g/m*3 16.86 C 0 km/h
509 12-08-2010 04:00:00 16.46 C 13.22 g/m*3 16.46 C 0 km/h
510 12-08-2010 05:00:00 16.48 C 13.3 g/m*3 16.48 C 0 km/h
511 12-08-2010 06:00:00 16.72 C 13.52 g/m*3 16.72 C 0 km/h
512 12-08-2010 07:00:00 16.86 C 13.6 g/m*3 16.86 C 0 km/h
513 12-08-2010 08:00:00 16.64 C 12.89 g/m*3 16.64 C 0 km/h
514 12-08-2010 09:00:00 17.72 C 13.44 g/m*3 17.72 C 0 km/h
515 12-08-2010 10:00:00 18.58 C 12.24 g/m*3 18.58 C 0 km/h
516 12-08-2010 11:00:00 18.62 C 12.17 g/m*3 18.62 C 0 km/h
517 12-08-2010 12:00:00 19.56 C 11.25 g/m*3 19.56 C 0 km/h
518 12-08-2010 13:00:00 20.26 C 9.58 g/m*3 20.26 C 0 km/h
519 12-08-2010 14:00:00 20.3 C 9.04 g/m*3 20.3 C 0 km/h
520 12-08-2010 15:00:00 23.02 C 8.4 g/m*3 23.02 C 0 km/h
521 12-08-2010 16:00:00 22.56 C 7.14 g/m*3 22.56 C 0 km/h
522 12-08-2010 17:00:00 25.42 C 5.89 g/m*3 25.42 C 0 km/h
523 12-08-2010 18:00:00 23.3 C 6.65 g/m*3 23.3 C 0 km/h
524 12-08-2010 19:00:00 21.68 C 8.23 g/m*3 21.68 C 0 km/h
525 12-08-2010 20:00:00 20.1 C 8.45 g/m*3 20.1 C 0 km/h
Sensor: Nr:Datum:Temp:Abs-Feuchte:Windchill:Wind:
Aussen-T/F 526 12-08-2010 21:00:00 19.14 C 7.99 g/m*3 19.14 C 0 km/h
527 12-08-2010 22:00:00 18.44 C 8.58 g/m*3 18.44 C 0 km/h
528 12-08-2010 23:00:00 17.34 C 9.19 g/m*3 17.34 C 0 km/h
529 13-08-2010 00:00:00 16.82 C 9.42 g/m*3 16.82 C 0 km/h
530 13-08-2010 01:00:00 16.18 C 9.26 g/m*3 16.18 C 0 km/h
531 13-08-2010 02:00:00 15.82 C 9.68 g/m*3 15.82 C 0 km/h
532 13-08-2010 03:00:00 15.34 C 9.84 g/m*3 15.34 C 0 km/h
533 13-08-2010 04:00:00 15.04 C 10 g/m*3 15.04 C 0 km/h
534 13-08-2010 05:00:00 14.76 C 9.98 g/m*3 14.76 C 0 km/h
535 13-08-2010 06:00:00 14.7 C 10.05 g/m*3 14.7 C 0 km/h
536 13-08-2010 07:00:00 15.02 C 10.12 g/m*3 15.02 C 0 km/h
537 13-08-2010 08:00:00 15.16 C 10.33 g/m*3 15.16 C 0 km/h
538 13-08-2010 09:00:00 16.26 C 10.3 g/m*3 16.26 C 0 km/h
539 13-08-2010 10:00:00 18.84 C 9.65 g/m*3 18.84 C 0 km/h
540 13-08-2010 11:00:00 21.24 C 8.4 g/m*3 21.24 C 0 km/h
541 13-08-2010 12:00:00 22.2 C 7.74 g/m*3 22.2 C 0 km/h
542 13-08-2010 13:00:00 23 C 6.99 g/m*3 23 C 0 km/h
543 13-08-2010 14:00:00 23.92 C 6.5 g/m*3 23.92 C 0 km/h
544 13-08-2010 15:00:00 24.42 C 6.02 g/m*3 24.42 C 0 km/h
545 13-08-2010 16:00:00 24.24 C 6.75 g/m*3 24.24 C 0 km/h
546 13-08-2010 17:00:00 23.66 C 7.43 g/m*3 23.66 C 0 km/h
547 13-08-2010 18:00:00 22.5 C 8.15 g/m*3 22.5 C 0 km/h
548 13-08-2010 19:00:00 21.84 C 7.88 g/m*3 21.84 C 0 km/h
549 13-08-2010 20:00:00 19.9 C 7.94 g/m*3 19.9 C 0 km/h
550 13-08-2010 21:00:00 17.66 C 7.83 g/m*3 17.66 C 0 km/h
Sensor: Nr:Datum:Temp:Abs-Feuchte:Windchill:Wind:
Aussen-T/F 551 13-08-2010 22:00:00 16.72 C 8.2 g/m*3 16.72 C 0 km/h
552 13-08-2010 23:00:00 15.44 C 8.64 g/m*3 15.44 C 0 km/h
553 14-08-2010 00:00:00 14.7 C 8.91 g/m*3 14.7 C 0 km/h
554 14-08-2010 01:00:00 13.98 C 9.11 g/m*3 13.98 C 0 km/h
555 14-08-2010 02:00:00 13.32 C 9 g/m*3 13.32 C 0 km/h
556 14-08-2010 03:00:00 12.6 C 8.87 g/m*3 12.6 C 0 km/h
557 14-08-2010 04:00:00 12.06 C 8.75 g/m*3 12.06 C 0 km/h
558 14-08-2010 05:00:00 11.62 C 8.76 g/m*3 11.62 C 0 km/h
559 14-08-2010 06:00:00 11.12 C 8.73 g/m*3 11.12 C 0 km/h
560 14-08-2010 07:00:00 11.28 C 8.9 g/m*3 11.28 C 0 km/h
561 14-08-2010 08:00:00 12.32 C 9.42 g/m*3 12.32 C 0 km/h
562 14-08-2010 09:00:00 14.4 C 9.94 g/m*3 14.4 C 0 km/h
563 14-08-2010 10:00:00 17.62 C 10.39 g/m*3 17.62 C 0 km/h
564 14-08-2010 11:00:00 20.68 C 10.36 g/m*3 20.68 C 0 km/h
565 14-08-2010 12:00:00 22.96 C 9.19 g/m*3 22.96 C 0 km/h
566 14-08-2010 13:00:00 26.24 C 7.4 g/m*3 26.24 C 0 km/h
567 14-08-2010 14:00:00 27.62 C 6.98 g/m*3 27.62 C 0 km/h
568 14-08-2010 15:00:00 28.04 C 6.7 g/m*3 28.04 C 0 km/h
569 14-08-2010 16:00:00 30.1 C 6.46 g/m*3 30.1 C 0 km/h
570 14-08-2010 17:00:00 30.88 C 6.36 g/m*3 30.88 C 0 km/h
571 14-08-2010 18:00:00 31.22 C 6.48 g/m*3 31.22 C 0 km/h
572 14-08-2010 19:00:00 27.86 C 7.56 g/m*3 27.86 C 0 km/h
573 14-08-2010 20:00:00 24.86 C 8.18 g/m*3 24.86 C 0 km/h
574 14-08-2010 21:00:00 22.14 C 8.73 g/m*3 22.14 C 0 km/h
575 14-08-2010 22:00:00 21.24 C 9.14 g/m*3 21.24 C 0 km/h
Sensor: Nr:Datum:Temp:Abs-Feuchte:Windchill:Wind:
Aussen-T/F 576 14-08-2010 23:00:00 20.36 C 9.14 g/m*3 20.36 C 0 km/h
577 15-08-2010 00:00:00 19.74 C 8.82 g/m*3 19.74 C 0 km/h
578 15-08-2010 01:00:00 19.38 C 8.73 g/m*3 19.38 C 0 km/h
579 15-08-2010 02:00:00 18.98 C 8.98 g/m*3 18.98 C 0 km/h
580 15-08-2010 03:00:00 18.6 C 9.29 g/m*3 18.6 C 0 km/h
581 15-08-2010 04:00:00 18.14 C 9.14 g/m*3 18.14 C 0 km/h
582 15-08-2010 05:00:00 18.06 C 8.88 g/m*3 18.06 C 0 km/h
583 15-08-2010 06:00:00 17.9 C 9.04 g/m*3 17.9 C 0 km/h
584 15-08-2010 07:00:00 17.1 C 9.69 g/m*3 17.1 C 0 km/h
585 15-08-2010 08:00:00 15.24 C 11.48 g/m*3 15.24 C 0 km/h
586 15-08-2010 09:00:00 15.2 C 11.99 g/m*3 15.2 C 0 km/h
587 15-08-2010 10:00:00 15.48 C 12.44 g/m*3 15.48 C 0 km/h
588 15-08-2010 11:00:00 15.82 C 12.8 g/m*3 15.82 C 0 km/h
589 15-08-2010 12:00:00 16.04 C 12.97 g/m*3 16.04 C 0 km/h
590 15-08-2010 13:00:00 16.14 C 13.05 g/m*3 16.14 C 0 km/h
591 15-08-2010 14:00:00 16.44 C 13.29 g/m*3 16.44 C 0 km/h
592 15-08-2010 15:00:00 16.4 C 13.26 g/m*3 16.4 C 0 km/h
593 15-08-2010 16:00:00 16.48 C 13.32 g/m*3 16.48 C 0 km/h
594 15-08-2010 17:00:00 16.68 C 13.48 g/m*3 16.68 C 0 km/h
595 15-08-2010 18:00:00 16.6 C 13.42 g/m*3 16.6 C 0 km/h
596 15-08-2010 19:00:00 16.6 C 13.42 g/m*3 16.6 C 0 km/h
597 15-08-2010 20:00:00 16.38 C 13.24 g/m*3 16.38 C 0 km/h
598 15-08-2010 21:00:00 16.24 C 13.13 g/m*3 16.24 C 0 km/h
599 15-08-2010 22:00:00 16.14 C 13.05 g/m*3 16.14 C 0 km/h
600 15-08-2010 23:00:00 15.5 C 12.56 g/m*3 15.5 C 0 km/h
Sensor: Nr:Datum:Temp:Abs-Feuchte:Windchill:Wind:
Aussen-T/F 601 16-08-2010 00:00:00 14.9 C 12.11 g/m*3 14.9 C 0 km/h
602 16-08-2010 01:00:00 14.72 C 11.87 g/m*3 14.72 C 0 km/h
603 16-08-2010 02:00:00 14.6 C 11.61 g/m*3 14.6 C 0 km/h
604 16-08-2010 03:00:00 14.6 C 11.64 g/m*3 14.6 C 0 km/h
605 16-08-2010 04:00:00 14.5 C 11.34 g/m*3 14.5 C 0 km/h
606 16-08-2010 05:00:00 14.5 C 11.39 g/m*3 14.5 C 0 km/h
607 16-08-2010 06:00:00 14.54 C 11.37 g/m*3 14.54 C 0 km/h
608 16-08-2010 07:00:00 14.84 C 11.45 g/m*3 14.84 C 0 km/h
609 16-08-2010 08:00:00 15.92 C 11.44 g/m*3 15.92 C 0 km/h
610 16-08-2010 09:00:00 17.4 C 11.09 g/m*3 17.4 C 0 km/h
611 16-08-2010 10:00:00 17.2 C 10.84 g/m*3 17.2 C 0 km/h
612 16-08-2010 11:00:00 17.7 C 11.09 g/m*3 17.7 C 0 km/h
613 16-08-2010 12:00:00 17.76 C 11.45 g/m*3 17.76 C 0 km/h
614 16-08-2010 13:00:00 18.38 C 10.59 g/m*3 18.38 C 0 km/h
615 16-08-2010 14:00:00 19.88 C 9.88 g/m*3 19.88 C 0 km/h
616 16-08-2010 15:00:00 19.72 C 9.42 g/m*3 19.72 C 0 km/h
617 16-08-2010 16:00:00 19.76 C 9.75 g/m*3 19.76 C 0 km/h
618 16-08-2010 17:00:00 19.96 C 9.79 g/m*3 19.96 C 0 km/h
619 16-08-2010 18:00:00 19.76 C 9.65 g/m*3 19.76 C 0 km/h
620 16-08-2010 19:00:00 18.6 C 10.06 g/m*3 18.6 C 0 km/h
621 16-08-2010 20:00:00 17.9 C 10.63 g/m*3 17.9 C 0 km/h
622 16-08-2010 21:00:00 17.44 C 11.32 g/m*3 17.44 C 0 km/h
623 16-08-2010 22:00:00 17.58 C 11.83 g/m*3 17.58 C 0 km/h
624 16-08-2010 23:00:00 17.76 C 12.05 g/m*3 17.76 C 0 km/h
625 17-08-2010 00:00:00 17.62 C 11.95 g/m*3 17.62 C 0 km/h
Sensor: Nr:Datum:Temp:Abs-Feuchte:Windchill:Wind:
Aussen-T/F 626 17-08-2010 01:00:00 16.68 C 12.29 g/m*3 16.68 C 0 km/h
627 17-08-2010 02:00:00 16.48 C 12.37 g/m*3 16.48 C 0 km/h
628 17-08-2010 03:00:00 16.42 C 11.79 g/m*3 16.42 C 0 km/h
629 17-08-2010 04:00:00 16.42 C 11.18 g/m*3 16.42 C 0 km/h
630 17-08-2010 05:00:00 15.62 C 11.34 g/m*3 15.62 C 0 km/h
631 17-08-2010 06:00:00 15.84 C 11.23 g/m*3 15.84 C 0 km/h
632 17-08-2010 07:00:00 16.36 C 10.83 g/m*3 16.36 C 0 km/h
633 17-08-2010 08:00:00 16.72 C 10.33 g/m*3 16.72 C 0 km/h
634 17-08-2010 09:00:00 16.98 C 9.65 g/m*3 16.98 C 0 km/h
635 17-08-2010 10:00:00 17.06 C 9.35 g/m*3 17.06 C 0 km/h
636 17-08-2010 11:00:00 17.58 C 9.2 g/m*3 17.58 C 0 km/h
637 17-08-2010 12:00:00 16.62 C 10.13 g/m*3 16.62 C 0 km/h
638 17-08-2010 13:00:00 17.3 C 11.73 g/m*3 17.3 C 0 km/h
639 17-08-2010 14:00:00 17.74 C 9.16 g/m*3 17.74 C 0 km/h
640 17-08-2010 15:00:00 17.08 C 8.75 g/m*3 17.08 C 0 km/h
641 17-08-2010 16:00:00 14.7 C 9.74 g/m*3 14.7 C 0 km/h
642 17-08-2010 17:00:00 14.42 C 9.98 g/m*3 14.42 C 0 km/h
643 17-08-2010 18:00:00 14.8 C 11 g/m*3 14.8 C 0 km/h
644 17-08-2010 19:00:00 14.84 C 11.05 g/m*3 14.84 C 0 km/h
645 17-08-2010 20:00:00 14.32 C 11.02 g/m*3 14.32 C 0 km/h
646 17-08-2010 21:00:00 14.38 C 11.31 g/m*3 14.38 C 0 km/h
647 17-08-2010 22:00:00 14.62 C 10.75 g/m*3 14.62 C 0 km/h
648 17-08-2010 23:00:00 15 C 10.05 g/m*3 15 C 0 km/h
649 18-08-2010 00:00:00 15.52 C 9.66 g/m*3 15.52 C 0 km/h
650 18-08-2010 01:00:00 15.76 C 9.43 g/m*3 15.76 C 0 km/h
Sensor: Nr:Datum:Temp:Abs-Feuchte:Windchill:Wind:
Aussen-T/F 651 18-08-2010 02:00:00 15.54 C 9.43 g/m*3 15.54 C 0 km/h
652 18-08-2010 03:00:00 15.46 C 9.49 g/m*3 15.46 C 0 km/h
653 18-08-2010 04:00:00 15.2 C 9.55 g/m*3 15.2 C 0 km/h
654 18-08-2010 05:00:00 14.96 C 9.8 g/m*3 14.96 C 0 km/h
655 18-08-2010 06:00:00 15.08 C 9.56 g/m*3 15.08 C 0 km/h
656 18-08-2010 07:00:00 15.44 C 9.69 g/m*3 15.44 C 0 km/h
657 18-08-2010 08:00:00 16.16 C 9.88 g/m*3 16.16 C 0 km/h
658 18-08-2010 09:00:00 17.1 C 10.16 g/m*3 17.1 C 0 km/h
659 18-08-2010 10:00:00 18.16 C 10.2 g/m*3 18.16 C 0 km/h
660 18-08-2010 11:00:00 18.7 C 10.18 g/m*3 18.7 C 0 km/h
661 18-08-2010 12:00:00 18.82 C 10.67 g/m*3 18.82 C 0 km/h
662 18-08-2010 13:00:00 20.8 C 10.25 g/m*3 20.8 C 0 km/h
663 18-08-2010 14:00:00 22.84 C 9.04 g/m*3 22.84 C 0 km/h
664 18-08-2010 15:00:00 22.24 C 9.01 g/m*3 22.24 C 0 km/h
665 18-08-2010 16:00:00 23.68 C 9.02 g/m*3 23.68 C 0 km/h
666 18-08-2010 17:00:00 23.88 C 8.86 g/m*3 23.88 C 0 km/h
667 18-08-2010 18:00:00 22.36 C 9.15 g/m*3 22.36 C 0 km/h
668 18-08-2010 19:00:00 20.68 C 9.35 g/m*3 20.68 C 0 km/h
669 18-08-2010 20:00:00 19.44 C 10 g/m*3 19.44 C 0 km/h
670 18-08-2010 21:00:00 18.82 C 10.19 g/m*3 18.82 C 0 km/h
671 18-08-2010 22:00:00 17.6 C 10.59 g/m*3 17.6 C 0 km/h
672 18-08-2010 23:00:00 17.58 C 10.19 g/m*3 17.58 C 0 km/h
673 19-08-2010 00:00:00 17.36 C 9.14 g/m*3 17.36 C 0 km/h
674 19-08-2010 01:00:00 16.86 C 9.18 g/m*3 16.86 C 0 km/h
675 19-08-2010 02:00:00 16.32 C 8.81 g/m*3 16.32 C 0 km/h
Sensor: Nr:Datum:Temp:Abs-Feuchte:Windchill:Wind:
Aussen-T/F 676 19-08-2010 03:00:00 15.9 C 9.21 g/m*3 15.9 C 0 km/h
677 19-08-2010 04:00:00 15.54 C 9.38 g/m*3 15.54 C 0 km/h
678 19-08-2010 05:00:00 15.1 C 9.31 g/m*3 15.1 C 0 km/h
679 19-08-2010 06:00:00 14.18 C 8.9 g/m*3 14.18 C 0 km/h
680 19-08-2010 07:00:00 13.92 C 8.21 g/m*3 13.92 C 0 km/h
681 19-08-2010 08:00:00 14.78 C 8.05 g/m*3 14.78 C 0 km/h
682 19-08-2010 09:00:00 15.72 C 8.06 g/m*3 15.72 C 0 km/h
683 19-08-2010 10:00:00 17.9 C 7.7 g/m*3 17.9 C 0 km/h
684 19-08-2010 11:00:00 20 C 7.26 g/m*3 20 C 0 km/h
685 19-08-2010 12:00:00 21.44 C 6.65 g/m*3 21.44 C 0 km/h
686 19-08-2010 13:00:00 22.64 C 6.16 g/m*3 22.64 C 0 km/h
687 19-08-2010 14:00:00 23.04 C 6.02 g/m*3 23.04 C 0 km/h
688 19-08-2010 15:00:00 23.74 C 6.22 g/m*3 23.74 C 0 km/h
689 19-08-2010 16:00:00 23.28 C 7.64 g/m*3 23.28 C 0 km/h
690 19-08-2010 17:00:00 23.9 C 7.53 g/m*3 23.9 C 0 km/h
691 19-08-2010 18:00:00 25.42 C 5.75 g/m*3 25.42 C 0 km/h
692 19-08-2010 19:00:00 25.24 C 6.63 g/m*3 25.24 C 0 km/h
693 19-08-2010 20:00:00 20.5 C 7.15 g/m*3 20.5 C 0 km/h
694 19-08-2010 21:00:00 18.08 C 7.78 g/m*3 18.08 C 0 km/h
695 19-08-2010 22:00:00 16.86 C 8.01 g/m*3 16.86 C 0 km/h
696 19-08-2010 23:00:00 15.62 C 8.36 g/m*3 15.62 C 0 km/h
697 20-08-2010 00:00:00 14.72 C 8.55 g/m*3 14.72 C 0 km/h
698 20-08-2010 01:00:00 14.04 C 8.61 g/m*3 14.04 C 0 km/h
699 20-08-2010 02:00:00 13.34 C 8.59 g/m*3 13.34 C 0 km/h
700 20-08-2010 03:00:00 12.8 C 8.62 g/m*3 12.8 C 0 km/h
Sensor: Nr:Datum:Temp:Abs-Feuchte:Windchill:Wind:
Aussen-T/F 701 20-08-2010 04:00:00 12.26 C 8.58 g/m*3 12.26 C 0 km/h
702 20-08-2010 05:00:00 11.9 C 8.56 g/m*3 11.9 C 0 km/h
703 20-08-2010 06:00:00 11.48 C 8.54 g/m*3 11.48 C 0 km/h
704 20-08-2010 07:00:00 11.76 C 8.78 g/m*3 11.76 C 0 km/h
705 20-08-2010 08:00:00 12.54 C 9.19 g/m*3 12.54 C 0 km/h
706 20-08-2010 09:00:00 14.5 C 9.85 g/m*3 14.5 C 0 km/h
707 20-08-2010 10:00:00 18.02 C 10.3 g/m*3 18.02 C 0 km/h
708 20-08-2010 11:00:00 20.98 C 10.87 g/m*3 20.98 C 0 km/h
709 20-08-2010 12:00:00 23.76 C 10.86 g/m*3 23.76 C 0 km/h
710 20-08-2010 13:00:00 26.76 C 9.04 g/m*3 26.76 C 0 km/h
711 20-08-2010 14:00:00 28.36 C 7.82 g/m*3 28.36 C 0 km/h
712 20-08-2010 15:00:00 29.54 C 7.45 g/m*3 29.54 C 0 km/h
713 20-08-2010 16:00:00 30.72 C 7.57 g/m*3 30.72 C 0 km/h
714 20-08-2010 17:00:00 31.16 C 7.29 g/m*3 31.16 C 0 km/h
715 20-08-2010 18:00:00 31.22 C 7.64 g/m*3 31.22 C 0 km/h
716 20-08-2010 19:00:00 29.58 C 8.42 g/m*3 29.58 C 0 km/h
717 20-08-2010 20:00:00 25.1 C 9.07 g/m*3 25.1 C 0 km/h
718 20-08-2010 21:00:00 23.08 C 9.58 g/m*3 23.08 C 0 km/h
719 20-08-2010 22:00:00 22.025 C 10.2 g/m*3 22.03 C 0 km/h
720 20-08-2010 23:00:00 20.9 C 10.64 g/m*3 20.9 C 0 km/h
721 21-08-2010 00:00:00 19.76 C 10.77 g/m*3 19.76 C 0 km/h
722 21-08-2010 01:00:00 18.84 C 11.01 g/m*3 18.84 C 0 km/h
723 21-08-2010 02:00:00 18.16 C 11.04 g/m*3 18.16 C 0 km/h
724 21-08-2010 03:00:00 17.66 C 11.11 g/m*3 17.66 C 0 km/h
725 21-08-2010 04:00:00 17.06 C 11.12 g/m*3 17.06 C 0 km/h
Sensor: Nr:Datum:Temp:Abs-Feuchte:Windchill:Wind:
Aussen-T/F 726 21-08-2010 05:00:00 16.46 C 10.95 g/m*3 16.46 C 0 km/h
727 21-08-2010 06:00:00 16.04 C 10.9 g/m*3 16.04 C 0 km/h
728 21-08-2010 07:00:00 16 C 11.06 g/m*3 16 C 0 km/h
729 21-08-2010 08:00:00 16.78 C 11.54 g/m*3 16.78 C 0 km/h
730 21-08-2010 09:00:00 18.42 C 12.22 g/m*3 18.42 C 0 km/h
731 21-08-2010 10:00:00 21.4 C 12.86 g/m*3 21.4 C 0 km/h
732 21-08-2010 11:00:00 24.76 C 12.17 g/m*3 24.76 C 0 km/h
733 21-08-2010 12:00:00 27.54 C 9.81 g/m*3 27.54 C 0 km/h
734 21-08-2010 13:00:00 29.12 C 9.19 g/m*3 29.12 C 0 km/h
735 21-08-2010 14:00:00 30.42 C 8.69 g/m*3 30.42 C 0 km/h
736 21-08-2010 15:00:00 31.28 C 8.51 g/m*3 31.28 C 0 km/h
737 21-08-2010 16:00:00 32.14 C 7.89 g/m*3 32.14 C 0 km/h
738 21-08-2010 17:00:00 32.38 C 7.58 g/m*3 32.38 C 0 km/h
739 21-08-2010 18:00:00 32.42 C 7.39 g/m*3 32.42 C 0 km/h
740 21-08-2010 19:00:00 31.66 C 7.96 g/m*3 31.66 C 0 km/h
741 21-08-2010 20:00:00 28.82 C 9.33 g/m*3 28.82 C 0 km/h
742 21-08-2010 21:00:00 25.72 C 10.26 g/m*3 25.72 C 0 km/h
743 21-08-2010 22:00:00 24.34 C 10.87 g/m*3 24.34 C 0 km/h
744 21-08-2010 23:00:00 23.16 C 11.24 g/m*3 23.16 C 0 km/h
745 22-08-2010 00:00:00 22 C 11.45 g/m*3 22 C 0 km/h
746 22-08-2010 01:00:00 21.04 C 11.68 g/m*3 21.04 C 0 km/h
747 22-08-2010 02:00:00 20.14 C 11.88 g/m*3 20.14 C 0 km/h
748 22-08-2010 03:00:00 19.52 C 12.1 g/m*3 19.52 C 0 km/h
749 22-08-2010 04:00:00 19.16 C 12.11 g/m*3 19.16 C 0 km/h
750 22-08-2010 05:00:00 18.54 C 12.08 g/m*3 18.54 C 0 km/h
Sensor: Nr:Datum:Temp:Abs-Feuchte:Windchill:Wind:
Aussen-T/F 751 22-08-2010 06:00:00 18 C 12.01 g/m*3 18 C 0 km/h
752 22-08-2010 07:00:00 18.3 C 12.2 g/m*3 18.3 C 0 km/h
753 22-08-2010 08:00:00 18.96 C 12.62 g/m*3 18.96 C 0 km/h
754 22-08-2010 09:00:00 20.32 C 12.64 g/m*3 20.32 C 0 km/h
755 22-08-2010 10:00:00 23.1 C 12.69 g/m*3 23.1 C 0 km/h
756 22-08-2010 11:00:00 24.88 C 12.71 g/m*3 24.88 C 0 km/h
757 22-08-2010 12:00:00 27.46 C 11.67 g/m*3 27.46 C 0 km/h
758 22-08-2010 13:00:00 28.44 C 10.53 g/m*3 28.44 C 0 km/h
759 22-08-2010 14:00:00 28.74 C 10.48 g/m*3 28.74 C 0 km/h
760 22-08-2010 15:00:00 25.76 C 12.2 g/m*3 25.76 C 0 km/h
761 22-08-2010 16:00:00 27.8 C 11.89 g/m*3 27.8 C 0 km/h
762 22-08-2010 17:00:00 26.68 C 11.88 g/m*3 26.68 C 0 km/h
763 22-08-2010 18:00:00 26.28 C 11.72 g/m*3 26.28 C 0 km/h
764 22-08-2010 19:00:00 25.52 C 11.57 g/m*3 25.52 C 0 km/h
765 22-08-2010 20:00:00 24.42 C 10.65 g/m*3 24.42 C 0 km/h
766 22-08-2010 21:00:00 23.16 C 11.49 g/m*3 23.16 C 0 km/h
767 22-08-2010 22:00:00 22.66 C 11.69 g/m*3 22.66 C 0 km/h
768 22-08-2010 23:00:00 21.52 C 11.89 g/m*3 21.52 C 0 km/h
769 23-08-2010 00:00:00 20.88 C 12.01 g/m*3 20.88 C 0 km/h
770 23-08-2010 01:00:00 20.38 C 12.16 g/m*3 20.38 C 0 km/h
771 23-08-2010 02:00:00 20.02 C 12.32 g/m*3 20.02 C 0 km/h
772 23-08-2010 03:00:00 19.82 C 12.31 g/m*3 19.82 C 0 km/h
773 23-08-2010 04:00:00 19.52 C 12.33 g/m*3 19.52 C 0 km/h
774 23-08-2010 05:00:00 19.44 C 12.21 g/m*3 19.44 C 0 km/h
775 23-08-2010 06:00:00 19.48 C 12.34 g/m*3 19.48 C 0 km/h
Sensor: Nr:Datum:Temp:Abs-Feuchte:Windchill:Wind:
Aussen-T/F 776 23-08-2010 07:00:00 19.92 C 12.49 g/m*3 19.92 C 0 km/h
777 23-08-2010 08:00:00 19.74 C 13.31 g/m*3 19.74 C 0 km/h
778 23-08-2010 09:00:00 19.44 C 14.52 g/m*3 19.44 C 0 km/h
779 23-08-2010 10:00:00 20.64 C 15.07 g/m*3 20.64 C 0 km/h
780 23-08-2010 11:00:00 22.26 C 14.78 g/m*3 22.26 C 0 km/h
781 23-08-2010 12:00:00 23.08 C 15.61 g/m*3 23.08 C 0 km/h
782 23-08-2010 13:00:00 23.68 C 14.36 g/m*3 23.68 C 0 km/h
783 23-08-2010 14:00:00 24.34 C 14.28 g/m*3 24.34 C 0 km/h
784 23-08-2010 15:00:00 25.86 C 12.32 g/m*3 25.86 C 0 km/h
785 23-08-2010 16:00:00 25.94 C 11.4 g/m*3 25.94 C 0 km/h
786 23-08-2010 17:00:00 23.58 C 11.98 g/m*3 23.58 C 0 km/h
787 23-08-2010 18:00:00 21.12 C 13.76 g/m*3 21.12 C 0 km/h
788 23-08-2010 19:00:00 20.76 C 13.77 g/m*3 20.76 C 0 km/h
789 23-08-2010 20:00:00 20.34 C 12.94 g/m*3 20.34 C 0 km/h
790 23-08-2010 21:00:00 19.8 C 12.61 g/m*3 19.8 C 0 km/h
791 23-08-2010 22:00:00 19.58 C 12.24 g/m*3 19.58 C 0 km/h
792 23-08-2010 23:00:00 19.3 C 11.94 g/m*3 19.3 C 0 km/h
793 24-08-2010 00:00:00 19.18 C 12.09 g/m*3 19.18 C 0 km/h
794 24-08-2010 01:00:00 19.2 C 12.43 g/m*3 19.2 C 0 km/h
795 24-08-2010 02:00:00 19.68 C 12.28 g/m*3 19.68 C 0 km/h
796 24-08-2010 03:00:00 18.34 C 11.85 g/m*3 18.34 C 0 km/h
797 24-08-2010 04:00:00 18.06 C 9.53 g/m*3 18.06 C 0 km/h
798 24-08-2010 05:00:00 17.24 C 9.51 g/m*3 17.24 C 0 km/h
799 24-08-2010 06:00:00 17.08 C 9.48 g/m*3 17.08 C 0 km/h
800 24-08-2010 07:00:00 16.44 C 9.23 g/m*3 16.44 C 0 km/h
Sensor: Nr:Datum:Temp:Abs-Feuchte:Windchill:Wind:
Aussen-T/F 801 24-08-2010 08:00:00 16.16 C 8.45 g/m*3 16.16 C 0 km/h
802 24-08-2010 09:00:00 16.76 C 7.3 g/m*3 16.76 C 0 km/h
803 24-08-2010 10:00:00 17.88 C 7.23 g/m*3 17.88 C 0 km/h
804 24-08-2010 11:00:00 19.08 C 6.88 g/m*3 19.08 C 0 km/h
805 24-08-2010 12:00:00 20.04 C 6.34 g/m*3 20.04 C 0 km/h
806 24-08-2010 13:00:00 21 C 5.94 g/m*3 21 C 0 km/h
807 24-08-2010 14:00:00 21.46 C 5.49 g/m*3 21.46 C 0 km/h
808 24-08-2010 15:00:00 21.82 C 5.11 g/m*3 21.82 C 0 km/h
809 24-08-2010 16:00:00 23.04 C 4.61 g/m*3 23.04 C 0 km/h
810 24-08-2010 17:00:00 23.22 C 4.7 g/m*3 23.22 C 0 km/h
811 24-08-2010 18:00:00 22.92 C 5.11 g/m*3 22.92 C 0 km/h
812 24-08-2010 19:00:00 21.68 C 5.18 g/m*3 21.68 C 0 km/h
813 24-08-2010 20:00:00 19.76 C 5.79 g/m*3 19.76 C 0 km/h
814 24-08-2010 21:00:00 18.28 C 6.12 g/m*3 18.28 C 0 km/h
815 24-08-2010 22:00:00 17.4 C 6.28 g/m*3 17.4 C 0 km/h
816 24-08-2010 23:00:00 16.78 C 6.43 g/m*3 16.78 C 0 km/h
817 25-08-2010 00:00:00 16.16 C 6.55 g/m*3 16.16 C 0 km/h
818 25-08-2010 01:00:00 15.52 C 6.8 g/m*3 15.52 C 0 km/h
819 25-08-2010 02:00:00 14.66 C 7.11 g/m*3 14.66 C 0 km/h
820 25-08-2010 03:00:00 13.76 C 7.56 g/m*3 13.76 C 0 km/h
821 25-08-2010 04:00:00 13.4 C 7.7 g/m*3 13.4 C 0 km/h
822 25-08-2010 05:00:00 13.38 C 7.52 g/m*3 13.38 C 0 km/h
823 25-08-2010 06:00:00 12.94 C 7.71 g/m*3 12.94 C 0 km/h
824 25-08-2010 07:00:00 12.76 C 7.84 g/m*3 12.76 C 0 km/h
825 25-08-2010 08:00:00 13.54 C 7.86 g/m*3 13.54 C 0 km/h
Sensor: Nr:Datum:Temp:Abs-Feuchte:Windchill:Wind:
Aussen-T/F 826 25-08-2010 09:00:00 14.92 C 7.91 g/m*3 14.92 C 0 km/h
827 25-08-2010 10:00:00 16.3 C 7.8 g/m*3 16.3 C 0 km/h
828 25-08-2010 11:00:00 17.9 C 7.82 g/m*3 17.9 C 0 km/h
829 25-08-2010 12:00:00 20 C 7.19 g/m*3 20 C 0 km/h
830 25-08-2010 13:00:00 20.82 C 6.67 g/m*3 20.82 C 0 km/h
831 25-08-2010 14:00:00 21.46 C 6.43 g/m*3 21.46 C 0 km/h
832 25-08-2010 15:00:00 23.54 C 6.1 g/m*3 23.54 C 0 km/h
833 25-08-2010 16:00:00 24.46 C 5.67 g/m*3 24.46 C 0 km/h
834 25-08-2010 17:00:00 23.2 C 6.65 g/m*3 23.2 C 0 km/h
835 25-08-2010 18:00:00 21.9 C 7.1 g/m*3 21.9 C 0 km/h
836 25-08-2010 19:00:00 20.22 C 7.91 g/m*3 20.22 C 0 km/h
837 25-08-2010 20:00:00 19.04 C 8.23 g/m*3 19.04 C 0 km/h
838 25-08-2010 21:00:00 18.12 C 8.35 g/m*3 18.12 C 0 km/h
839 25-08-2010 22:00:00 17.56 C 8.5 g/m*3 17.56 C 0 km/h
840 25-08-2010 23:00:00 17.3 C 8.81 g/m*3 17.3 C 0 km/h
841 26-08-2010 00:00:00 17.28 C 9.06 g/m*3 17.28 C 0 km/h
842 26-08-2010 01:00:00 17.48 C 9.11 g/m*3 17.48 C 0 km/h
843 26-08-2010 02:00:00 16.88 C 9.97 g/m*3 16.88 C 0 km/h
844 26-08-2010 03:00:00 16.86 C 10.04 g/m*3 16.86 C 0 km/h
845 26-08-2010 04:00:00 16.94 C 9.86 g/m*3 16.94 C 0 km/h
846 26-08-2010 05:00:00 18.28 C 10.31 g/m*3 18.28 C 0 km/h
847 26-08-2010 06:00:00 18.18 C 10.53 g/m*3 18.18 C 0 km/h
848 26-08-2010 07:00:00 19.26 C 10.69 g/m*3 19.26 C 0 km/h
849 26-08-2010 08:00:00 20.2 C 11.12 g/m*3 20.2 C 0 km/h
850 26-08-2010 09:00:00 21.52 C 11.33 g/m*3 21.52 C 0 km/h
Sensor: Nr:Datum:Temp:Abs-Feuchte:Windchill:Wind:
Aussen-T/F 851 26-08-2010 10:00:00 22.76 C 11.19 g/m*3 22.76 C 0 km/h
852 26-08-2010 11:00:00 23.76 C 11.16 g/m*3 23.76 C 0 km/h
853 26-08-2010 12:00:00 23.54 C 11.15 g/m*3 23.54 C 0 km/h
854 26-08-2010 13:00:00 22.96 C 11.2 g/m*3 22.96 C 0 km/h
855 26-08-2010 14:00:00 23.8 C 11.19 g/m*3 23.8 C 0 km/h
856 26-08-2010 15:00:00 23.68 C 11.32 g/m*3 23.68 C 0 km/h
857 26-08-2010 16:00:00 23.94 C 11.28 g/m*3 23.94 C 0 km/h
858 26-08-2010 17:00:00 23.62 C 11.29 g/m*3 23.62 C 0 km/h
859 26-08-2010 18:00:00 23.18 C 11.67 g/m*3 23.18 C 0 km/h
860 26-08-2010 19:00:00 21.66 C 13.36 g/m*3 21.66 C 0 km/h
861 26-08-2010 20:00:00 20.94 C 14.49 g/m*3 20.94 C 0 km/h
862 26-08-2010 21:00:00 20.42 C 14.03 g/m*3 20.42 C 0 km/h
863 26-08-2010 22:00:00 19.76 C 14.62 g/m*3 19.76 C 0 km/h
864 26-08-2010 23:00:00 19.44 C 14.95 g/m*3 19.44 C 0 km/h
865 27-08-2010 00:00:00 18.98 C 14.91 g/m*3 18.98 C 0 km/h
866 27-08-2010 01:00:00 18.76 C 14.97 g/m*3 18.76 C 0 km/h
867 27-08-2010 02:00:00 18.62 C 14.98 g/m*3 18.62 C 0 km/h
868 27-08-2010 03:00:00 18.38 C 14.77 g/m*3 18.38 C 0 km/h
869 27-08-2010 04:00:00 18.34 C 14.73 g/m*3 18.34 C 0 km/h
870 27-08-2010 05:00:00 18.4 C 14.88 g/m*3 18.4 C 0 km/h
871 27-08-2010 06:00:00 18.82 C 15.32 g/m*3 18.82 C 0 km/h
872 27-08-2010 07:00:00 18.68 C 15.03 g/m*3 18.68 C 0 km/h
873 27-08-2010 08:00:00 18.58 C 14.94 g/m*3 18.58 C 0 km/h
874 27-08-2010 09:00:00 19.26 C 15.06 g/m*3 19.26 C 0 km/h
875 27-08-2010 10:00:00 19.32 C 14.35 g/m*3 19.32 C 0 km/h
Sensor: Nr:Datum:Temp:Abs-Feuchte:Windchill:Wind:
Aussen-T/F 876 27-08-2010 11:00:00 18.16 C 13.58 g/m*3 18.16 C 0 km/h
877 27-08-2010 12:00:00 20.1 C 13.52 g/m*3 20.1 C 0 km/h
878 27-08-2010 13:00:00 22.92 C 12.6 g/m*3 22.92 C 0 km/h
879 27-08-2010 14:00:00 20.76 C 12.07 g/m*3 20.76 C 0 km/h
880 27-08-2010 15:00:00 18.92 C 13.49 g/m*3 18.92 C 0 km/h
881 27-08-2010 16:00:00 21.9 C 12.89 g/m*3 21.9 C 0 km/h
882 27-08-2010 17:00:00 21.3 C 11.71 g/m*3 21.3 C 0 km/h
883 27-08-2010 18:00:00 16.8 C 12.01 g/m*3 16.8 C 0 km/h
884 27-08-2010 19:00:00 15.64 C 10.93 g/m*3 15.64 C 0 km/h
885 27-08-2010 20:00:00 15.12 C 10.44 g/m*3 15.12 C 0 km/h
886 27-08-2010 21:00:00 14.58 C 10.17 g/m*3 14.58 C 0 km/h
887 27-08-2010 22:00:00 14.74 C 10.02 g/m*3 14.74 C 0 km/h
888 27-08-2010 23:00:00 13.96 C 9.34 g/m*3 13.96 C 0 km/h
889 28-08-2010 00:00:00 13.78 C 9.21 g/m*3 13.78 C 0 km/h
890 28-08-2010 01:00:00 13.1 C 9.88 g/m*3 13.1 C 0 km/h
891 28-08-2010 02:00:00 13.14 C 9.82 g/m*3 13.14 C 0 km/h
892 28-08-2010 03:00:00 13.1 C 9.56 g/m*3 13.1 C 0 km/h
893 28-08-2010 04:00:00 12.54 C 9.3 g/m*3 12.54 C 0 km/h
894 28-08-2010 05:00:00 12.12 C 9.15 g/m*3 12.12 C 0 km/h
895 28-08-2010 06:00:00 11.58 C 8.76 g/m*3 11.58 C 0 km/h
896 28-08-2010 07:00:00 11.72 C 8.88 g/m*3 11.72 C 0 km/h
897 28-08-2010 08:00:00 13.08 C 8.94 g/m*3 13.08 C 0 km/h
898 28-08-2010 09:00:00 14.22 C 8.58 g/m*3 14.22 C 0 km/h
899 28-08-2010 10:00:00 15.14 C 8.35 g/m*3 15.14 C 0 km/h
900 28-08-2010 11:00:00 16.44 C 7.81 g/m*3 16.44 C 0 km/h
Sensor: Nr:Datum:Temp:Abs-Feuchte:Windchill:Wind:
Aussen-T/F 901 28-08-2010 12:00:00 15.42 C 8.71 g/m*3 15.42 C 0 km/h
902 28-08-2010 13:00:00 16.24 C 10.62 g/m*3 16.24 C 0 km/h
903 28-08-2010 14:00:00 15.6 C 7.69 g/m*3 15.6 C 0 km/h
904 28-08-2010 15:00:00 16.72 C 7.46 g/m*3 16.72 C 0 km/h
905 28-08-2010 16:00:00 15.1 C 8.08 g/m*3 15.1 C 0 km/h
906 28-08-2010 17:00:00 15.6 C 8.67 g/m*3 15.6 C 0 km/h
907 28-08-2010 18:00:00 17.56 C 7.42 g/m*3 17.56 C 0 km/h
908 28-08-2010 19:00:00 15.26 C 8.34 g/m*3 15.26 C 0 km/h
909 28-08-2010 20:00:00 13.1 C 9.04 g/m*3 13.1 C 0 km/h
910 28-08-2010 21:00:00 12.46 C 9.12 g/m*3 12.46 C 0 km/h
911 28-08-2010 22:00:00 12.24 C 8.96 g/m*3 12.24 C 0 km/h
912 28-08-2010 23:00:00 12.36 C 8.72 g/m*3 12.36 C 0 km/h
913 29-08-2010 00:00:00 11.9 C 8.47 g/m*3 11.9 C 0 km/h
914 29-08-2010 01:00:00 11.5 C 8.45 g/m*3 11.5 C 0 km/h
915 29-08-2010 02:00:00 11.74 C 8.54 g/m*3 11.74 C 0 km/h
916 29-08-2010 03:00:00 11.76 C 8.48 g/m*3 11.76 C 0 km/h
917 29-08-2010 04:00:00 11.5 C 8.39 g/m*3 11.5 C 0 km/h
918 29-08-2010 05:00:00 11.74 C 8.33 g/m*3 11.74 C 0 km/h
919 29-08-2010 06:00:00 12.1 C 8.3 g/m*3 12.1 C 0 km/h
920 29-08-2010 07:00:00 12.2 C 8.33 g/m*3 12.2 C 0 km/h
921 29-08-2010 08:00:00 12.44 C 8.35 g/m*3 12.44 C 0 km/h
922 29-08-2010 09:00:00 14 C 8.18 g/m*3 14 C 0 km/h
923 29-08-2010 10:00:00 15.4 C 8.04 g/m*3 15.4 C 0 km/h
924 29-08-2010 11:00:00 16.26 C 7.92 g/m*3 16.26 C 0 km/h
925 29-08-2010 12:00:00 15.12 C 9.04 g/m*3 15.12 C 0 km/h
Sensor: Nr:Datum:Temp:Abs-Feuchte:Windchill:Wind:
Aussen-T/F 926 29-08-2010 13:00:00 16.04 C 8.71 g/m*3 16.04 C 0 km/h
927 29-08-2010 14:00:00 16.46 C 8.4 g/m*3 16.46 C 0 km/h
928 29-08-2010 15:00:00 15.08 C 8.92 g/m*3 15.08 C 0 km/h
929 29-08-2010 16:00:00 15.76 C 8.51 g/m*3 15.76 C 0 km/h
930 29-08-2010 17:00:00 14.96 C 8.31 g/m*3 14.96 C 0 km/h
931 29-08-2010 18:00:00 13.06 C 9.31 g/m*3 13.06 C 0 km/h
932 29-08-2010 19:00:00 12 C 9.29 g/m*3 12 C 0 km/h
933 29-08-2010 20:00:00 11.78 C 8.96 g/m*3 11.78 C 0 km/h
934 29-08-2010 21:00:00 11.64 C 8.71 g/m*3 11.64 C 0 km/h
935 29-08-2010 22:00:00 9.2 C 8.02 g/m*3 9.2 C 0 km/h
936 29-08-2010 23:00:00 9.12 C 8.16 g/m*3 9.12 C 0 km/h
937 30-08-2010 00:00:00 9.2 C 7.98 g/m*3 9.2 C 0 km/h
938 30-08-2010 01:00:00 9.94 C 7.84 g/m*3 9.94 C 0 km/h
939 30-08-2010 02:00:00 10.52 C 7.77 g/m*3 10.52 C 0 km/h
940 30-08-2010 03:00:00 10.82 C 7.66 g/m*3 10.82 C 0 km/h
941 30-08-2010 04:00:00 10.26 C 7.99 g/m*3 10.26 C 0 km/h
942 30-08-2010 05:00:00 9.62 C 8.02 g/m*3 9.62 C 0 km/h
943 30-08-2010 06:00:00 10.06 C 8.47 g/m*3 10.06 C 0 km/h
944 30-08-2010 07:00:00 9.96 C 8.4 g/m*3 9.96 C 0 km/h
945 30-08-2010 08:00:00 10.82 C 8.63 g/m*3 10.82 C 0 km/h
946 30-08-2010 09:00:00 10.98 C 8.64 g/m*3 10.98 C 0 km/h
947 30-08-2010 10:00:00 11.86 C 8.83 g/m*3 11.86 C 0 km/h
948 30-08-2010 11:00:00 13 C 8.32 g/m*3 13 C 0 km/h
949 30-08-2010 12:00:00 14.02 C 7.63 g/m*3 14.02 C 0 km/h
950 30-08-2010 13:00:00 16.04 C 6.77 g/m*3 16.04 C 0 km/h
Sensor: Nr:Datum:Temp:Abs-Feuchte:Windchill:Wind:
Aussen-T/F 951 30-08-2010 14:00:00 16.28 C 7.73 g/m*3 16.28 C 0 km/h
952 30-08-2010 15:00:00 17.48 C 7.8 g/m*3 17.48 C 0 km/h
953 30-08-2010 16:00:00 15.86 C 9.16 g/m*3 15.86 C 0 km/h
954 30-08-2010 17:00:00 15.04 C 9.23 g/m*3 15.04 C 0 km/h
955 30-08-2010 18:00:00 14.32 C 8.76 g/m*3 14.32 C 0 km/h
956 30-08-2010 19:00:00 14.04 C 8.97 g/m*3 14.04 C 0 km/h
957 30-08-2010 20:00:00 13.76 C 8.72 g/m*3 13.76 C 0 km/h
958 30-08-2010 21:00:00 12.72 C 9.56 g/m*3 12.72 C 0 km/h
959 30-08-2010 22:00:00 12.72 C 9.92 g/m*3 12.72 C 0 km/h
960 30-08-2010 23:00:00 12.3 C 9.69 g/m*3 12.3 C 0 km/h
961 31-08-2010 00:00:00 12.22 C 9.62 g/m*3 12.22 C 0 km/h
962 31-08-2010 01:00:00 12.42 C 9.45 g/m*3 12.42 C 0 km/h
963 31-08-2010 02:00:00 12.36 C 9.31 g/m*3 12.36 C 0 km/h
964 31-08-2010 03:00:00 12.1 C 9.07 g/m*3 12.1 C 0 km/h
965 31-08-2010 04:00:00 11.52 C 9.06 g/m*3 11.52 C 0 km/h
966 31-08-2010 05:00:00 11.38 C 9.04 g/m*3 11.38 C 0 km/h
967 31-08-2010 06:00:00 11.7 C 9.22 g/m*3 11.7 C 0 km/h
968 31-08-2010 07:00:00 12.2 C 9.09 g/m*3 12.2 C 0 km/h
969 31-08-2010 08:00:00 12.64 C 9.07 g/m*3 12.64 C 0 km/h
970 31-08-2010 09:00:00 13.58 C 8.86 g/m*3 13.58 C 0 km/h
971 31-08-2010 10:00:00 14.14 C 8.35 g/m*3 14.14 C 0 km/h
972 31-08-2010 11:00:00 15.6 C 8.09 g/m*3 15.6 C 0 km/h
973 31-08-2010 12:00:00 16.88 C 7.93 g/m*3 16.88 C 0 km/h
974 31-08-2010 13:00:00 17.96 C 6.99 g/m*3 17.96 C 0 km/h
975 31-08-2010 14:00:00 20.16 C 6.45 g/m*3 20.16 C 0 km/h
Sensor: Nr:Datum:Temp:Abs-Feuchte:Windchill:Wind:
Aussen-T/F 976 31-08-2010 15:00:00 21.2 C 5.86 g/m*3 21.2 C 0 km/h
977 31-08-2010 16:00:00 21.46 C 5.64 g/m*3 21.46 C 0 km/h
978 31-08-2010 17:00:00 21.82 C 5.57 g/m*3 21.82 C 0 km/h
979 31-08-2010 18:00:00 22.26 C 5.67 g/m*3 22.26 C 0 km/h
980 31-08-2010 19:00:00 20.32 C 6.55 g/m*3 20.32 C 0 km/h
981 31-08-2010 20:00:00 16.38 C 7.17 g/m*3 16.38 C 0 km/h
982 31-08-2010 21:00:00 14.44 C 7.61 g/m*3 14.44 C 0 km/h
983 31-08-2010 22:00:00 13.24 C 8.1 g/m*3 13.24 C 0 km/h
984 31-08-2010 23:00:00 12.32 C 8.09 g/m*3 12.32 C 0 km/h
985 01-09-2010 00:00:00 11.58 C 8.08 g/m*3 11.58 C 0 km/h
986 01-09-2010 01:00:00 10.98 C 8.1 g/m*3 10.98 C 0 km/h
987 01-09-2010 02:00:00 10.36 C 7.96 g/m*3 10.36 C 0 km/h
988 01-09-2010 03:00:00 9.74 C 7.97 g/m*3 9.74 C 0 km/h
989 01-09-2010 04:00:00 9.14 C 7.86 g/m*3 9.14 C 0 km/h
990 01-09-2010 05:00:00 8.92 C 7.95 g/m*3 8.92 C 0 km/h
991 01-09-2010 06:00:00 8.94 C 8.04 g/m*3 8.94 C 0 km/h
992 01-09-2010 07:00:00 9.02 C 7.98 g/m*3 9.02 C 0 km/h
993 01-09-2010 08:00:00 9.26 C 8.05 g/m*3 9.26 C 0 km/h
994 01-09-2010 09:00:00 10.22 C 8.14 g/m*3 10.22 C 0 km/h
995 01-09-2010 10:00:00 12.1 C 8.56 g/m*3 12.1 C 0 km/h
996 01-09-2010 11:00:00 14.26 C 8.78 g/m*3 14.26 C 0 km/h
997 01-09-2010 12:00:00 17.24 C 8.54 g/m*3 17.24 C 0 km/h
998 01-09-2010 13:00:00 19.52 C 7.96 g/m*3 19.52 C 0 km/h
999 01-09-2010 14:00:00 21.18 C 7.03 g/m*3 21.18 C 0 km/h
1000 01-09-2010 15:00:00 23.6 C 6 g/m*3 23.6 C 0 km/h
Sensor: Nr:Datum:Temp:Abs-Feuchte:Windchill:Wind:
Aussen-T/F 1001 01-09-2010 16:00:00 23.8 C 6.02 g/m*3 23.8 C 0 km/h
1002 01-09-2010 17:00:00 22.04 C 6.38 g/m*3 22.04 C 0 km/h
1003 01-09-2010 18:00:00 21.1 C 6.96 g/m*3 21.1 C 0 km/h
1004 01-09-2010 19:00:00 19.62 C 7.88 g/m*3 19.62 C 0 km/h
1005 01-09-2010 20:00:00 17.36 C 8.72 g/m*3 17.36 C 0 km/h
1006 01-09-2010 21:00:00 16.24 C 8.85 g/m*3 16.24 C 0 km/h
1007 01-09-2010 22:00:00 15.55 C 8.82 g/m*3 15.55 C 0 km/h
1008 01-09-2010 23:00:00 14.16 C 8.28 g/m*3 14.16 C 0 km/h
1009 02-09-2010 00:00:00 13.02 C 8.22 g/m*3 13.02 C 0 km/h
1010 02-09-2010 01:00:00 12.32 C 8.37 g/m*3 12.32 C 0 km/h
1011 02-09-2010 02:00:00 11.6 C 8.56 g/m*3 11.6 C 0 km/h
1012 02-09-2010 03:00:00 11 C 8.31 g/m*3 11 C 0 km/h
1013 02-09-2010 04:00:00 10.44 C 8.29 g/m*3 10.44 C 0 km/h
1014 02-09-2010 05:00:00 10.32 C 8.5 g/m*3 10.32 C 0 km/h
1015 02-09-2010 06:00:00 10.34 C 8.6 g/m*3 10.34 C 0 km/h
1016 02-09-2010 07:00:00 10.68 C 8.81 g/m*3 10.68 C 0 km/h
1017 02-09-2010 08:00:00 11.34 C 8.96 g/m*3 11.34 C 0 km/h
1018 02-09-2010 09:00:00 12.4 C 8.98 g/m*3 12.4 C 0 km/h
1019 02-09-2010 10:00:00 14.02 C 8.65 g/m*3 14.02 C 0 km/h
1020 02-09-2010 11:00:00 15.46 C 9.02 g/m*3 15.46 C 0 km/h
1021 02-09-2010 12:00:00 18.66 C 8.75 g/m*3 18.66 C 0 km/h
1022 02-09-2010 13:00:00 20.84 C 7.37 g/m*3 20.84 C 0 km/h
1023 02-09-2010 14:00:00 22.2 C 7.22 g/m*3 22.2 C 0 km/h
1024 02-09-2010 15:00:00 21.42 C 6.91 g/m*3 21.42 C 0 km/h
1025 02-09-2010 16:00:00 20.6 C 6.91 g/m*3 20.6 C 0 km/h
Sensor: Nr:Datum:Temp:Abs-Feuchte:Windchill:Wind:
Aussen-T/F 1026 02-09-2010 17:00:00 19.54 C 7.13 g/m*3 19.54 C 0 km/h
1027 02-09-2010 18:00:00 18.66 C 7.41 g/m*3 18.66 C 0 km/h
1028 02-09-2010 19:00:00 17.64 C 8.93 g/m*3 17.64 C 0 km/h
1029 02-09-2010 20:00:00 15.14 C 10.01 g/m*3 15.14 C 0 km/h
1030 02-09-2010 21:00:00 14.42 C 9.85 g/m*3 14.42 C 0 km/h
1031 02-09-2010 22:00:00 13.84 C 9.34 g/m*3 13.84 C 0 km/h
1032 02-09-2010 23:00:00 12.98 C 9.2 g/m*3 12.98 C 0 km/h
1033 03-09-2010 00:00:00 12.42 C 9.1 g/m*3 12.42 C 0 km/h
1034 03-09-2010 01:00:00 11.82 C 8.92 g/m*3 11.82 C 0 km/h
1035 03-09-2010 02:00:00 11.24 C 8.76 g/m*3 11.24 C 0 km/h
1036 03-09-2010 03:00:00 10.72 C 8.63 g/m*3 10.72 C 0 km/h
1037 03-09-2010 04:00:00 10.34 C 8.6 g/m*3 10.34 C 0 km/h
1038 03-09-2010 05:00:00 10.4 C 8.75 g/m*3 10.4 C 0 km/h
1039 03-09-2010 06:00:00 11.08 C 9.24 g/m*3 11.08 C 0 km/h
1040 03-09-2010 07:00:00 11.36 C 9.32 g/m*3 11.36 C 0 km/h
1041 03-09-2010 08:00:00 11.64 C 9.34 g/m*3 11.64 C 0 km/h
1042 03-09-2010 09:00:00 12.44 C 9.29 g/m*3 12.44 C 0 km/h
1043 03-09-2010 10:00:00 13.58 C 9.22 g/m*3 13.58 C 0 km/h
1044 03-09-2010 11:00:00 15.9 C 8.94 g/m*3 15.9 C 0 km/h
1045 03-09-2010 12:00:00 17.86 C 8.47 g/m*3 17.86 C 0 km/h
1046 03-09-2010 13:00:00 19.68 C 8.18 g/m*3 19.68 C 0 km/h
1047 03-09-2010 14:00:00 20.4 C 7.64 g/m*3 20.4 C 0 km/h
1048 03-09-2010 15:00:00 22.78 C 7.02 g/m*3 22.78 C 0 km/h
1049 03-09-2010 16:00:00 25.12 C 6.58 g/m*3 25.12 C 0 km/h
1050 03-09-2010 17:00:00 24.12 C 6.53 g/m*3 24.12 C 0 km/h
Sensor: Nr:Datum:Temp:Abs-Feuchte:Windchill:Wind:
Aussen-T/F 1051 03-09-2010 18:00:00 22.7 C 8.12 g/m*3 22.7 C 0 km/h
1052 03-09-2010 19:00:00 20.7 C 8.86 g/m*3 20.7 C 0 km/h
1053 03-09-2010 20:00:00 18.62 C 8.25 g/m*3 18.62 C 0 km/h
1054 03-09-2010 21:00:00 16.32 C 8.56 g/m*3 16.32 C 0 km/h
1055 03-09-2010 22:00:00 15.36 C 8.86 g/m*3 15.36 C 0 km/h
1056 03-09-2010 23:00:00 15.34 C 9.22 g/m*3 15.34 C 0 km/h
1057 04-09-2010 00:00:00 15.1 C 9.29 g/m*3 15.1 C 0 km/h
1058 04-09-2010 01:00:00 14.82 C 9.41 g/m*3 14.82 C 0 km/h
1059 04-09-2010 02:00:00 14.28 C 9.4 g/m*3 14.28 C 0 km/h
1060 04-09-2010 03:00:00 13.72 C 9.41 g/m*3 13.72 C 0 km/h
1061 04-09-2010 04:00:00 13.2 C 9.48 g/m*3 13.2 C 0 km/h
1062 04-09-2010 05:00:00 13.1 C 9.59 g/m*3 13.1 C 0 km/h
1063 04-09-2010 06:00:00 12.54 C 9.3 g/m*3 12.54 C 0 km/h
1064 04-09-2010 07:00:00 12.08 C 9.25 g/m*3 12.08 C 0 km/h
1065 04-09-2010 08:00:00 12.8 C 9.77 g/m*3 12.8 C 0 km/h
1066 04-09-2010 09:00:00 14.44 C 9.96 g/m*3 14.44 C 0 km/h
1067 04-09-2010 10:00:00 16.3 C 9.49 g/m*3 16.3 C 0 km/h
1068 04-09-2010 11:00:00 18.88 C 8.77 g/m*3 18.88 C 0 km/h
1069 04-09-2010 12:00:00 18.86 C 7.89 g/m*3 18.86 C 0 km/h
1070 04-09-2010 13:00:00 19.58 C 7.62 g/m*3 19.58 C 0 km/h
1071 04-09-2010 14:00:00 22.2 C 6.71 g/m*3 22.2 C 0 km/h
1072 04-09-2010 15:00:00 22.88 C 6.29 g/m*3 22.88 C 0 km/h
1073 04-09-2010 16:00:00 22.42 C 5.53 g/m*3 22.42 C 0 km/h
1074 04-09-2010 17:00:00 23.12 C 4.88 g/m*3 23.12 C 0 km/h
1075 04-09-2010 18:00:00 22.74 C 4.37 g/m*3 22.74 C 0 km/h
Sensor: Nr:Datum:Temp:Abs-Feuchte:Windchill:Wind:
Aussen-T/F 1076 04-09-2010 19:00:00 19.74 C 5.55 g/m*3 19.74 C 0 km/h
1077 04-09-2010 20:00:00 16.14 C 6.54 g/m*3 16.14 C 0 km/h
1078 04-09-2010 21:00:00 14.92 C 6.94 g/m*3 14.92 C 0 km/h
1079 04-09-2010 22:00:00 14.16 C 7.26 g/m*3 14.16 C 0 km/h
1080 04-09-2010 23:00:00 13.12 C 7.59 g/m*3 13.12 C 0 km/h
1081 05-09-2010 00:00:00 12.16 C 7.62 g/m*3 12.16 C 0 km/h
1082 05-09-2010 01:00:00 11.22 C 7.53 g/m*3 11.22 C 0 km/h
1083 05-09-2010 02:00:00 10.44 C 7.52 g/m*3 10.44 C 0 km/h
1084 05-09-2010 03:00:00 9.72 C 7.4 g/m*3 9.72 C 0 km/h
1085 05-09-2010 04:00:00 9.12 C 7.27 g/m*3 9.12 C 0 km/h
1086 05-09-2010 05:00:00 8.64 C 7.27 g/m*3 8.64 C 0 km/h
1087 05-09-2010 06:00:00 8.08 C 7.25 g/m*3 8.08 C 0 km/h
1088 05-09-2010 07:00:00 8.4 C 7.52 g/m*3 8.4 C 0 km/h
1089 05-09-2010 08:00:00 9.82 C 7.91 g/m*3 9.82 C 0 km/h
1090 05-09-2010 09:00:00 11.1 C 7.88 g/m*3 11.1 C 0 km/h
1091 05-09-2010 10:00:00 12.36 C 8.44 g/m*3 12.36 C 0 km/h
1092 05-09-2010 11:00:00 15.42 C 8.16 g/m*3 15.42 C 0 km/h
1093 05-09-2010 12:00:00 18.02 C 6.52 g/m*3 18.02 C 0 km/h
1094 05-09-2010 13:00:00 20.14 C 5.92 g/m*3 20.14 C 0 km/h
1095 05-09-2010 14:00:00 23.5 C 5.2 g/m*3 23.5 C 0 km/h
1096 05-09-2010 15:00:00 24.16 C 4.83 g/m*3 24.16 C 0 km/h
1097 05-09-2010 16:00:00 24.4 C 4.67 g/m*3 24.4 C 0 km/h
1098 05-09-2010 17:00:00 24.6 C 5.04 g/m*3 24.6 C 0 km/h
1099 05-09-2010 18:00:00 24.84 C 5.29 g/m*3 24.84 C 0 km/h
1100 05-09-2010 19:00:00 19.38 C 6.4 g/m*3 19.38 C 0 km/h
Sensor: Nr:Datum:Temp:Abs-Feuchte:Windchill:Wind:
Aussen-T/F 1101 05-09-2010 20:00:00 16.44 C 6.38 g/m*3 16.44 C 0 km/h
1102 05-09-2010 21:00:00 14.9 C 6.81 g/m*3 14.9 C 0 km/h
1103 05-09-2010 22:00:00 14.12 C 7.1 g/m*3 14.12 C 0 km/h
1104 05-09-2010 23:00:00 13.94 C 6.92 g/m*3 13.94 C 0 km/h
1105 06-09-2010 00:00:00 13.22 C 7.08 g/m*3 13.22 C 0 km/h
1106 06-09-2010 01:00:00 12.36 C 7.11 g/m*3 12.36 C 0 km/h
1107 06-09-2010 02:00:00 11.62 C 7.2 g/m*3 11.62 C 0 km/h
1108 06-09-2010 03:00:00 11.1 C 7.15 g/m*3 11.1 C 0 km/h
1109 06-09-2010 04:00:00 10.7 C 7.09 g/m*3 10.7 C 0 km/h
1110 06-09-2010 05:00:00 10.24 C 7.02 g/m*3 10.24 C 0 km/h
1111 06-09-2010 06:00:00 9.56 C 7 g/m*3 9.56 C 0 km/h
1112 06-09-2010 07:00:00 9.28 C 7.07 g/m*3 9.28 C 0 km/h
1113 06-09-2010 08:00:00 9.68 C 7.22 g/m*3 9.68 C 0 km/h
1114 06-09-2010 09:00:00 10.94 C 7.52 g/m*3 10.94 C 0 km/h
1115 06-09-2010 10:00:00 13.48 C 7.52 g/m*3 13.48 C 0 km/h
1116 06-09-2010 11:00:00 16.32 C 7.14 g/m*3 16.32 C 0 km/h
1117 06-09-2010 12:00:00 18.64 C 5.58 g/m*3 18.64 C 0 km/h
1118 06-09-2010 13:00:00 20.24 C 5.4 g/m*3 20.24 C 0 km/h
1119 06-09-2010 14:00:00 22.34 C 4.51 g/m*3 22.34 C 0 km/h
1120 06-09-2010 15:00:00 24 C 4.35 g/m*3 24 C 0 km/h
1121 06-09-2010 16:00:00 23.88 C 4.32 g/m*3 23.88 C 0 km/h
1122 06-09-2010 17:00:00 24.42 C 4.46 g/m*3 24.42 C 0 km/h
1123 06-09-2010 18:00:00 21.44 C 5.34 g/m*3 21.44 C 0 km/h
1124 06-09-2010 19:00:00 18.72 C 5.87 g/m*3 18.72 C 0 km/h
1125 06-09-2010 20:00:00 17.1 C 5.62 g/m*3 17.1 C 0 km/h
Sensor: Nr:Datum:Temp:Abs-Feuchte:Windchill:Wind:
Aussen-T/F 1126 06-09-2010 21:00:00 16.22 C 5.44 g/m*3 16.22 C 0 km/h
1127 06-09-2010 22:00:00 15.5 C 5.6 g/m*3 15.5 C 0 km/h
1128 06-09-2010 23:00:00 15.2 C 5.63 g/m*3 15.2 C 0 km/h
1129 07-09-2010 00:00:00 15.38 C 5.51 g/m*3 15.38 C 0 km/h
1130 07-09-2010 01:00:00 15.42 C 5.39 g/m*3 15.42 C 0 km/h
1131 07-09-2010 02:00:00 15.46 C 5.38 g/m*3 15.46 C 0 km/h
1132 07-09-2010 03:00:00 14.34 C 6.03 g/m*3 14.34 C 0 km/h
1133 07-09-2010 04:00:00 13.06 C 7.01 g/m*3 13.06 C 0 km/h
1134 07-09-2010 05:00:00 12.98 C 7.11 g/m*3 12.98 C 0 km/h
1135 07-09-2010 06:00:00 12.5 C 7.04 g/m*3 12.5 C 0 km/h
1136 07-09-2010 07:00:00 12.12 C 7.09 g/m*3 12.12 C 0 km/h
1137 07-09-2010 08:00:00 11.56 C 8.11 g/m*3 11.56 C 0 km/h
1138 07-09-2010 09:00:00 11.46 C 8.41 g/m*3 11.46 C 0 km/h
1139 07-09-2010 10:00:00 11.46 C 8.88 g/m*3 11.46 C 0 km/h
1140 07-09-2010 11:00:00 11.64 C 9.21 g/m*3 11.64 C 0 km/h
1141 07-09-2010 12:00:00 12.42 C 9.5 g/m*3 12.42 C 0 km/h
1142 07-09-2010 13:00:00 12.78 C 9.31 g/m*3 12.78 C 0 km/h
1143 07-09-2010 14:00:00 13.36 C 9.37 g/m*3 13.36 C 0 km/h
1144 07-09-2010 15:00:00 14.58 C 9.12 g/m*3 14.58 C 0 km/h
1145 07-09-2010 16:00:00 15.52 C 9.11 g/m*3 15.52 C 0 km/h
1146 07-09-2010 17:00:00 14.88 C 9.06 g/m*3 14.88 C 0 km/h
1147 07-09-2010 18:00:00 13.98 C 9.08 g/m*3 13.98 C 0 km/h
1148 07-09-2010 19:00:00 13.78 C 9.38 g/m*3 13.78 C 0 km/h
1149 07-09-2010 20:00:00 13.24 C 9.55 g/m*3 13.24 C 0 km/h
1150 07-09-2010 21:00:00 12.96 C 9.89 g/m*3 12.96 C 0 km/h
Sensor: Nr:Datum:Temp:Abs-Feuchte:Windchill:Wind:
Aussen-T/F 1151 07-09-2010 22:00:00 12.86 C 10.03 g/m*3 12.86 C 0 km/h
1152 07-09-2010 23:00:00 12.92 C 10.16 g/m*3 12.92 C 0 km/h
1153 08-09-2010 00:00:00 12.88 C 10.24 g/m*3 12.88 C 0 km/h
1154 08-09-2010 01:00:00 13 C 10.37 g/m*3 13 C 0 km/h
1155 08-09-2010 02:00:00 13.2 C 10.61 g/m*3 13.2 C 0 km/h
1156 08-09-2010 03:00:00 13.56 C 10.92 g/m*3 13.56 C 0 km/h
1157 08-09-2010 04:00:00 13.56 C 10.92 g/m*3 13.56 C 0 km/h
1158 08-09-2010 05:00:00 14.16 C 11.4 g/m*3 14.16 C 0 km/h
1159 08-09-2010 06:00:00 14.36 C 11.44 g/m*3 14.36 C 0 km/h
1160 08-09-2010 07:00:00 14.22 C 11.25 g/m*3 14.22 C 0 km/h
1161 08-09-2010 08:00:00 14.22 C 11.25 g/m*3 14.22 C 0 km/h
1162 08-09-2010 09:00:00 15.22 C 11.62 g/m*3 15.22 C 0 km/h
1163 08-09-2010 10:00:00 15.52 C 11.41 g/m*3 15.52 C 0 km/h
1164 08-09-2010 11:00:00 15.24 C 11.03 g/m*3 15.24 C 0 km/h
1165 08-09-2010 12:00:00 14.74 C 11.26 g/m*3 14.74 C 0 km/h
1166 08-09-2010 13:00:00 16.22 C 12.12 g/m*3 16.22 C 0 km/h
1167 08-09-2010 14:00:00 17.58 C 11.56 g/m*3 17.58 C 0 km/h
1168 08-09-2010 15:00:00 17.94 C 11.17 g/m*3 17.94 C 0 km/h
1169 08-09-2010 16:00:00 18.54 C 10.69 g/m*3 18.54 C 0 km/h
1170 08-09-2010 17:00:00 19.88 C 10.23 g/m*3 19.88 C 0 km/h
1171 08-09-2010 18:00:00 19.06 C 10.24 g/m*3 19.06 C 0 km/h
1172 08-09-2010 19:00:00 18.2 C 10.54 g/m*3 18.2 C 0 km/h
1173 08-09-2010 20:00:00 16.8 C 10.52 g/m*3 16.8 C 0 km/h
1174 08-09-2010 21:00:00 15.72 C 9.7 g/m*3 15.72 C 0 km/h
1175 08-09-2010 22:00:00 14.78 C 9.79 g/m*3 14.78 C 0 km/h
Sensor: Nr:Datum:Temp:Abs-Feuchte:Windchill:Wind:
Aussen-T/F 1176 08-09-2010 23:00:00 14.48 C 10.01 g/m*3 14.48 C 0 km/h
1177 09-09-2010 00:00:00 14.38 C 10.2 g/m*3 14.38 C 0 km/h
1178 09-09-2010 01:00:00 15.04 C 10.08 g/m*3 15.04 C 0 km/h
1179 09-09-2010 02:00:00 15.14 C 9.93 g/m*3 15.14 C 0 km/h
1180 09-09-2010 03:00:00 15.32 C 9.78 g/m*3 15.32 C 0 km/h
1181 09-09-2010 04:00:00 15.22 C 9.33 g/m*3 15.22 C 0 km/h
1182 09-09-2010 05:00:00 14.9 C 9.02 g/m*3 14.9 C 0 km/h
1183 09-09-2010 06:00:00 14.78 C 8.88 g/m*3 14.78 C 0 km/h
1184 09-09-2010 07:00:00 14.58 C 9.07 g/m*3 14.58 C 0 km/h
1185 09-09-2010 08:00:00 14.8 C 9.1 g/m*3 14.8 C 0 km/h
1186 09-09-2010 09:00:00 15.26 C 9.09 g/m*3 15.26 C 0 km/h
1187 09-09-2010 10:00:00 16.76 C 9.1 g/m*3 16.76 C 0 km/h
1188 09-09-2010 11:00:00 17.78 C 8.88 g/m*3 17.78 C 0 km/h
1189 09-09-2010 12:00:00 18.64 C 8.17 g/m*3 18.64 C 0 km/h
1190 09-09-2010 13:00:00 18.8 C 8.21 g/m*3 18.8 C 0 km/h
1191 09-09-2010 14:00:00 18.98 C 8.59 g/m*3 18.98 C 0 km/h
1192 09-09-2010 15:00:00 19.38 C 9.13 g/m*3 19.38 C 0 km/h
1193 09-09-2010 16:00:00 17.1 C 10.92 g/m*3 17.1 C 0 km/h
1194 09-09-2010 17:00:00 17.92 C 11.62 g/m*3 17.92 C 0 km/h
1195 09-09-2010 18:00:00 17.7 C 10.47 g/m*3 17.7 C 0 km/h
1196 09-09-2010 19:00:00 16.54 C 9.46 g/m*3 16.54 C 0 km/h
1197 09-09-2010 20:00:00 15.4 C 9.78 g/m*3 15.4 C 0 km/h
1198 09-09-2010 21:00:00 14.8 C 10.26 g/m*3 14.8 C 0 km/h
1199 09-09-2010 22:00:00 14.74 C 10.17 g/m*3 14.74 C 0 km/h
1200 09-09-2010 23:00:00 14.98 C 9.71 g/m*3 14.98 C 0 km/h
Sensor: Nr:Datum:Temp:Abs-Feuchte:Windchill:Wind:
Aussen-T/F 1201 10-09-2010 00:00:00 14.66 C 9.92 g/m*3 14.66 C 0 km/h
1202 10-09-2010 01:00:00 14 C 9.77 g/m*3 14 C 0 km/h
1203 10-09-2010 02:00:00 13.9 C 9.95 g/m*3 13.9 C 0 km/h
1204 10-09-2010 03:00:00 13.9 C 10.07 g/m*3 13.9 C 0 km/h
1205 10-09-2010 04:00:00 13.84 C 10.25 g/m*3 13.84 C 0 km/h
1206 10-09-2010 05:00:00 13.06 C 9.99 g/m*3 13.06 C 0 km/h
1207 10-09-2010 06:00:00 13.12 C 10.24 g/m*3 13.12 C 0 km/h
1208 10-09-2010 07:00:00 13.18 C 9.84 g/m*3 13.18 C 0 km/h
1209 10-09-2010 08:00:00 13.32 C 9.95 g/m*3 13.32 C 0 km/h
1210 10-09-2010 09:00:00 14.6 C 9.54 g/m*3 14.6 C 0 km/h
1211 10-09-2010 10:00:00 16.16 C 9.35 g/m*3 16.16 C 0 km/h
1212 10-09-2010 11:00:00 17.88 C 9.21 g/m*3 17.88 C 0 km/h
1213 10-09-2010 12:00:00 18.74 C 9.18 g/m*3 18.74 C 0 km/h
1214 10-09-2010 13:00:00 19.18 C 8.66 g/m*3 19.18 C 0 km/h
1215 10-09-2010 14:00:00 19.94 C 8.75 g/m*3 19.94 C 0 km/h
1216 10-09-2010 15:00:00 20.82 C 8.59 g/m*3 20.82 C 0 km/h
1217 10-09-2010 16:00:00 21.1 C 8.44 g/m*3 21.1 C 0 km/h
1218 10-09-2010 17:00:00 20.18 C 8.98 g/m*3 20.18 C 0 km/h
1219 10-09-2010 18:00:00 17.86 C 10.21 g/m*3 17.86 C 0 km/h
1220 10-09-2010 19:00:00 16.26 C 11.43 g/m*3 16.26 C 0 km/h
1221 10-09-2010 20:00:00 15.68 C 11.57 g/m*3 15.68 C 0 km/h
1222 10-09-2010 21:00:00 15.8 C 11.68 g/m*3 15.8 C 0 km/h
1223 10-09-2010 22:00:00 15.68 C 11.44 g/m*3 15.68 C 0 km/h
1224 10-09-2010 23:00:00 15.46 C 11.18 g/m*3 15.46 C 0 km/h
1225 11-09-2010 00:00:00 15.14 C 10.86 g/m*3 15.14 C 0 km/h
Sensor: Nr:Datum:Temp:Abs-Feuchte:Windchill:Wind:
Aussen-T/F 1226 11-09-2010 01:00:00 15 C 10.8 g/m*3 15 C 0 km/h
1227 11-09-2010 02:00:00 14.74 C 10.73 g/m*3 14.74 C 0 km/h
1228 11-09-2010 03:00:00 14.08 C 10.42 g/m*3 14.08 C 0 km/h
1229 11-09-2010 04:00:00 13.14 C 9.86 g/m*3 13.14 C 0 km/h
1230 11-09-2010 05:00:00 12.64 C 9.78 g/m*3 12.64 C 0 km/h
1231 11-09-2010 06:00:00 12.74 C 9.91 g/m*3 12.74 C 0 km/h
1232 11-09-2010 07:00:00 12.16 C 9.54 g/m*3 12.16 C 0 km/h
1233 11-09-2010 08:00:00 13.04 C 10.23 g/m*3 13.04 C 0 km/h
1234 11-09-2010 09:00:00 13.76 C 10.55 g/m*3 13.76 C 0 km/h
1235 11-09-2010 10:00:00 15.66 C 11.32 g/m*3 15.66 C 0 km/h
1236 11-09-2010 11:00:00 18.24 C 11.37 g/m*3 18.24 C 0 km/h
1237 11-09-2010 12:00:00 19.9 C 9.59 g/m*3 19.9 C 0 km/h
1238 11-09-2010 13:00:00 21.76 C 8.81 g/m*3 21.76 C 0 km/h
1239 11-09-2010 14:00:00 24.2 C 8.14 g/m*3 24.2 C 0 km/h
1240 11-09-2010 15:00:00 26.04 C 7.86 g/m*3 26.04 C 0 km/h
1241 11-09-2010 16:00:00 26.34 C 8.19 g/m*3 26.34 C 0 km/h
1242 11-09-2010 17:00:00 27.62 C 8.31 g/m*3 27.62 C 0 km/h
1243 11-09-2010 18:00:00 26.06 C 9.28 g/m*3 26.06 C 0 km/h
1244 11-09-2010 19:00:00 21.76 C 9.72 g/m*3 21.76 C 0 km/h
1245 11-09-2010 20:00:00 19.34 C 9.51 g/m*3 19.34 C 0 km/h
1246 11-09-2010 21:00:00 18.1 C 10.01 g/m*3 18.1 C 0 km/h
1247 11-09-2010 22:00:00 17.2 C 10.28 g/m*3 17.2 C 0 km/h
1248 11-09-2010 23:00:00 16.56 C 10.4 g/m*3 16.56 C 0 km/h
1249 12-09-2010 00:00:00 16.06 C 10.42 g/m*3 16.06 C 0 km/h
1250 12-09-2010 01:00:00 15.34 C 10.34 g/m*3 15.34 C 0 km/h
Sensor: Nr:Datum:Temp:Abs-Feuchte:Windchill:Wind:
Aussen-T/F 1251 12-09-2010 02:00:00 14.88 C 10.39 g/m*3 14.88 C 0 km/h
1252 12-09-2010 03:00:00 14.46 C 10.2 g/m*3 14.46 C 0 km/h
1253 12-09-2010 04:00:00 14.1 C 10.07 g/m*3 14.1 C 0 km/h
1254 12-09-2010 05:00:00 13.76 C 9.98 g/m*3 13.76 C 0 km/h
1255 12-09-2010 06:00:00 13.52 C 9.93 g/m*3 13.52 C 0 km/h
1256 12-09-2010 07:00:00 13.7 C 10.14 g/m*3 13.7 C 0 km/h
1257 12-09-2010 08:00:00 14.26 C 10.3 g/m*3 14.26 C 0 km/h
1258 12-09-2010 09:00:00 14.84 C 10.51 g/m*3 14.84 C 0 km/h
1259 12-09-2010 10:00:00 16.94 C 11.16 g/m*3 16.94 C 0 km/h
1260 12-09-2010 11:00:00 20.02 C 10.69 g/m*3 20.02 C 0 km/h
1261 12-09-2010 12:00:00 21.62 C 10.75 g/m*3 21.62 C 0 km/h
1262 12-09-2010 13:00:00 24.4 C 9.84 g/m*3 24.4 C 0 km/h
1263 12-09-2010 14:00:00 23.86 C 9.2 g/m*3 23.86 C 0 km/h
1264 12-09-2010 15:00:00 19.32 C 8.87 g/m*3 19.32 C 0 km/h
1265 12-09-2010 16:00:00 17.78 C 9.19 g/m*3 17.78 C 0 km/h
1266 12-09-2010 17:00:00 16.2 C 9.68 g/m*3 16.2 C 0 km/h
1267 12-09-2010 18:00:00 14.92 C 10.59 g/m*3 14.92 C 0 km/h
1268 12-09-2010 19:00:00 14.26 C 10.79 g/m*3 14.26 C 0 km/h
1269 12-09-2010 20:00:00 13.82 C 10.81 g/m*3 13.82 C 0 km/h
1270 12-09-2010 21:00:00 13.78 C 10.97 g/m*3 13.78 C 0 km/h
1271 12-09-2010 22:00:00 13.78 C 11.07 g/m*3 13.78 C 0 km/h
1272 12-09-2010 23:00:00 13.58 C 10.93 g/m*3 13.58 C 0 km/h
1273 13-09-2010 00:00:00 13.68 C 11 g/m*3 13.68 C 0 km/h
1274 13-09-2010 01:00:00 13.7 C 11.01 g/m*3 13.7 C 0 km/h
1275 13-09-2010 02:00:00 13.52 C 10.89 g/m*3 13.52 C 0 km/h
Sensor: Nr:Datum:Temp:Abs-Feuchte:Windchill:Wind:
Aussen-T/F 1276 13-09-2010 03:00:00 13.26 C 10.58 g/m*3 13.26 C 0 km/h
1277 13-09-2010 04:00:00 13 C 10.21 g/m*3 13 C 0 km/h
1278 13-09-2010 05:00:00 13.26 C 9.77 g/m*3 13.26 C 0 km/h
1279 13-09-2010 06:00:00 13.3 C 9.57 g/m*3 13.3 C 0 km/h
1280 13-09-2010 07:00:00 12.72 C 9.18 g/m*3 12.72 C 0 km/h
1281 13-09-2010 08:00:00 13.04 C 9.62 g/m*3 13.04 C 0 km/h
1282 13-09-2010 09:00:00 13.98 C 9.47 g/m*3 13.98 C 0 km/h
1283 13-09-2010 10:00:00 15.32 C 9.05 g/m*3 15.32 C 0 km/h
1284 13-09-2010 11:00:00 16.5 C 8.57 g/m*3 16.5 C 0 km/h
1285 13-09-2010 12:00:00 17.24 C 7.93 g/m*3 17.24 C 0 km/h
1286 13-09-2010 13:00:00 18.94 C 7.53 g/m*3 18.94 C 0 km/h
1287 13-09-2010 14:00:00 20.18 C 6.95 g/m*3 20.18 C 0 km/h
1288 13-09-2010 15:00:00 20.8 C 7.1 g/m*3 20.8 C 0 km/h
1289 13-09-2010 16:00:00 21.56 C 6.93 g/m*3 21.56 C 0 km/h
1290 13-09-2010 17:00:00 20.48 C 7.96 g/m*3 20.48 C 0 km/h
1291 13-09-2010 18:00:00 18.22 C 8.62 g/m*3 18.22 C 0 km/h
1292 13-09-2010 19:00:00 16.92 C 8.55 g/m*3 16.92 C 0 km/h
1293 13-09-2010 20:00:00 15.24 C 8.9 g/m*3 15.24 C 0 km/h
1294 13-09-2010 21:00:00 14.52 C 8.97 g/m*3 14.52 C 0 km/h
1295 13-09-2010 22:00:00 13.7 C 8.86 g/m*3 13.7 C 0 km/h
1296 13-09-2010 23:00:00 13.14 C 8.85 g/m*3 13.14 C 0 km/h
1297 14-09-2010 00:00:00 12.82 C 9.2 g/m*3 12.82 C 0 km/h
1298 14-09-2010 01:00:00 12.8 C 9.27 g/m*3 12.8 C 0 km/h
1299 14-09-2010 02:00:00 13.1 C 9.33 g/m*3 13.1 C 0 km/h
1300 14-09-2010 03:00:00 13.36 C 9.23 g/m*3 13.36 C 0 km/h
Sensor: Nr:Datum:Temp:Abs-Feuchte:Windchill:Wind:
Aussen-T/F 1301 14-09-2010 04:00:00 12.94 C 9.42 g/m*3 12.94 C 0 km/h
1302 14-09-2010 05:00:00 12.96 C 9.84 g/m*3 12.96 C 0 km/h
1303 14-09-2010 06:00:00 13.9 C 9.28 g/m*3 13.9 C 0 km/h
1304 14-09-2010 07:00:00 14.06 C 8.93 g/m*3 14.06 C 0 km/h
1305 14-09-2010 08:00:00 14.1 C 9.32 g/m*3 14.1 C 0 km/h
1306 14-09-2010 09:00:00 15.16 C 9.06 g/m*3 15.16 C 0 km/h
1307 14-09-2010 10:00:00 16.1 C 9.07 g/m*3 16.1 C 0 km/h
1308 14-09-2010 11:00:00 17.06 C 9.15 g/m*3 17.06 C 0 km/h
1309 14-09-2010 12:00:00 18.44 C 9.18 g/m*3 18.44 C 0 km/h
1310 14-09-2010 13:00:00 19.98 C 9.22 g/m*3 19.98 C 0 km/h
1311 14-09-2010 14:00:00 19.66 C 8.84 g/m*3 19.66 C 0 km/h
1312 14-09-2010 15:00:00 20.4 C 8.63 g/m*3 20.4 C 0 km/h
1313 14-09-2010 16:00:00 20.68 C 7.88 g/m*3 20.68 C 0 km/h
1314 14-09-2010 17:00:00 20.14 C 7.46 g/m*3 20.14 C 0 km/h
1315 14-09-2010 18:00:00 19.34 C 7.81 g/m*3 19.34 C 0 km/h
1316 14-09-2010 19:00:00 18.8 C 7.73 g/m*3 18.8 C 0 km/h
1317 14-09-2010 20:00:00 18.6 C 7.7 g/m*3 18.6 C 0 km/h
1318 14-09-2010 21:00:00 18.54 C 7.77 g/m*3 18.54 C 0 km/h
1319 14-09-2010 22:00:00 18.5 C 7.83 g/m*3 18.5 C 0 km/h
1320 14-09-2010 23:00:00 18.22 C 7.91 g/m*3 18.22 C 0 km/h
1321 15-09-2010 00:00:00 18.02 C 7.87 g/m*3 18.02 C 0 km/h
1322 15-09-2010 01:00:00 18.18 C 7.67 g/m*3 18.18 C 0 km/h
1323 15-09-2010 02:00:00 18.32 C 7.64 g/m*3 18.32 C 0 km/h
1324 15-09-2010 03:00:00 18.06 C 8.23 g/m*3 18.06 C 0 km/h
1325 15-09-2010 04:00:00 17.7 C 9.11 g/m*3 17.7 C 0 km/h
Sensor: Nr:Datum:Temp:Abs-Feuchte:Windchill:Wind:
Aussen-T/F 1326 15-09-2010 05:00:00 15 C 9.75 g/m*3 15 C 0 km/h
1327 15-09-2010 06:00:00 12.78 C 10.09 g/m*3 12.78 C 0 km/h
1328 15-09-2010 07:00:00 12.74 C 10.29 g/m*3 12.74 C 0 km/h
1329 15-09-2010 08:00:00 12.7 C 10.35 g/m*3 12.7 C 0 km/h
1330 15-09-2010 09:00:00 12.92 C 10.36 g/m*3 12.92 C 0 km/h
1331 15-09-2010 10:00:00 14.06 C 9.95 g/m*3 14.06 C 0 km/h
1332 15-09-2010 11:00:00 15.02 C 8.86 g/m*3 15.02 C 0 km/h
1333 15-09-2010 12:00:00 16.5 C 7.02 g/m*3 16.5 C 0 km/h
1334 15-09-2010 13:00:00 17.24 C 6.31 g/m*3 17.24 C 0 km/h
1335 15-09-2010 14:00:00 18.38 C 5.66 g/m*3 18.38 C 0 km/h
1336 15-09-2010 15:00:00 19.52 C 5.75 g/m*3 19.52 C 0 km/h
1337 15-09-2010 16:00:00 19.52 C 5.98 g/m*3 19.52 C 0 km/h
1338 15-09-2010 17:00:00 19.68 C 5.8 g/m*3 19.68 C 0 km/h
1339 15-09-2010 18:00:00 17.84 C 5.32 g/m*3 17.84 C 0 km/h
1340 15-09-2010 19:00:00 16.6 C 5.65 g/m*3 16.6 C 0 km/h
1341 15-09-2010 20:00:00 15.84 C 6.26 g/m*3 15.84 C 0 km/h
1342 15-09-2010 21:00:00 15.18 C 6.38 g/m*3 15.18 C 0 km/h
1343 15-09-2010 22:00:00 14.96 C 5.96 g/m*3 14.96 C 0 km/h
1344 15-09-2010 23:00:00 14.86 C 5.64 g/m*3 14.86 C 0 km/h
1345 16-09-2010 00:00:00 14.18 C 5.9 g/m*3 14.18 C 0 km/h
1346 16-09-2010 01:00:00 14.1 C 5.41 g/m*3 14.1 C 0 km/h
1347 16-09-2010 02:00:00 13.94 C 5.79 g/m*3 13.94 C 0 km/h
1348 16-09-2010 03:00:00 13.84 C 6.71 g/m*3 13.84 C 0 km/h
1349 16-09-2010 04:00:00 13.58 C 6.98 g/m*3 13.58 C 0 km/h
1350 16-09-2010 05:00:00 13.36 C 7.26 g/m*3 13.36 C 0 km/h
Sensor: Nr:Datum:Temp:Abs-Feuchte:Windchill:Wind:
Aussen-T/F 1351 16-09-2010 06:00:00 12.44 C 8.08 g/m*3 12.44 C 0 km/h
1352 16-09-2010 07:00:00 11.78 C 8.68 g/m*3 11.78 C 0 km/h
1353 16-09-2010 08:00:00 11.86 C 8.83 g/m*3 11.86 C 0 km/h
1354 16-09-2010 09:00:00 12.64 C 9.25 g/m*3 12.64 C 0 km/h
1355 16-09-2010 10:00:00 14.12 C 8.65 g/m*3 14.12 C 0 km/h
1356 16-09-2010 11:00:00 15.26 C 8.23 g/m*3 15.26 C 0 km/h
1357 16-09-2010 12:00:00 17.02 C 7.68 g/m*3 17.02 C 0 km/h
1358 16-09-2010 13:00:00 17.32 C 7.17 g/m*3 17.32 C 0 km/h
1359 16-09-2010 14:00:00 15.28 C 8.71 g/m*3 15.28 C 0 km/h
1360 16-09-2010 15:00:00 17.22 C 9.15 g/m*3 17.22 C 0 km/h
1361 16-09-2010 16:00:00 16.36 C 8.49 g/m*3 16.36 C 0 km/h
1362 16-09-2010 17:00:00 15.3 C 9.51 g/m*3 15.3 C 0 km/h
1363 16-09-2010 18:00:00 14.9 C 8.95 g/m*3 14.9 C 0 km/h
1364 16-09-2010 19:00:00 13.42 C 9.68 g/m*3 13.42 C 0 km/h
1365 16-09-2010 20:00:00 12.84 C 10.02 g/m*3 12.84 C 0 km/h
1366 16-09-2010 21:00:00 12.62 C 10.08 g/m*3 12.62 C 0 km/h
1367 16-09-2010 22:00:00 12.2 C 9.58 g/m*3 12.2 C 0 km/h
1368 16-09-2010 23:00:00 12.1 C 9.29 g/m*3 12.1 C 0 km/h
1369 17-09-2010 00:00:00 12.16 C 9.24 g/m*3 12.16 C 0 km/h
1370 17-09-2010 01:00:00 12.06 C 9.26 g/m*3 12.06 C 0 km/h
1371 17-09-2010 02:00:00 11.96 C 9.29 g/m*3 11.96 C 0 km/h
1372 17-09-2010 03:00:00 12.06 C 8.94 g/m*3 12.06 C 0 km/h
1373 17-09-2010 04:00:00 11.94 C 8.73 g/m*3 11.94 C 0 km/h
1374 17-09-2010 05:00:00 11.2 C 8.23 g/m*3 11.2 C 0 km/h
1375 17-09-2010 06:00:00 10.6 C 8.59 g/m*3 10.6 C 0 km/h
Sensor: Nr:Datum:Temp:Abs-Feuchte:Windchill:Wind:
Aussen-T/F 1376 17-09-2010 07:00:00 10.02 C 8.15 g/m*3 10.02 C 0 km/h
1377 17-09-2010 08:00:00 10.22 C 7.66 g/m*3 10.22 C 0 km/h
1378 17-09-2010 09:00:00 10.86 C 7.28 g/m*3 10.86 C 0 km/h
1379 17-09-2010 10:00:00 12.06 C 7.55 g/m*3 12.06 C 0 km/h
1380 17-09-2010 11:00:00 13.72 C 7.56 g/m*3 13.72 C 0 km/h
1381 17-09-2010 12:00:00 15.7 C 6.58 g/m*3 15.7 C 0 km/h
1382 17-09-2010 13:00:00 16.66 C 5.9 g/m*3 16.66 C 0 km/h
1383 17-09-2010 14:00:00 17.62 C 5.29 g/m*3 17.62 C 0 km/h
1384 17-09-2010 15:00:00 17.48 C 5.06 g/m*3 17.48 C 0 km/h
1385 17-09-2010 16:00:00 19.06 C 4.94 g/m*3 19.06 C 0 km/h
1386 17-09-2010 17:00:00 19.46 C 4.45 g/m*3 19.46 C 0 km/h
1387 17-09-2010 18:00:00 16.66 C 6.1 g/m*3 16.66 C 0 km/h
1388 17-09-2010 19:00:00 15.24 C 6.69 g/m*3 15.24 C 0 km/h
1389 17-09-2010 20:00:00 14.26 C 7.06 g/m*3 14.26 C 0 km/h
1390 17-09-2010 21:00:00 13.48 C 7.15 g/m*3 13.48 C 0 km/h
1391 17-09-2010 22:00:00 13.34 C 6.72 g/m*3 13.34 C 0 km/h
1392 17-09-2010 23:00:00 12.58 C 6.81 g/m*3 12.58 C 0 km/h
1393 18-09-2010 00:00:00 12.12 C 6.94 g/m*3 12.12 C 0 km/h
1394 18-09-2010 01:00:00 10.9 C 7 g/m*3 10.9 C 0 km/h
1395 18-09-2010 02:00:00 10 C 7.2 g/m*3 10 C 0 km/h
1396 18-09-2010 03:00:00 9.38 C 7.3 g/m*3 9.38 C 0 km/h
1397 18-09-2010 04:00:00 8.54 C 7.19 g/m*3 8.54 C 0 km/h
1398 18-09-2010 05:00:00 7.94 C 7.18 g/m*3 7.94 C 0 km/h
1399 18-09-2010 06:00:00 7.62 C 7.36 g/m*3 7.62 C 0 km/h
1400 18-09-2010 07:00:00 7.5 C 7.3 g/m*3 7.5 C 0 km/h
Sensor: Nr:Datum:Temp:Abs-Feuchte:Windchill:Wind:
Aussen-T/F 1401 18-09-2010 08:00:00 7.46 C 7.23 g/m*3 7.46 C 0 km/h
1402 18-09-2010 09:00:00 8.12 C 7.55 g/m*3 8.12 C 0 km/h
1403 18-09-2010 10:00:00 10.2 C 8.18 g/m*3 10.2 C 0 km/h
1404 18-09-2010 11:00:00 13.46 C 6.65 g/m*3 13.46 C 0 km/h
1405 18-09-2010 12:00:00 15.14 C 5.92 g/m*3 15.14 C 0 km/h
1406 18-09-2010 13:00:00 15.6 C 5.43 g/m*3 15.6 C 0 km/h
1407 18-09-2010 14:00:00 15.26 C 4.77 g/m*3 15.26 C 0 km/h
1408 18-09-2010 15:00:00 16.3 C 4.58 g/m*3 16.3 C 0 km/h
1409 18-09-2010 16:00:00 16.22 C 4.86 g/m*3 16.22 C 0 km/h
1410 18-09-2010 17:00:00 15.86 C 5.73 g/m*3 15.86 C 0 km/h
1411 18-09-2010 18:00:00 15.66 C 6.06 g/m*3 15.66 C 0 km/h
1412 18-09-2010 19:00:00 13.26 C 6.08 g/m*3 13.26 C 0 km/h
1413 18-09-2010 20:00:00 11.08 C 6.6 g/m*3 11.08 C 0 km/h
1414 18-09-2010 21:00:00 10.02 C 6.62 g/m*3 10.02 C 0 km/h
1415 18-09-2010 22:00:00 8.98 C 6.69 g/m*3 8.98 C 0 km/h
1416 18-09-2010 23:00:00 8.2 C 6.77 g/m*3 8.2 C 0 km/h
1417 19-09-2010 00:00:00 7.56 C 6.72 g/m*3 7.56 C 0 km/h
1418 19-09-2010 01:00:00 6.92 C 6.54 g/m*3 6.92 C 0 km/h
1419 19-09-2010 02:00:00 6.44 C 6.53 g/m*3 6.44 C 0 km/h
1420 19-09-2010 03:00:00 6.42 C 6.57 g/m*3 6.42 C 0 km/h
1421 19-09-2010 04:00:00 6.2 C 6.5 g/m*3 6.2 C 0 km/h
1422 19-09-2010 05:00:00 6.04 C 6.42 g/m*3 6.04 C 0 km/h
1423 19-09-2010 06:00:00 5.76 C 6.33 g/m*3 5.76 C 0 km/h
1424 19-09-2010 07:00:00 6 C 6.46 g/m*3 6 C 0 km/h
1425 19-09-2010 08:00:00 6.96 C 6.79 g/m*3 6.96 C 0 km/h
Sensor: Nr:Datum:Temp:Abs-Feuchte:Windchill:Wind:
Aussen-T/F 1426 19-09-2010 09:00:00 8.12 C 6.98 g/m*3 8.12 C 0 km/h
1427 19-09-2010 10:00:00 10.72 C 6.69 g/m*3 10.72 C 0 km/h
1428 19-09-2010 11:00:00 12.92 C 6.27 g/m*3 12.92 C 0 km/h
1429 19-09-2010 12:00:00 14.94 C 5.67 g/m*3 14.94 C 0 km/h
1430 19-09-2010 13:00:00 16.12 C 5.54 g/m*3 16.12 C 0 km/h
1431 19-09-2010 14:00:00 17.38 C 5.68 g/m*3 17.38 C 0 km/h
1432 19-09-2010 15:00:00 18.62 C 5.45 g/m*3 18.62 C 0 km/h
1433 19-09-2010 16:00:00 19.04 C 5.29 g/m*3 19.04 C 0 km/h
1434 19-09-2010 17:00:00 18.78 C 5.69 g/m*3 18.78 C 0 km/h
1435 19-09-2010 18:00:00 17.08 C 5.99 g/m*3 17.08 C 0 km/h
1436 19-09-2010 19:00:00 15.78 C 5.97 g/m*3 15.78 C 0 km/h
1437 19-09-2010 20:00:00 14.46 C 6.3 g/m*3 14.46 C 0 km/h
1438 19-09-2010 21:00:00 13.96 C 6.62 g/m*3 13.96 C 0 km/h
1439 19-09-2010 22:00:00 13.32 C 6.78 g/m*3 13.32 C 0 km/h
1440 19-09-2010 23:00:00 12.28 C 6.77 g/m*3 12.28 C 0 km/h
1441 20-09-2010 00:00:00 11.68 C 6.87 g/m*3 11.68 C 0 km/h
1442 20-09-2010 01:00:00 10.44 C 6.78 g/m*3 10.44 C 0 km/h
1443 20-09-2010 02:00:00 9.84 C 6.88 g/m*3 9.84 C 0 km/h
1444 20-09-2010 03:00:00 9.64 C 7.02 g/m*3 9.64 C 0 km/h
1445 20-09-2010 04:00:00 8.98 C 6.89 g/m*3 8.98 C 0 km/h
1446 20-09-2010 05:00:00 8.32 C 6.89 g/m*3 8.32 C 0 km/h
1447 20-09-2010 06:00:00 8.48 C 7.03 g/m*3 8.48 C 0 km/h
1448 20-09-2010 07:00:00 8.52 C 7.1 g/m*3 8.52 C 0 km/h
1449 20-09-2010 08:00:00 9.18 C 6.87 g/m*3 9.18 C 0 km/h
1450 20-09-2010 09:00:00 9.84 C 6.92 g/m*3 9.84 C 0 km/h
Sensor: Nr:Datum:Temp:Abs-Feuchte:Windchill:Wind:
Aussen-T/F 1451 20-09-2010 10:00:00 12.4 C 7.21 g/m*3 12.4 C 0 km/h
1452 20-09-2010 11:00:00 14.62 C 6.99 g/m*3 14.62 C 0 km/h
1453 20-09-2010 12:00:00 16.26 C 6.34 g/m*3 16.26 C 0 km/h
1454 20-09-2010 13:00:00 18.02 C 6.12 g/m*3 18.02 C 0 km/h
1455 20-09-2010 14:00:00 20.02 C 5.81 g/m*3 20.02 C 0 km/h
1456 20-09-2010 15:00:00 21.42 C 5.86 g/m*3 21.42 C 0 km/h
1457 20-09-2010 16:00:00 22.46 C 6.22 g/m*3 22.46 C 0 km/h
1458 20-09-2010 17:00:00 22.28 C 6.11 g/m*3 22.28 C 0 km/h
1459 20-09-2010 18:00:00 21.3 C 6.67 g/m*3 21.3 C 0 km/h
1460 20-09-2010 19:00:00 17.5 C 7.19 g/m*3 17.5 C 0 km/h
1461 20-09-2010 20:00:00 15.34 C 7.54 g/m*3 15.34 C 0 km/h
1462 20-09-2010 21:00:00 14.2 C 7.72 g/m*3 14.2 C 0 km/h
1463 20-09-2010 22:00:00 13.22 C 8.07 g/m*3 13.22 C 0 km/h
1464 20-09-2010 23:00:00 12.28 C 8.05 g/m*3 12.28 C 0 km/h
1465 21-09-2010 00:00:00 11.52 C 7.88 g/m*3 11.52 C 0 km/h
1466 21-09-2010 01:00:00 10.9 C 7.8 g/m*3 10.9 C 0 km/h
1467 21-09-2010 02:00:00 10.24 C 7.69 g/m*3 10.24 C 0 km/h
1468 21-09-2010 03:00:00 9.74 C 7.71 g/m*3 9.74 C 0 km/h
1469 21-09-2010 04:00:00 9.22 C 7.51 g/m*3 9.22 C 0 km/h
1470 21-09-2010 05:00:00 8.78 C 7.46 g/m*3 8.78 C 0 km/h
1471 21-09-2010 06:00:00 8.34 C 7.37 g/m*3 8.34 C 0 km/h
1472 21-09-2010 07:00:00 8.14 C 7.34 g/m*3 8.14 C 0 km/h
1473 21-09-2010 08:00:00 8.26 C 7.53 g/m*3 8.26 C 0 km/h
1474 21-09-2010 09:00:00 9.18 C 7.97 g/m*3 9.18 C 0 km/h
1475 21-09-2010 10:00:00 11.12 C 8.71 g/m*3 11.12 C 0 km/h
Sensor: Nr:Datum:Temp:Abs-Feuchte:Windchill:Wind:
Aussen-T/F 1476 21-09-2010 11:00:00 14.12 C 8.65 g/m*3 14.12 C 0 km/h
1477 21-09-2010 12:00:00 16.14 C 8.99 g/m*3 16.14 C 0 km/h
1478 21-09-2010 13:00:00 17.02 C 9.65 g/m*3 17.02 C 0 km/h
1479 21-09-2010 14:00:00 17.82 C 9.48 g/m*3 17.82 C 0 km/h
1480 21-09-2010 15:00:00 23.12 C 8.2 g/m*3 23.12 C 0 km/h
1481 21-09-2010 16:00:00 25.16 C 7.62 g/m*3 25.16 C 0 km/h
1482 21-09-2010 17:00:00 24.6 C 7.56 g/m*3 24.6 C 0 km/h
1483 21-09-2010 18:00:00 22.18 C 7.88 g/m*3 22.18 C 0 km/h
1484 21-09-2010 19:00:00 18.64 C 8.36 g/m*3 18.64 C 0 km/h
1485 21-09-2010 20:00:00 16.3 C 8.52 g/m*3 16.3 C 0 km/h
1486 21-09-2010 21:00:00 15.06 C 8.49 g/m*3 15.06 C 0 km/h
1487 21-09-2010 22:00:00 13.9 C 8.51 g/m*3 13.9 C 0 km/h
1488 21-09-2010 23:00:00 12.98 C 8.54 g/m*3 12.98 C 0 km/h
1489 22-09-2010 00:00:00 12.2 C 8.55 g/m*3 12.2 C 0 km/h
1490 22-09-2010 01:00:00 11.5 C 8.41 g/m*3 11.5 C 0 km/h
1491 22-09-2010 02:00:00 10.78 C 8.15 g/m*3 10.78 C 0 km/h
1492 22-09-2010 03:00:00 10.22 C 8 g/m*3 10.22 C 0 km/h
1493 22-09-2010 04:00:00 9.72 C 7.94 g/m*3 9.72 C 0 km/h
1494 22-09-2010 05:00:00 9.84 C 8.15 g/m*3 9.84 C 0 km/h
1495 22-09-2010 06:00:00 9.78 C 8.15 g/m*3 9.78 C 0 km/h
1496 22-09-2010 07:00:00 9.56 C 8.04 g/m*3 9.56 C 0 km/h
1497 22-09-2010 08:00:00 9.36 C 7.96 g/m*3 9.36 C 0 km/h
1498 22-09-2010 09:00:00 10.18 C 8.15 g/m*3 10.18 C 0 km/h
1499 22-09-2010 10:00:00 12.42 C 8.64 g/m*3 12.42 C 0 km/h
1500 22-09-2010 11:00:00 13.78 C 9.19 g/m*3 13.78 C 0 km/h
Sensor: Nr:Datum:Temp:Abs-Feuchte:Windchill:Wind:
Aussen-T/F 1501 22-09-2010 12:00:00 16.54 C 9.97 g/m*3 16.54 C 0 km/h
1502 22-09-2010 13:00:00 19.76 C 10.09 g/m*3 19.76 C 0 km/h
1503 22-09-2010 14:00:00 22.86 C 10.07 g/m*3 22.86 C 0 km/h
1504 22-09-2010 15:00:00 25.06 C 9.29 g/m*3 25.06 C 0 km/h
1505 22-09-2010 16:00:00 27.32 C 8.59 g/m*3 27.32 C 0 km/h
1506 22-09-2010 17:00:00 27.06 C 8.16 g/m*3 27.06 C 0 km/h
1507 22-09-2010 18:00:00 24.88 C 9.1 g/m*3 24.88 C 0 km/h
1508 22-09-2010 19:00:00 20.88 C 9.2 g/m*3 20.88 C 0 km/h
1509 22-09-2010 20:00:00 18.54 C 9.1 g/m*3 18.54 C 0 km/h
1510 22-09-2010 21:00:00 17.46 C 9.31 g/m*3 17.46 C 0 km/h
1511 22-09-2010 22:00:00 16.18 C 9.26 g/m*3 16.18 C 0 km/h
1512 22-09-2010 23:00:00 14.92 C 8.78 g/m*3 14.92 C 0 km/h
1513 23-09-2010 00:00:00 14.02 C 8.65 g/m*3 14.02 C 0 km/h
1514 23-09-2010 01:00:00 13.22 C 8.71 g/m*3 13.22 C 0 km/h
1515 23-09-2010 02:00:00 12.44 C 8.7 g/m*3 12.44 C 0 km/h
1516 23-09-2010 03:00:00 11.8 C 8.57 g/m*3 11.8 C 0 km/h
1517 23-09-2010 04:00:00 11.16 C 8.39 g/m*3 11.16 C 0 km/h
1518 23-09-2010 05:00:00 10.64 C 8.22 g/m*3 10.64 C 0 km/h
1519 23-09-2010 06:00:00 10.46 C 8.2 g/m*3 10.46 C 0 km/h
1520 23-09-2010 07:00:00 10.52 C 8.25 g/m*3 10.52 C 0 km/h
1521 23-09-2010 08:00:00 10.88 C 8.42 g/m*3 10.88 C 0 km/h
1522 23-09-2010 09:00:00 11.64 C 8.65 g/m*3 11.64 C 0 km/h
1523 23-09-2010 10:00:00 12.98 C 9.24 g/m*3 12.98 C 0 km/h
1524 23-09-2010 11:00:00 15.64 C 10.08 g/m*3 15.64 C 0 km/h
1525 23-09-2010 12:00:00 18.66 C 10.61 g/m*3 18.66 C 0 km/h
Sensor: Nr:Datum:Temp:Abs-Feuchte:Windchill:Wind:
Aussen-T/F 1526 23-09-2010 13:00:00 22.3 C 10.7 g/m*3 22.3 C 0 km/h
1527 23-09-2010 14:00:00 24.06 C 10.22 g/m*3 24.06 C 0 km/h
1528 23-09-2010 15:00:00 25.04 C 9.37 g/m*3 25.04 C 0 km/h
1529 23-09-2010 16:00:00 25.14 C 9.88 g/m*3 25.14 C 0 km/h
1530 23-09-2010 17:00:00 23.48 C 10.73 g/m*3 23.48 C 0 km/h
1531 23-09-2010 18:00:00 22.12 C 10.63 g/m*3 22.12 C 0 km/h
1532 23-09-2010 19:00:00 19.9 C 11.06 g/m*3 19.9 C 0 km/h
1533 23-09-2010 20:00:00 18.5 C 11.3 g/m*3 18.5 C 0 km/h
1534 23-09-2010 21:00:00 18.5 C 11.49 g/m*3 18.5 C 0 km/h
1535 23-09-2010 22:00:00 17.94 C 11.82 g/m*3 17.94 C 0 km/h
1536 23-09-2010 23:00:00 16.44 C 12.26 g/m*3 16.44 C 0 km/h
1537 24-09-2010 00:00:00 15.7 C 12.18 g/m*3 15.7 C 0 km/h
1538 24-09-2010 01:00:00 15.54 C 12.3 g/m*3 15.54 C 0 km/h
1539 24-09-2010 02:00:00 15.38 C 12.15 g/m*3 15.38 C 0 km/h
1540 24-09-2010 03:00:00 14.94 C 11.91 g/m*3 14.94 C 0 km/h
1541 24-09-2010 04:00:00 14.78 C 11.89 g/m*3 14.78 C 0 km/h
1542 24-09-2010 05:00:00 14.54 C 11.72 g/m*3 14.54 C 0 km/h
1543 24-09-2010 06:00:00 14.7 C 11.83 g/m*3 14.7 C 0 km/h
1544 24-09-2010 07:00:00 14.4 C 11.62 g/m*3 14.4 C 0 km/h
1545 24-09-2010 08:00:00 14.58 C 11.82 g/m*3 14.58 C 0 km/h
1546 24-09-2010 09:00:00 14.88 C 12.07 g/m*3 14.88 C 0 km/h
1547 24-09-2010 10:00:00 14.98 C 12.06 g/m*3 14.98 C 0 km/h
1548 24-09-2010 11:00:00 15.22 C 12.22 g/m*3 15.22 C 0 km/h
1549 24-09-2010 12:00:00 15.14 C 12.18 g/m*3 15.14 C 0 km/h
1550 24-09-2010 13:00:00 14.56 C 11.73 g/m*3 14.56 C 0 km/h
Sensor: Nr:Datum:Temp:Abs-Feuchte:Windchill:Wind:
Aussen-T/F 1551 24-09-2010 14:00:00 13.54 C 11.02 g/m*3 13.54 C 0 km/h
1552 24-09-2010 15:00:00 13.08 C 10.8 g/m*3 13.08 C 0 km/h
1553 24-09-2010 16:00:00 13.8 C 11.32 g/m*3 13.8 C 0 km/h
1554 24-09-2010 17:00:00 13.48 C 11.03 g/m*3 13.48 C 0 km/h
1555 24-09-2010 18:00:00 13.26 C 10.83 g/m*3 13.26 C 0 km/h
1556 24-09-2010 19:00:00 12.84 C 10.64 g/m*3 12.84 C 0 km/h
1557 24-09-2010 20:00:00 12.7 C 10.58 g/m*3 12.7 C 0 km/h
1558 24-09-2010 21:00:00 12.82 C 10.65 g/m*3 12.82 C 0 km/h
1559 24-09-2010 22:00:00 12.7 C 10.58 g/m*3 12.7 C 0 km/h
1560 24-09-2010 23:00:00 12.4 C 10.38 g/m*3 12.4 C 0 km/h
1561 25-09-2010 00:00:00 12.48 C 10.43 g/m*3 12.48 C 0 km/h
1562 25-09-2010 01:00:00 12.52 C 10.46 g/m*3 12.52 C 0 km/h
1563 25-09-2010 02:00:00 12.6 C 10.51 g/m*3 12.6 C 0 km/h
1564 25-09-2010 03:00:00 12.62 C 10.52 g/m*3 12.62 C 0 km/h
1565 25-09-2010 04:00:00 12.54 C 10.47 g/m*3 12.54 C 0 km/h
1566 25-09-2010 05:00:00 12.38 C 10.35 g/m*3 12.38 C 0 km/h
1567 25-09-2010 06:00:00 12.06 C 10.06 g/m*3 12.06 C 0 km/h
1568 25-09-2010 07:00:00 11.88 C 9.94 g/m*3 11.88 C 0 km/h
1569 25-09-2010 08:00:00 11.26 C 9.5 g/m*3 11.26 C 0 km/h
1570 25-09-2010 09:00:00 10.48 C 8.81 g/m*3 10.48 C 0 km/h
1571 25-09-2010 10:00:00 11.04 C 8.25 g/m*3 11.04 C 0 km/h
1572 25-09-2010 11:00:00 12.3 C 7.45 g/m*3 12.3 C 0 km/h
1573 25-09-2010 12:00:00 12.44 C 6.9 g/m*3 12.44 C 0 km/h
1574 25-09-2010 13:00:00 13.26 C 6.04 g/m*3 13.26 C 0 km/h
1575 25-09-2010 14:00:00 14.24 C 5.36 g/m*3 14.24 C 0 km/h
Sensor: Nr:Datum:Temp:Abs-Feuchte:Windchill:Wind:
Aussen-T/F 1576 25-09-2010 15:00:00 15.04 C 4.68 g/m*3 15.04 C 0 km/h
1577 25-09-2010 16:00:00 14.72 C 4.97 g/m*3 14.72 C 0 km/h
1578 25-09-2010 17:00:00 15.6 C 5.08 g/m*3 15.6 C 0 km/h
1579 25-09-2010 18:00:00 14.22 C 5.06 g/m*3 14.22 C 0 km/h
1580 25-09-2010 19:00:00 12.98 C 5.75 g/m*3 12.98 C 0 km/h
1581 25-09-2010 20:00:00 11.7 C 5.88 g/m*3 11.7 C 0 km/h
1582 25-09-2010 21:00:00 10.12 C 6.31 g/m*3 10.12 C 0 km/h
1583 25-09-2010 22:00:00 10.28 C 6.68 g/m*3 10.28 C 0 km/h
1584 25-09-2010 23:00:00 9.28 C 7.4 g/m*3 9.28 C 0 km/h
1585 26-09-2010 00:00:00 9.44 C 7.76 g/m*3 9.44 C 0 km/h
1586 26-09-2010 01:00:00 9.48 C 7.24 g/m*3 9.48 C 0 km/h
1587 26-09-2010 02:00:00 9.42 C 7.05 g/m*3 9.42 C 0 km/h
1588 26-09-2010 03:00:00 9.2 C 7.07 g/m*3 9.2 C 0 km/h
1589 26-09-2010 04:00:00 8.88 C 7.28 g/m*3 8.88 C 0 km/h
1590 26-09-2010 05:00:00 9.02 C 7.33 g/m*3 9.02 C 0 km/h
1591 26-09-2010 06:00:00 8.9 C 7.38 g/m*3 8.9 C 0 km/h
1592 26-09-2010 07:00:00 8.8 C 7.45 g/m*3 8.8 C 0 km/h
1593 26-09-2010 08:00:00 9.62 C 7.3 g/m*3 9.62 C 0 km/h
1594 26-09-2010 09:00:00 10.26 C 7.18 g/m*3 10.26 C 0 km/h
1595 26-09-2010 10:00:00 11.84 C 6.75 g/m*3 11.84 C 0 km/h
1596 26-09-2010 11:00:00 13.22 C 6.44 g/m*3 13.22 C 0 km/h
1597 26-09-2010 12:00:00 14.48 C 6.39 g/m*3 14.48 C 0 km/h
1598 26-09-2010 13:00:00 13 C 7.58 g/m*3 13 C 0 km/h
1599 26-09-2010 14:00:00 13.3 C 8.3 g/m*3 13.3 C 0 km/h
1600 26-09-2010 15:00:00 14.18 C 8.12 g/m*3 14.18 C 0 km/h
Sensor: Nr:Datum:Temp:Abs-Feuchte:Windchill:Wind:
Aussen-T/F 1601 26-09-2010 16:00:00 14.92 C 7.04 g/m*3 14.92 C 0 km/h
1602 26-09-2010 17:00:00 15.18 C 6.61 g/m*3 15.18 C 0 km/h
1603 26-09-2010 18:00:00 12.96 C 6.95 g/m*3 12.96 C 0 km/h
1604 26-09-2010 19:00:00 12.24 C 7.1 g/m*3 12.24 C 0 km/h
1605 26-09-2010 20:00:00 11.78 C 7.21 g/m*3 11.78 C 0 km/h
1606 26-09-2010 21:00:00 11.16 C 7.12 g/m*3 11.16 C 0 km/h
1607 26-09-2010 22:00:00 9.7 C 7.06 g/m*3 9.7 C 0 km/h
1608 26-09-2010 23:00:00 8.84 C 7.17 g/m*3 8.84 C 0 km/h
1609 27-09-2010 00:00:00 8.12 C 7.07 g/m*3 8.12 C 0 km/h
1610 27-09-2010 01:00:00 7.46 C 7.04 g/m*3 7.46 C 0 km/h
1611 27-09-2010 02:00:00 6.84 C 6.86 g/m*3 6.84 C 0 km/h
1612 27-09-2010 03:00:00 6.46 C 6.75 g/m*3 6.46 C 0 km/h
1613 27-09-2010 04:00:00 6.24 C 6.8 g/m*3 6.24 C 0 km/h
1614 27-09-2010 05:00:00 6.24 C 6.83 g/m*3 6.24 C 0 km/h
1615 27-09-2010 06:00:00 6.32 C 6.89 g/m*3 6.32 C 0 km/h
1616 27-09-2010 07:00:00 6.74 C 7.13 g/m*3 6.74 C 0 km/h
1617 27-09-2010 08:00:00 7.7 C 7.61 g/m*3 7.7 C 0 km/h
1618 27-09-2010 09:00:00 9.24 C 8.2 g/m*3 9.24 C 0 km/h
1619 27-09-2010 10:00:00 10.76 C 7.57 g/m*3 10.76 C 0 km/h
1620 27-09-2010 11:00:00 11.98 C 6.79 g/m*3 11.98 C 0 km/h
1621 27-09-2010 12:00:00 12.78 C 6.82 g/m*3 12.78 C 0 km/h
1622 27-09-2010 13:00:00 13.48 C 6.73 g/m*3 13.48 C 0 km/h
1623 27-09-2010 14:00:00 13.26 C 6.66 g/m*3 13.26 C 0 km/h
1624 27-09-2010 15:00:00 13.4 C 6.65 g/m*3 13.4 C 0 km/h
1625 27-09-2010 16:00:00 13.38 C 7.2 g/m*3 13.38 C 0 km/h
Sensor: Nr:Datum:Temp:Abs-Feuchte:Windchill:Wind:
Aussen-T/F 1626 27-09-2010 17:00:00 12.9 C 7.69 g/m*3 12.9 C 0 km/h
1627 27-09-2010 18:00:00 11.94 C 7.73 g/m*3 11.94 C 0 km/h
1628 27-09-2010 19:00:00 10.58 C 8.13 g/m*3 10.58 C 0 km/h
1629 27-09-2010 20:00:00 10.3 C 8.39 g/m*3 10.3 C 0 km/h
1630 27-09-2010 21:00:00 10.34 C 8.55 g/m*3 10.34 C 0 km/h
1631 27-09-2010 22:00:00 10.3 C 8.6 g/m*3 10.3 C 0 km/h
1632 27-09-2010 23:00:00 10.16 C 8.64 g/m*3 10.16 C 0 km/h
1633 28-09-2010 00:00:00 10 C 8.68 g/m*3 10 C 0 km/h
1634 28-09-2010 01:00:00 9.98 C 8.75 g/m*3 9.98 C 0 km/h
1635 28-09-2010 02:00:00 9.9 C 8.78 g/m*3 9.9 C 0 km/h
1636 28-09-2010 03:00:00 9.9 C 8.87 g/m*3 9.9 C 0 km/h
1637 28-09-2010 04:00:00 9.92 C 8.86 g/m*3 9.92 C 0 km/h
1638 28-09-2010 05:00:00 10 C 8.93 g/m*3 10 C 0 km/h
1639 28-09-2010 06:00:00 10.08 C 8.97 g/m*3 10.08 C 0 km/h
1640 28-09-2010 07:00:00 10 C 8.93 g/m*3 10 C 0 km/h
1641 28-09-2010 08:00:00 10.04 C 8.95 g/m*3 10.04 C 0 km/h
1642 28-09-2010 09:00:00 10.24 C 9.06 g/m*3 10.24 C 0 km/h
1643 28-09-2010 10:00:00 10.58 C 9.26 g/m*3 10.58 C 0 km/h
1644 28-09-2010 11:00:00 11.18 C 9.62 g/m*3 11.18 C 0 km/h
1645 28-09-2010 12:00:00 11.48 C 9.72 g/m*3 11.48 C 0 km/h
1646 28-09-2010 13:00:00 11.74 C 9.71 g/m*3 11.74 C 0 km/h
1647 28-09-2010 14:00:00 11.76 C 9.66 g/m*3 11.76 C 0 km/h
1648 28-09-2010 15:00:00 11.74 C 9.73 g/m*3 11.74 C 0 km/h
1649 28-09-2010 16:00:00 11.84 C 9.85 g/m*3 11.84 C 0 km/h
1650 28-09-2010 17:00:00 11.98 C 10.01 g/m*3 11.98 C 0 km/h
Sensor: Nr:Datum:Temp:Abs-Feuchte:Windchill:Wind:
Aussen-T/F 1651 28-09-2010 18:00:00 11.86 C 9.99 g/m*3 11.86 C 0 km/h
1652 28-09-2010 19:00:00 11.72 C 9.95 g/m*3 11.72 C 0 km/h
1653 28-09-2010 20:00:00 11.6 C 9.87 g/m*3 11.6 C 0 km/h
1654 28-09-2010 21:00:00 11.58 C 9.86 g/m*3 11.58 C 0 km/h
1655 28-09-2010 22:00:00 11.62 C 9.89 g/m*3 11.62 C 0 km/h
1656 28-09-2010 23:00:00 11.6 C 9.87 g/m*3 11.6 C 0 km/h
1657 29-09-2010 00:00:00 11.64 C 9.9 g/m*3 11.64 C 0 km/h
1658 29-09-2010 01:00:00 11.62 C 9.89 g/m*3 11.62 C 0 km/h
1659 29-09-2010 02:00:00 11.56 C 9.85 g/m*3 11.56 C 0 km/h
1660 29-09-2010 03:00:00 11.48 C 9.8 g/m*3 11.48 C 0 km/h
1661 29-09-2010 04:00:00 11.48 C 9.8 g/m*3 11.48 C 0 km/h
1662 29-09-2010 05:00:00 11.4 C 9.75 g/m*3 11.4 C 0 km/h
1663 29-09-2010 06:00:00 11.52 C 9.82 g/m*3 11.52 C 0 km/h
1664 29-09-2010 07:00:00 11.04 C 9.53 g/m*3 11.04 C 0 km/h
1665 29-09-2010 08:00:00 11.18 C 9.62 g/m*3 11.18 C 0 km/h
1666 29-09-2010 09:00:00 11.44 C 9.57 g/m*3 11.44 C 0 km/h
1667 29-09-2010 10:00:00 12.92 C 8.98 g/m*3 12.92 C 0 km/h
1668 29-09-2010 11:00:00 13.96 C 8.42 g/m*3 13.96 C 0 km/h
1669 29-09-2010 12:00:00 14.4 C 8.03 g/m*3 14.4 C 0 km/h
1670 29-09-2010 13:00:00 15.74 C 7.89 g/m*3 15.74 C 0 km/h
1671 29-09-2010 14:00:00 16.82 C 7.64 g/m*3 16.82 C 0 km/h
1672 29-09-2010 15:00:00 19.16 C 6.88 g/m*3 19.16 C 0 km/h
1673 29-09-2010 16:00:00 18.14 C 7.62 g/m*3 18.14 C 0 km/h
1674 29-09-2010 17:00:00 18.3 C 7.54 g/m*3 18.3 C 0 km/h
1675 29-09-2010 18:00:00 14.62 C 7.84 g/m*3 14.62 C 0 km/h
Sensor: Nr:Datum:Temp:Abs-Feuchte:Windchill:Wind:
Aussen-T/F 1676 29-09-2010 19:00:00 13.08 C 7.68 g/m*3 13.08 C 0 km/h
1677 29-09-2010 20:00:00 13.12 C 7.7 g/m*3 13.12 C 0 km/h
1678 29-09-2010 21:00:00 12.5 C 7.94 g/m*3 12.5 C 0 km/h
1679 29-09-2010 22:00:00 12.38 C 8.36 g/m*3 12.38 C 0 km/h
1680 29-09-2010 23:00:00 11.96 C 8.33 g/m*3 11.96 C 0 km/h
1681 30-09-2010 00:00:00 12.16 C 8.44 g/m*3 12.16 C 0 km/h
1682 30-09-2010 01:00:00 11.86 C 7.75 g/m*3 11.86 C 0 km/h
1683 30-09-2010 02:00:00 11.46 C 7.62 g/m*3 11.46 C 0 km/h
1684 30-09-2010 03:00:00 11.16 C 7.87 g/m*3 11.16 C 0 km/h
1685 30-09-2010 04:00:00 11.02 C 7.88 g/m*3 11.02 C 0 km/h
1686 30-09-2010 05:00:00 10.76 C 7.79 g/m*3 10.76 C 0 km/h
1687 30-09-2010 06:00:00 10.7 C 7.33 g/m*3 10.7 C 0 km/h
1688 30-09-2010 07:00:00 10.66 C 7.66 g/m*3 10.66 C 0 km/h
1689 30-09-2010 08:00:00 10.9 C 7.76 g/m*3 10.9 C 0 km/h
1690 30-09-2010 09:00:00 11.4 C 7.86 g/m*3 11.4 C 0 km/h
1691 30-09-2010 10:00:00 11.64 C 8.27 g/m*3 11.64 C 0 km/h
1692 30-09-2010 11:00:00 11.86 C 8.47 g/m*3 11.86 C 0 km/h
1693 30-09-2010 12:00:00 11.98 C 8.94 g/m*3 11.98 C 0 km/h
1694 30-09-2010 13:00:00 12.58 C 9.55 g/m*3 12.58 C 0 km/h
1695 30-09-2010 14:00:00 12.94 C 9.9 g/m*3 12.94 C 0 km/h
1696 30-09-2010 15:00:00 13.26 C 10.12 g/m*3 13.26 C 0 km/h
1697 30-09-2010 16:00:00 13.4 C 10.16 g/m*3 13.4 C 0 km/h
1698 30-09-2010 17:00:00 12.96 C 9.98 g/m*3 12.96 C 0 km/h
1699 30-09-2010 18:00:00 12.48 C 9.82 g/m*3 12.48 C 0 km/h
1700 30-09-2010 19:00:00 12.14 C 9.78 g/m*3 12.14 C 0 km/h
Sensor: Nr:Datum:Temp:Abs-Feuchte:Windchill:Wind:
Aussen-T/F 1701 30-09-2010 20:00:00 12.16 C 9.92 g/m*3 12.16 C 0 km/h
1702 30-09-2010 21:00:00 12.08 C 9.96 g/m*3 12.08 C 0 km/h
1703 30-09-2010 22:00:00 11.96 C 9.93 g/m*3 11.96 C 0 km/h
1704 30-09-2010 23:00:00 12 C 10 g/m*3 12 C 0 km/h
1705 01-10-2010 00:00:00 12.02 C 10.05 g/m*3 12.02 C 0 km/h
1706 01-10-2010 01:00:00 11.58 C 9.86 g/m*3 11.58 C 0 km/h
1707 01-10-2010 02:00:00 11.44 C 9.78 g/m*3 11.44 C 0 km/h
1708 01-10-2010 03:00:00 11.56 C 9.85 g/m*3 11.56 C 0 km/h
1709 01-10-2010 04:00:00 11.7 C 9.94 g/m*3 11.7 C 0 km/h
1710 01-10-2010 05:00:00 11.62 C 9.89 g/m*3 11.62 C 0 km/h
1711 01-10-2010 06:00:00 11.4 C 9.75 g/m*3 11.4 C 0 km/h
1712 01-10-2010 07:00:00 11 C 9.51 g/m*3 11 C 0 km/h
1713 01-10-2010 08:00:00 10.3 C 9.1 g/m*3 10.3 C 0 km/h
1714 01-10-2010 09:00:00 11.24 C 9.65 g/m*3 11.24 C 0 km/h
1715 01-10-2010 10:00:00 11.72 C 9.63 g/m*3 11.72 C 0 km/h
1716 01-10-2010 11:00:00 12.46 C 8.84 g/m*3 12.46 C 0 km/h
1717 01-10-2010 12:00:00 12.68 C 8.49 g/m*3 12.68 C 0 km/h
1718 01-10-2010 13:00:00 13.18 C 8.12 g/m*3 13.18 C 0 km/h
1719 01-10-2010 14:00:00 13.32 C 7.94 g/m*3 13.32 C 0 km/h
1720 01-10-2010 15:00:00 15.3 C 7.78 g/m*3 15.3 C 0 km/h
1721 01-10-2010 16:00:00 16.74 C 7.61 g/m*3 16.74 C 0 km/h
1722 01-10-2010 17:00:00 16.14 C 8.35 g/m*3 16.14 C 0 km/h
1723 01-10-2010 18:00:00 14.34 C 8.79 g/m*3 14.34 C 0 km/h
1724 01-10-2010 19:00:00 12.18 C 8.56 g/m*3 12.18 C 0 km/h
1725 01-10-2010 20:00:00 11.26 C 8.51 g/m*3 11.26 C 0 km/h
Sensor: Nr:Datum:Temp:Abs-Feuchte:Windchill:Wind:
Aussen-T/F 1726 01-10-2010 21:00:00 10.86 C 8.53 g/m*3 10.86 C 0 km/h
1727 01-10-2010 22:00:00 10.98 C 8.76 g/m*3 10.98 C 0 km/h
1728 01-10-2010 23:00:00 11.06 C 8.74 g/m*3 11.06 C 0 km/h
1729 02-10-2010 00:00:00 11.12 C 8.71 g/m*3 11.12 C 0 km/h
1730 02-10-2010 01:00:00 10.92 C 8.74 g/m*3 10.92 C 0 km/h
1731 02-10-2010 02:00:00 10.96 C 8.97 g/m*3 10.96 C 0 km/h
1732 02-10-2010 03:00:00 11.1 C 9.15 g/m*3 11.1 C 0 km/h
1733 02-10-2010 04:00:00 11.08 C 9.26 g/m*3 11.08 C 0 km/h
1734 02-10-2010 05:00:00 10.98 C 9.3 g/m*3 10.98 C 0 km/h
1735 02-10-2010 06:00:00 11 C 9.39 g/m*3 11 C 0 km/h
1736 02-10-2010 07:00:00 11.14 C 9.55 g/m*3 11.14 C 0 km/h
1737 02-10-2010 08:00:00 11.46 C 9.79 g/m*3 11.46 C 0 km/h
1738 02-10-2010 09:00:00 12 C 10.12 g/m*3 12 C 0 km/h
1739 02-10-2010 10:00:00 13.14 C 10.75 g/m*3 13.14 C 0 km/h
1740 02-10-2010 11:00:00 14.32 C 11.27 g/m*3 14.32 C 0 km/h
1741 02-10-2010 12:00:00 15.04 C 11.52 g/m*3 15.04 C 0 km/h
1742 02-10-2010 13:00:00 15.74 C 11.53 g/m*3 15.74 C 0 km/h
1743 02-10-2010 14:00:00 15.64 C 11.41 g/m*3 15.64 C 0 km/h
1744 02-10-2010 15:00:00 16 C 11.47 g/m*3 16 C 0 km/h
1745 02-10-2010 16:00:00 16.24 C 11.09 g/m*3 16.24 C 0 km/h
1746 02-10-2010 17:00:00 16.28 C 10.92 g/m*3 16.28 C 0 km/h
1747 02-10-2010 18:00:00 15.42 C 10.92 g/m*3 15.42 C 0 km/h
1748 02-10-2010 19:00:00 14.94 C 10.94 g/m*3 14.94 C 0 km/h
1749 02-10-2010 20:00:00 14.8 C 11.1 g/m*3 14.8 C 0 km/h
1750 02-10-2010 21:00:00 14.5 C 11.02 g/m*3 14.5 C 0 km/h
Sensor: Nr:Datum:Temp:Abs-Feuchte:Windchill:Wind:
Aussen-T/F 1751 02-10-2010 22:00:00 14.48 C 11.16 g/m*3 14.48 C 0 km/h
1752 02-10-2010 23:00:00 14.56 C 11.13 g/m*3 14.56 C 0 km/h
1753 03-10-2010 00:00:00 14.44 C 11.08 g/m*3 14.44 C 0 km/h
1754 03-10-2010 01:00:00 14.7 C 10.7 g/m*3 14.7 C 0 km/h
1755 03-10-2010 02:00:00 14.58 C 10.32 g/m*3 14.58 C 0 km/h
1756 03-10-2010 03:00:00 13.92 C 10.59 g/m*3 13.92 C 0 km/h
1757 03-10-2010 04:00:00 14.08 C 10.62 g/m*3 14.08 C 0 km/h
1758 03-10-2010 05:00:00 14.26 C 10.34 g/m*3 14.26 C 0 km/h
1759 03-10-2010 06:00:00 13.46 C 10.24 g/m*3 13.46 C 0 km/h
1760 03-10-2010 07:00:00 13.42 C 10.43 g/m*3 13.42 C 0 km/h
1761 03-10-2010 08:00:00 13.98 C 10.41 g/m*3 13.98 C 0 km/h
1762 03-10-2010 09:00:00 15.12 C 10.08 g/m*3 15.12 C 0 km/h
1763 03-10-2010 10:00:00 16.78 C 9.91 g/m*3 16.78 C 0 km/h
1764 03-10-2010 11:00:00 18.14 C 10.13 g/m*3 18.14 C 0 km/h
1765 03-10-2010 12:00:00 19.68 C 9.74 g/m*3 19.68 C 0 km/h
1766 03-10-2010 13:00:00 21.36 C 9.43 g/m*3 21.36 C 0 km/h
1767 03-10-2010 14:00:00 23.34 C 9.09 g/m*3 23.34 C 0 km/h
1768 03-10-2010 15:00:00 24.72 C 8.61 g/m*3 24.72 C 0 km/h
1769 03-10-2010 16:00:00 25.12 C 8.67 g/m*3 25.12 C 0 km/h
1770 03-10-2010 17:00:00 25.22 C 9.37 g/m*3 25.22 C 0 km/h
1771 03-10-2010 18:00:00 21.54 C 10.55 g/m*3 21.54 C 0 km/h
1772 03-10-2010 19:00:00 18.78 C 10.84 g/m*3 18.78 C 0 km/h
1773 03-10-2010 20:00:00 18.34 C 10.88 g/m*3 18.34 C 0 km/h
1774 03-10-2010 21:00:00 17.96 C 11.03 g/m*3 17.96 C 0 km/h
1775 03-10-2010 22:00:00 17.56 C 10.86 g/m*3 17.56 C 0 km/h
Sensor: Nr:Datum:Temp:Abs-Feuchte:Windchill:Wind:
Aussen-T/F 1776 03-10-2010 23:00:00 17.56 C 10.32 g/m*3 17.56 C 0 km/h
1777 04-10-2010 00:00:00 17.28 C 9.86 g/m*3 17.28 C 0 km/h
1778 04-10-2010 01:00:00 17.18 C 9.59 g/m*3 17.18 C 0 km/h
1779 04-10-2010 02:00:00 16.82 C 9.65 g/m*3 16.82 C 0 km/h
1780 04-10-2010 03:00:00 15.76 C 9.96 g/m*3 15.76 C 0 km/h
1781 04-10-2010 04:00:00 15.1 C 9.99 g/m*3 15.1 C 0 km/h
1782 04-10-2010 05:00:00 14.3 C 9.95 g/m*3 14.3 C 0 km/h
1783 04-10-2010 06:00:00 13.92 C 9.94 g/m*3 13.92 C 0 km/h
1784 04-10-2010 07:00:00 13.62 C 9.83 g/m*3 13.62 C 0 km/h
1785 04-10-2010 08:00:00 14.26 C 9.8 g/m*3 14.26 C 0 km/h
1786 04-10-2010 09:00:00 15 C 9.23 g/m*3 15 C 0 km/h
1787 04-10-2010 10:00:00 15.66 C 8.97 g/m*3 15.66 C 0 km/h
1788 04-10-2010 11:00:00 17.62 C 8.92 g/m*3 17.62 C 0 km/h
1789 04-10-2010 12:00:00 17.84 C 8.76 g/m*3 17.84 C 0 km/h
1790 04-10-2010 13:00:00 18.72 C 8.62 g/m*3 18.72 C 0 km/h
1791 04-10-2010 14:00:00 19.76 C 8.72 g/m*3 19.76 C 0 km/h
1792 04-10-2010 15:00:00 22.5 C 8.63 g/m*3 22.5 C 0 km/h
1793 04-10-2010 16:00:00 23.64 C 8.23 g/m*3 23.64 C 0 km/h
1794 04-10-2010 17:00:00 21.14 C 9.16 g/m*3 21.14 C 0 km/h
1795 04-10-2010 18:00:00 18.68 C 9.66 g/m*3 18.68 C 0 km/h
1796 04-10-2010 19:00:00 16.52 C 10.09 g/m*3 16.52 C 0 km/h
1797 04-10-2010 20:00:00 16.22 C 10.02 g/m*3 16.22 C 0 km/h
1798 04-10-2010 21:00:00 15.42 C 9.94 g/m*3 15.42 C 0 km/h
1799 04-10-2010 22:00:00 14.56 C 9.91 g/m*3 14.56 C 0 km/h
1800 04-10-2010 23:00:00 14.2 C 9.92 g/m*3 14.2 C 0 km/h
Sensor: Nr:Datum:Temp:Abs-Feuchte:Windchill:Wind:
Aussen-T/F 1801 05-10-2010 00:00:00 14.2 C 10.01 g/m*3 14.2 C 0 km/h
1802 05-10-2010 01:00:00 13.94 C 9.9 g/m*3 13.94 C 0 km/h
1803 05-10-2010 02:00:00 13.52 C 9.84 g/m*3 13.52 C 0 km/h
1804 05-10-2010 03:00:00 13.6 C 10 g/m*3 13.6 C 0 km/h
1805 05-10-2010 04:00:00 13.6 C 10.1 g/m*3 13.6 C 0 km/h
1806 05-10-2010 05:00:00 13.6 C 10.14 g/m*3 13.6 C 0 km/h
1807 05-10-2010 06:00:00 13.42 C 10.38 g/m*3 13.42 C 0 km/h
1808 05-10-2010 07:00:00 13.4 C 10.56 g/m*3 13.4 C 0 km/h
1809 05-10-2010 08:00:00 13.14 C 10.41 g/m*3 13.14 C 0 km/h
1810 05-10-2010 09:00:00 13.3 C 10.68 g/m*3 13.3 C 0 km/h
1811 05-10-2010 10:00:00 14.8 C 11.81 g/m*3 14.8 C 0 km/h
1812 05-10-2010 11:00:00 17.48 C 13.01 g/m*3 17.48 C 0 km/h
1813 05-10-2010 12:00:00 18.1 C 11.43 g/m*3 18.1 C 0 km/h
1814 05-10-2010 13:00:00 19.18 C 11.23 g/m*3 19.18 C 0 km/h
1815 05-10-2010 14:00:00 19.26 C 10.95 g/m*3 19.26 C 0 km/h
1816 05-10-2010 15:00:00 18.8 C 12.63 g/m*3 18.8 C 0 km/h
1817 05-10-2010 16:00:00 18.5 C 12.47 g/m*3 18.5 C 0 km/h
1818 05-10-2010 17:00:00 17.1 C 11.67 g/m*3 17.1 C 0 km/h
1819 05-10-2010 18:00:00 17.02 C 11.44 g/m*3 17.02 C 0 km/h
1820 05-10-2010 19:00:00 16.66 C 11.31 g/m*3 16.66 C 0 km/h
1821 05-10-2010 20:00:00 16.36 C 10.94 g/m*3 16.36 C 0 km/h
1822 05-10-2010 21:00:00 15.68 C 10.26 g/m*3 15.68 C 0 km/h
1823 05-10-2010 22:00:00 15.3 C 9.98 g/m*3 15.3 C 0 km/h
1824 05-10-2010 23:00:00 15.6 C 9.97 g/m*3 15.6 C 0 km/h
1825 06-10-2010 00:00:00 15.6 C 9.97 g/m*3 15.6 C 0 km/h
Sensor: Nr:Datum:Temp:Abs-Feuchte:Windchill:Wind:
Aussen-T/F 1826 06-10-2010 01:00:00 15.5 C 9.99 g/m*3 15.5 C 0 km/h
1827 06-10-2010 02:00:00 15.44 C 10.17 g/m*3 15.44 C 0 km/h
1828 06-10-2010 03:00:00 15.28 C 10.1 g/m*3 15.28 C 0 km/h
1829 06-10-2010 04:00:00 15.1 C 10.09 g/m*3 15.1 C 0 km/h
1830 06-10-2010 05:00:00 14.92 C 10.26 g/m*3 14.92 C 0 km/h
1831 06-10-2010 06:00:00 14.82 C 10.1 g/m*3 14.82 C 0 km/h
1832 06-10-2010 07:00:00 14.66 C 9.95 g/m*3 14.66 C 0 km/h
1833 06-10-2010 08:00:00 14.52 C 10.19 g/m*3 14.52 C 0 km/h
1834 06-10-2010 09:00:00 15.54 C 10.12 g/m*3 15.54 C 0 km/h
1835 06-10-2010 10:00:00 16.24 C 9.93 g/m*3 16.24 C 0 km/h
1836 06-10-2010 11:00:00 17.76 C 9.27 g/m*3 17.76 C 0 km/h
1837 06-10-2010 12:00:00 19.04 C 8.69 g/m*3 19.04 C 0 km/h
1838 06-10-2010 13:00:00 20.2 C 8.5 g/m*3 20.2 C 0 km/h
1839 06-10-2010 14:00:00 21.62 C 8.24 g/m*3 21.62 C 0 km/h
1840 06-10-2010 15:00:00 23.06 C 8.25 g/m*3 23.06 C 0 km/h
1841 06-10-2010 16:00:00 22.84 C 8.96 g/m*3 22.84 C 0 km/h
1842 06-10-2010 17:00:00 21.08 C 10.16 g/m*3 21.08 C 0 km/h
1843 06-10-2010 18:00:00 18.94 C 10.23 g/m*3 18.94 C 0 km/h
1844 06-10-2010 19:00:00 17.3 C 10.19 g/m*3 17.3 C 0 km/h
1845 06-10-2010 20:00:00 16.9 C 10.13 g/m*3 16.9 C 0 km/h
1846 06-10-2010 21:00:00 16.36 C 10.42 g/m*3 16.36 C 0 km/h
1847 06-10-2010 22:00:00 15.74 C 10.52 g/m*3 15.74 C 0 km/h
1848 06-10-2010 23:00:00 14.9 C 10.32 g/m*3 14.9 C 0 km/h
1849 07-10-2010 00:00:00 14.22 C 10.17 g/m*3 14.22 C 0 km/h
1850 07-10-2010 01:00:00 14.24 C 10.5 g/m*3 14.24 C 0 km/h
Sensor: Nr:Datum:Temp:Abs-Feuchte:Windchill:Wind:
Aussen-T/F 1851 07-10-2010 02:00:00 14.24 C 10.43 g/m*3 14.24 C 0 km/h
1852 07-10-2010 03:00:00 14.08 C 10.35 g/m*3 14.08 C 0 km/h
1853 07-10-2010 04:00:00 13.82 C 10.31 g/m*3 13.82 C 0 km/h
1854 07-10-2010 05:00:00 13.3 C 10.17 g/m*3 13.3 C 0 km/h
1855 07-10-2010 06:00:00 13.84 C 10.51 g/m*3 13.84 C 0 km/h
1856 07-10-2010 07:00:00 14.12 C 10.6 g/m*3 14.12 C 0 km/h
1857 07-10-2010 08:00:00 14.66 C 10.9 g/m*3 14.66 C 0 km/h
1858 07-10-2010 09:00:00 15.06 C 10.6 g/m*3 15.06 C 0 km/h
1859 07-10-2010 10:00:00 16.18 C 10.33 g/m*3 16.18 C 0 km/h
1860 07-10-2010 11:00:00 17.26 C 10.32 g/m*3 17.26 C 0 km/h
1861 07-10-2010 12:00:00 18.4 C 9.97 g/m*3 18.4 C 0 km/h
1862 07-10-2010 13:00:00 19.26 C 9.83 g/m*3 19.26 C 0 km/h
1863 07-10-2010 14:00:00 19.88 C 9.78 g/m*3 19.88 C 0 km/h
1864 07-10-2010 15:00:00 20.5 C 9.5 g/m*3 20.5 C 0 km/h
1865 07-10-2010 16:00:00 19.94 C 9.47 g/m*3 19.94 C 0 km/h
1866 07-10-2010 17:00:00 19.16 C 9.57 g/m*3 19.16 C 0 km/h
1867 07-10-2010 18:00:00 17.88 C 10.22 g/m*3 17.88 C 0 km/h
1868 07-10-2010 19:00:00 16.9 C 10.38 g/m*3 16.9 C 0 km/h
1869 07-10-2010 20:00:00 16.3 C 10.35 g/m*3 16.3 C 0 km/h
1870 07-10-2010 21:00:00 16.22 C 10.13 g/m*3 16.22 C 0 km/h
1871 07-10-2010 22:00:00 16 C 9.86 g/m*3 16 C 0 km/h
1872 07-10-2010 23:00:00 16.02 C 9.74 g/m*3 16.02 C 0 km/h
1873 08-10-2010 00:00:00 15.82 C 9.89 g/m*3 15.82 C 0 km/h
1874 08-10-2010 01:00:00 15.62 C 9.67 g/m*3 15.62 C 0 km/h
1875 08-10-2010 02:00:00 15.44 C 9.35 g/m*3 15.44 C 0 km/h
Sensor: Nr:Datum:Temp:Abs-Feuchte:Windchill:Wind:
Aussen-T/F 1876 08-10-2010 03:00:00 14.92 C 8.75 g/m*3 14.92 C 0 km/h
1877 08-10-2010 04:00:00 14.52 C 8.57 g/m*3 14.52 C 0 km/h
1878 08-10-2010 05:00:00 14.24 C 8.81 g/m*3 14.24 C 0 km/h
1879 08-10-2010 06:00:00 13.98 C 8.96 g/m*3 13.98 C 0 km/h
1880 08-10-2010 07:00:00 14.02 C 9.13 g/m*3 14.02 C 0 km/h
1881 08-10-2010 08:00:00 14.2 C 9.23 g/m*3 14.2 C 0 km/h
1882 08-10-2010 09:00:00 14.6 C 9.41 g/m*3 14.6 C 0 km/h
1883 08-10-2010 10:00:00 15.28 C 9.47 g/m*3 15.28 C 0 km/h
1884 08-10-2010 11:00:00 15.86 C 9.29 g/m*3 15.86 C 0 km/h
1885 08-10-2010 12:00:00 16.54 C 9.09 g/m*3 16.54 C 0 km/h
1886 08-10-2010 13:00:00 16.94 C 8.77 g/m*3 16.94 C 0 km/h
1887 08-10-2010 14:00:00 18.76 C 8.77 g/m*3 18.76 C 0 km/h
1888 08-10-2010 15:00:00 20.32 C 8.52 g/m*3 20.32 C 0 km/h
1889 08-10-2010 16:00:00 22.2 C 8.95 g/m*3 22.2 C 0 km/h
1890 08-10-2010 17:00:00 21.78 C 9.24 g/m*3 21.78 C 0 km/h
1891 08-10-2010 18:00:00 19.06 C 9.68 g/m*3 19.06 C 0 km/h
1892 08-10-2010 19:00:00 15.88 C 9.98 g/m*3 15.88 C 0 km/h
1893 08-10-2010 20:00:00 14.78 C 9.79 g/m*3 14.78 C 0 km/h
1894 08-10-2010 21:00:00 14.08 C 9.65 g/m*3 14.08 C 0 km/h
1895 08-10-2010 22:00:00 13.28 C 9.51 g/m*3 13.28 C 0 km/h
1896 08-10-2010 23:00:00 12.58 C 9.3 g/m*3 12.58 C 0 km/h
1897 09-10-2010 00:00:00 11.9 C 9.11 g/m*3 11.9 C 0 km/h
1898 09-10-2010 01:00:00 11.34 C 8.96 g/m*3 11.34 C 0 km/h
1899 09-10-2010 02:00:00 10.74 C 8.68 g/m*3 10.74 C 0 km/h
1900 09-10-2010 03:00:00 10.24 C 8.43 g/m*3 10.24 C 0 km/h
Sensor: Nr:Datum:Temp:Abs-Feuchte:Windchill:Wind:
Aussen-T/F 1901 09-10-2010 04:00:00 9.78 C 8.32 g/m*3 9.78 C 0 km/h
1902 09-10-2010 05:00:00 9.52 C 8.29 g/m*3 9.52 C 0 km/h
1903 09-10-2010 06:00:00 9.42 C 8.31 g/m*3 9.42 C 0 km/h
1904 09-10-2010 07:00:00 9.24 C 8.24 g/m*3 9.24 C 0 km/h
1905 09-10-2010 08:00:00 9.2 C 8.22 g/m*3 9.2 C 0 km/h
1906 09-10-2010 09:00:00 9.28 C 8.24 g/m*3 9.28 C 0 km/h
1907 09-10-2010 10:00:00 10.44 C 8.87 g/m*3 10.44 C 0 km/h
1908 09-10-2010 11:00:00 12.52 C 9.53 g/m*3 12.52 C 0 km/h
1909 09-10-2010 12:00:00 14.68 C 8.2 g/m*3 14.68 C 0 km/h
1910 09-10-2010 13:00:00 17.1 C 7.89 g/m*3 17.1 C 0 km/h
1911 09-10-2010 14:00:00 19.96 C 7.03 g/m*3 19.96 C 0 km/h
1912 09-10-2010 15:00:00 21.86 C 6.28 g/m*3 21.86 C 0 km/h
1913 09-10-2010 16:00:00 22.16 C 6.23 g/m*3 22.16 C 0 km/h
1914 09-10-2010 17:00:00 20.8 C 6.19 g/m*3 20.8 C 0 km/h
1915 09-10-2010 18:00:00 17.02 C 6.26 g/m*3 17.02 C 0 km/h
1916 09-10-2010 19:00:00 13.8 C 6.12 g/m*3 13.8 C 0 km/h
1917 09-10-2010 20:00:00 12.84 C 6.58 g/m*3 12.84 C 0 km/h
1918 09-10-2010 21:00:00 11.48 C 6.99 g/m*3 11.48 C 0 km/h
1919 09-10-2010 22:00:00 10.6 C 7.03 g/m*3 10.6 C 0 km/h
1920 09-10-2010 23:00:00 9.62 C 6.92 g/m*3 9.62 C 0 km/h
1921 10-10-2010 00:00:00 8.94 C 6.99 g/m*3 8.94 C 0 km/h
1922 10-10-2010 01:00:00 8.38 C 6.93 g/m*3 8.38 C 0 km/h
1923 10-10-2010 02:00:00 7.76 C 6.82 g/m*3 7.76 C 0 km/h
1924 10-10-2010 03:00:00 7.14 C 6.66 g/m*3 7.14 C 0 km/h
1925 10-10-2010 04:00:00 6.76 C 6.61 g/m*3 6.76 C 0 km/h
Sensor: Nr:Datum:Temp:Abs-Feuchte:Windchill:Wind:
Aussen-T/F 1926 10-10-2010 05:00:00 6.28 C 6.45 g/m*3 6.28 C 0 km/h
1927 10-10-2010 06:00:00 5.86 C 6.36 g/m*3 5.86 C 0 km/h
1928 10-10-2010 07:00:00 5.5 C 6.31 g/m*3 5.5 C 0 km/h
1929 10-10-2010 08:00:00 6.36 C 6.69 g/m*3 6.36 C 0 km/h
1930 10-10-2010 09:00:00 7.26 C 6.79 g/m*3 7.26 C 0 km/h
1931 10-10-2010 10:00:00 8.92 C 6.6 g/m*3 8.92 C 0 km/h
1932 10-10-2010 11:00:00 10.92 C 6.57 g/m*3 10.92 C 0 km/h
1933 10-10-2010 12:00:00 12.8 C 6.47 g/m*3 12.8 C 0 km/h
1934 10-10-2010 13:00:00 15.86 C 5.67 g/m*3 15.86 C 0 km/h
1935 10-10-2010 14:00:00 18.62 C 5.45 g/m*3 18.62 C 0 km/h
1936 10-10-2010 15:00:00 20.4 C 5.91 g/m*3 20.4 C 0 km/h
1937 10-10-2010 16:00:00 21.28 C 5.7 g/m*3 21.28 C 0 km/h
1938 10-10-2010 17:00:00 20.64 C 5.6 g/m*3 20.64 C 0 km/h
1939 10-10-2010 18:00:00 17.2 C 5.45 g/m*3 17.2 C 0 km/h
1940 10-10-2010 19:00:00 14.18 C 5.49 g/m*3 14.18 C 0 km/h
1941 10-10-2010 20:00:00 13.02 C 4.91 g/m*3 13.02 C 0 km/h
1942 10-10-2010 21:00:00 12.44 C 4.01 g/m*3 12.44 C 0 km/h
1943 10-10-2010 22:00:00 11.46 C 4.12 g/m*3 11.46 C 0 km/h
1944 10-10-2010 23:00:00 10.72 C 4.52 g/m*3 10.72 C 0 km/h
1945 11-10-2010 00:00:00 9.98 C 4.88 g/m*3 9.98 C 0 km/h
1946 11-10-2010 01:00:00 9.44 C 4.91 g/m*3 9.44 C 0 km/h
1947 11-10-2010 02:00:00 9.08 C 4.87 g/m*3 9.08 C 0 km/h
1948 11-10-2010 03:00:00 8.24 C 4.99 g/m*3 8.24 C 0 km/h
1949 11-10-2010 04:00:00 7.58 C 5.1 g/m*3 7.58 C 0 km/h
1950 11-10-2010 05:00:00 6.64 C 5.24 g/m*3 6.64 C 0 km/h
Sensor: Nr:Datum:Temp:Abs-Feuchte:Windchill:Wind:
Aussen-T/F 1951 11-10-2010 06:00:00 5.72 C 5.32 g/m*3 5.72 C 0 km/h
1952 11-10-2010 07:00:00 5.22 C 5.36 g/m*3 5.22 C 0 km/h
1953 11-10-2010 08:00:00 4.96 C 5.39 g/m*3 4.96 C 0 km/h
1954 11-10-2010 09:00:00 5.6 C 5.7 g/m*3 5.6 C 0 km/h
1955 11-10-2010 10:00:00 7.12 C 6.11 g/m*3 7.12 C 0 km/h
1956 11-10-2010 11:00:00 9.46 C 6.36 g/m*3 9.46 C 0 km/h
1957 11-10-2010 12:00:00 11.62 C 6.45 g/m*3 11.62 C 0 km/h
1958 11-10-2010 13:00:00 14.92 C 5.9 g/m*3 14.92 C 0 km/h
1959 11-10-2010 14:00:00 17.48 C 5.45 g/m*3 17.48 C 0 km/h
1960 11-10-2010 15:00:00 19.78 C 5.05 g/m*3 19.78 C 0 km/h
1961 11-10-2010 16:00:00 20.96 C 4.61 g/m*3 20.96 C 0 km/h
1962 11-10-2010 17:00:00 19.56 C 3.6 g/m*3 19.56 C 0 km/h
1963 11-10-2010 18:00:00 16.12 C 3.98 g/m*3 16.12 C 0 km/h
1964 11-10-2010 19:00:00 13.18 C 4.33 g/m*3 13.18 C 0 km/h
1965 11-10-2010 20:00:00 11.32 C 4.82 g/m*3 11.32 C 0 km/h
1966 11-10-2010 21:00:00 10.025 C 4.96 g/m*3 10.03 C 0 km/h
1967 11-10-2010 22:00:00 9.2 C 4.84 g/m*3 9.2 C 0 km/h
1968 11-10-2010 23:00:00 8.24 C 4.87 g/m*3 8.24 C 0 km/h
1969 12-10-2010 00:00:00 7.16 C 5.01 g/m*3 7.16 C 0 km/h
1970 12-10-2010 01:00:00 6.4 C 5.13 g/m*3 6.4 C 0 km/h
1971 12-10-2010 02:00:00 5.74 C 5.24 g/m*3 5.74 C 0 km/h
1972 12-10-2010 03:00:00 5.04 C 5.31 g/m*3 5.04 C 0 km/h
1973 12-10-2010 04:00:00 4.42 C 5.34 g/m*3 4.42 C 0 km/h
1974 12-10-2010 05:00:00 3.8 C 5.31 g/m*3 3.8 C 0 km/h
1975 12-10-2010 06:00:00 3.46 C 5.26 g/m*3 3.46 C 0 km/h
Sensor: Nr:Datum:Temp:Abs-Feuchte:Windchill:Wind:
Aussen-T/F 1976 12-10-2010 07:00:00 2.94 C 5.15 g/m*3 2.94 C 0 km/h
1977 12-10-2010 08:00:00 3.56 C 5.52 g/m*3 3.56 C 0 km/h
1978 12-10-2010 09:00:00 4.9 C 5.93 g/m*3 4.9 C 0 km/h
1979 12-10-2010 10:00:00 5.82 C 6.07 g/m*3 5.82 C 0 km/h
1980 12-10-2010 11:00:00 7.16 C 6.36 g/m*3 7.16 C 0 km/h
1981 12-10-2010 12:00:00 9.56 C 6.18 g/m*3 9.56 C 0 km/h
1982 12-10-2010 13:00:00 12.58 C 5.72 g/m*3 12.58 C 0 km/h
1983 12-10-2010 14:00:00 15.26 C 5.65 g/m*3 15.26 C 0 km/h
1984 12-10-2010 15:00:00 16.94 C 5.42 g/m*3 16.94 C 0 km/h
1985 12-10-2010 16:00:00 17.66 C 5.42 g/m*3 17.66 C 0 km/h
1986 12-10-2010 17:00:00 17.22 C 4.57 g/m*3 17.22 C 0 km/h
1987 12-10-2010 18:00:00 14.5 C 5.65 g/m*3 14.5 C 0 km/h
1988 12-10-2010 19:00:00 11.42 C 6.45 g/m*3 11.42 C 0 km/h
1989 12-10-2010 20:00:00 9.84 C 6.47 g/m*3 9.84 C 0 km/h
1990 12-10-2010 21:00:00 8.36 C 6.26 g/m*3 8.36 C 0 km/h
1991 12-10-2010 22:00:00 7.74 C 6.15 g/m*3 7.74 C 0 km/h
1992 12-10-2010 23:00:00 7.78 C 6 g/m*3 7.78 C 0 km/h
1993 13-10-2010 00:00:00 7.6 C 5.86 g/m*3 7.6 C 0 km/h
1994 13-10-2010 01:00:00 7.02 C 5.82 g/m*3 7.02 C 0 km/h
1995 13-10-2010 02:00:00 6.8 C 5.83 g/m*3 6.8 C 0 km/h
1996 13-10-2010 03:00:00 6.44 C 5.69 g/m*3 6.44 C 0 km/h
1997 13-10-2010 04:00:00 6.2 C 5.59 g/m*3 6.2 C 0 km/h
1998 13-10-2010 05:00:00 6.1 C 5.6 g/m*3 6.1 C 0 km/h
1999 13-10-2010 06:00:00 5.84 C 5.6 g/m*3 5.84 C 0 km/h
2000 13-10-2010 07:00:00 5.42 C 5.53 g/m*3 5.42 C 0 km/h
Sensor: Nr:Datum:Temp:Abs-Feuchte:Windchill:Wind:
Aussen-T/F 2001 13-10-2010 08:00:00 5.62 C 5.49 g/m*3 5.62 C 0 km/h
2002 13-10-2010 09:00:00 5.86 C 5.45 g/m*3 5.86 C 0 km/h
2003 13-10-2010 10:00:00 6.66 C 5.3 g/m*3 6.66 C 0 km/h
2004 13-10-2010 11:00:00 7.04 C 5.08 g/m*3 7.04 C 0 km/h
2005 13-10-2010 12:00:00 8.14 C 5.06 g/m*3 8.14 C 0 km/h
2006 13-10-2010 13:00:00 8.8 C 4.89 g/m*3 8.8 C 0 km/h
2007 13-10-2010 14:00:00 9.8 C 4.95 g/m*3 9.8 C 0 km/h
2008 13-10-2010 15:00:00 11.78 C 4.94 g/m*3 11.78 C 0 km/h
2009 13-10-2010 16:00:00 12.06 C 5.01 g/m*3 12.06 C 0 km/h
2010 13-10-2010 17:00:00 12.34 C 5.23 g/m*3 12.34 C 0 km/h
2011 13-10-2010 18:00:00 9.94 C 5.5 g/m*3 9.94 C 0 km/h
2012 13-10-2010 19:00:00 7.48 C 5.76 g/m*3 7.48 C 0 km/h
2013 13-10-2010 20:00:00 6.96 C 5.81 g/m*3 6.96 C 0 km/h
2014 13-10-2010 21:00:00 5.82 C 5.72 g/m*3 5.82 C 0 km/h
2015 13-10-2010 22:00:00 5.16 C 5.73 g/m*3 5.16 C 0 km/h
2016 13-10-2010 23:00:00 4.52 C 5.61 g/m*3 4.52 C 0 km/h
2017 14-10-2010 00:00:00 3.88 C 5.51 g/m*3 3.88 C 0 km/h
2018 14-10-2010 01:00:00 3.38 C 5.47 g/m*3 3.38 C 0 km/h
2019 14-10-2010 02:00:00 3.62 C 5.65 g/m*3 3.62 C 0 km/h
2020 14-10-2010 03:00:00 3.52 C 5.57 g/m*3 3.52 C 0 km/h
2021 14-10-2010 04:00:00 3.54 C 5.55 g/m*3 3.54 C 0 km/h
2022 14-10-2010 05:00:00 3.62 C 5.63 g/m*3 3.62 C 0 km/h
2023 14-10-2010 06:00:00 3.92 C 5.7 g/m*3 3.92 C 0 km/h
2024 14-10-2010 07:00:00 4.12 C 5.76 g/m*3 4.12 C 0 km/h
2025 14-10-2010 08:00:00 4.44 C 5.84 g/m*3 4.44 C 0 km/h
Sensor: Nr:Datum:Temp:Abs-Feuchte:Windchill:Wind:
Aussen-T/F 2026 14-10-2010 09:00:00 4.56 C 5.86 g/m*3 4.56 C 0 km/h
2027 14-10-2010 10:00:00 5.16 C 5.88 g/m*3 5.16 C 0 km/h
2028 14-10-2010 11:00:00 6.2 C 5.75 g/m*3 6.2 C 0 km/h
2029 14-10-2010 12:00:00 7.86 C 5.59 g/m*3 7.86 C 0 km/h
2030 14-10-2010 13:00:00 9.36 C 5.58 g/m*3 9.36 C 0 km/h
2031 14-10-2010 14:00:00 11.86 C 5.85 g/m*3 11.86 C 0 km/h
2032 14-10-2010 15:00:00 13.94 C 5.72 g/m*3 13.94 C 0 km/h
2033 14-10-2010 16:00:00 14.4 C 5.83 g/m*3 14.4 C 0 km/h
2034 14-10-2010 17:00:00 13.24 C 5.5 g/m*3 13.24 C 0 km/h
2035 14-10-2010 18:00:00 11.04 C 5.96 g/m*3 11.04 C 0 km/h
2036 14-10-2010 19:00:00 10.26 C 6.25 g/m*3 10.26 C 0 km/h
2037 14-10-2010 20:00:00 10.2 C 6.24 g/m*3 10.2 C 0 km/h
2038 14-10-2010 21:00:00 9.8 C 6.33 g/m*3 9.8 C 0 km/h
2039 14-10-2010 22:00:00 9.74 C 6.51 g/m*3 9.74 C 0 km/h
2040 14-10-2010 23:00:00 9.68 C 6.68 g/m*3 9.68 C 0 km/h
2041 15-10-2010 00:00:00 9.5 C 6.75 g/m*3 9.5 C 0 km/h
2042 15-10-2010 01:00:00 9.42 C 6.88 g/m*3 9.42 C 0 km/h
2043 15-10-2010 02:00:00 9.24 C 7.13 g/m*3 9.24 C 0 km/h
2044 15-10-2010 03:00:00 9.28 C 7.25 g/m*3 9.28 C 0 km/h
2045 15-10-2010 04:00:00 9.28 C 7.36 g/m*3 9.28 C 0 km/h
2046 15-10-2010 05:00:00 9.2 C 7.41 g/m*3 9.2 C 0 km/h
2047 15-10-2010 06:00:00 9.3 C 7.66 g/m*3 9.3 C 0 km/h
2048 15-10-2010 07:00:00 9.28 C 7.74 g/m*3 9.28 C 0 km/h
2049 15-10-2010 08:00:00 9.24 C 7.86 g/m*3 9.24 C 0 km/h
2050 15-10-2010 09:00:00 9.82 C 8.19 g/m*3 9.82 C 0 km/h
Sensor: Nr:Datum:Temp:Abs-Feuchte:Windchill:Wind:
Aussen-T/F 2051 15-10-2010 10:00:00 10.72 C 8.06 g/m*3 10.72 C 0 km/h
2052 15-10-2010 11:00:00 11.52 C 7.76 g/m*3 11.52 C 0 km/h
2053 15-10-2010 12:00:00 12.42 C 7.33 g/m*3 12.42 C 0 km/h
2054 15-10-2010 13:00:00 13.38 C 6.9 g/m*3 13.38 C 0 km/h
2055 15-10-2010 14:00:00 12.78 C 6.76 g/m*3 12.78 C 0 km/h
2056 15-10-2010 15:00:00 12.86 C 6.68 g/m*3 12.86 C 0 km/h
2057 15-10-2010 16:00:00 12.24 C 6.79 g/m*3 12.24 C 0 km/h
2058 15-10-2010 17:00:00 11.56 C 7.07 g/m*3 11.56 C 0 km/h
2059 15-10-2010 18:00:00 10.88 C 7.03 g/m*3 10.88 C 0 km/h
2060 15-10-2010 19:00:00 10.52 C 7.01 g/m*3 10.52 C 0 km/h
2061 15-10-2010 20:00:00 10.36 C 7.02 g/m*3 10.36 C 0 km/h
2062 15-10-2010 21:00:00 10.1 C 7.19 g/m*3 10.1 C 0 km/h
2063 15-10-2010 22:00:00 9.3 C 7.67 g/m*3 9.3 C 0 km/h
2064 15-10-2010 23:00:00 9.2 C 8.04 g/m*3 9.2 C 0 km/h
2065 16-10-2010 00:00:00 9.02 C 8.16 g/m*3 9.02 C 0 km/h
2066 16-10-2010 01:00:00 8.82 C 8.19 g/m*3 8.82 C 0 km/h
2067 16-10-2010 02:00:00 8.78 C 8.22 g/m*3 8.78 C 0 km/h
2068 16-10-2010 03:00:00 8.68 C 8.21 g/m*3 8.68 C 0 km/h
2069 16-10-2010 04:00:00 8.54 C 8.13 g/m*3 8.54 C 0 km/h
2070 16-10-2010 05:00:00 8.36 C 8.04 g/m*3 8.36 C 0 km/h
2071 16-10-2010 06:00:00 8.3 C 8.01 g/m*3 8.3 C 0 km/h
2072 16-10-2010 07:00:00 8.12 C 7.88 g/m*3 8.12 C 0 km/h
2073 16-10-2010 08:00:00 8.1 C 7.77 g/m*3 8.1 C 0 km/h
2074 16-10-2010 09:00:00 8.24 C 7.81 g/m*3 8.24 C 0 km/h
2075 16-10-2010 10:00:00 8.64 C 8.03 g/m*3 8.64 C 0 km/h
Sensor: Nr:Datum:Temp:Abs-Feuchte:Windchill:Wind:
Aussen-T/F 2076 16-10-2010 11:00:00 8.96 C 8.11 g/m*3 8.96 C 0 km/h
2077 16-10-2010 12:00:00 9.38 C 8.11 g/m*3 9.38 C 0 km/h
2078 16-10-2010 13:00:00 9.72 C 8.16 g/m*3 9.72 C 0 km/h
2079 16-10-2010 14:00:00 9.96 C 7.89 g/m*3 9.96 C 0 km/h
2080 16-10-2010 15:00:00 10.08 C 7.82 g/m*3 10.08 C 0 km/h
2081 16-10-2010 16:00:00 9.9 C 7.84 g/m*3 9.9 C 0 km/h
2082 16-10-2010 17:00:00 9.36 C 7.9 g/m*3 9.36 C 0 km/h
2083 16-10-2010 18:00:00 8.38 C 6.98 g/m*3 8.38 C 0 km/h
2084 16-10-2010 19:00:00 6.96 C 6.55 g/m*3 6.96 C 0 km/h
2085 16-10-2010 20:00:00 6.56 C 6.31 g/m*3 6.56 C 0 km/h
2086 16-10-2010 21:00:00 6.28 C 6.21 g/m*3 6.28 C 0 km/h
2087 16-10-2010 22:00:00 5.9 C 6.37 g/m*3 5.9 C 0 km/h
2088 16-10-2010 23:00:00 5.96 C 6.56 g/m*3 5.96 C 0 km/h
2089 17-10-2010 00:00:00 6.14 C 6.7 g/m*3 6.14 C 0 km/h
2090 17-10-2010 01:00:00 6.24 C 6.71 g/m*3 6.24 C 0 km/h
2091 17-10-2010 02:00:00 6.22 C 6.61 g/m*3 6.22 C 0 km/h
2092 17-10-2010 03:00:00 6.24 C 6.49 g/m*3 6.24 C 0 km/h
2093 17-10-2010 04:00:00 6.22 C 6.33 g/m*3 6.22 C 0 km/h
2094 17-10-2010 05:00:00 6.3 C 6.43 g/m*3 6.3 C 0 km/h
2095 17-10-2010 06:00:00 6.34 C 6.46 g/m*3 6.34 C 0 km/h
2096 17-10-2010 07:00:00 6.34 C 6.29 g/m*3 6.34 C 0 km/h
2097 17-10-2010 08:00:00 6.58 C 6.17 g/m*3 6.58 C 0 km/h
2098 17-10-2010 09:00:00 6.88 C 6.15 g/m*3 6.88 C 0 km/h
2099 17-10-2010 10:00:00 7.32 C 6.14 g/m*3 7.32 C 0 km/h
2100 17-10-2010 11:00:00 7.7 C 5.98 g/m*3 7.7 C 0 km/h
Sensor: Nr:Datum:Temp:Abs-Feuchte:Windchill:Wind:
Aussen-T/F 2101 17-10-2010 12:00:00 7.88 C 5.97 g/m*3 7.88 C 0 km/h
2102 17-10-2010 13:00:00 8.1 C 5.96 g/m*3 8.1 C 0 km/h
2103 17-10-2010 14:00:00 8.36 C 6.14 g/m*3 8.36 C 0 km/h
2104 17-10-2010 15:00:00 8.52 C 6.12 g/m*3 8.52 C 0 km/h
2105 17-10-2010 16:00:00 8.46 C 6.28 g/m*3 8.46 C 0 km/h
2106 17-10-2010 17:00:00 8.3 C 6.32 g/m*3 8.3 C 0 km/h
2107 17-10-2010 18:00:00 7.9 C 6.32 g/m*3 7.9 C 0 km/h
2108 17-10-2010 19:00:00 7.68 C 6.38 g/m*3 7.68 C 0 km/h
2109 17-10-2010 20:00:00 7.68 C 6.43 g/m*3 7.68 C 0 km/h
2110 17-10-2010 21:00:00 7.62 C 6.44 g/m*3 7.62 C 0 km/h
2111 17-10-2010 22:00:00 7.38 C 6.43 g/m*3 7.38 C 0 km/h
2112 17-10-2010 23:00:00 7.04 C 6.31 g/m*3 7.04 C 0 km/h
2113 18-10-2010 00:00:00 6.48 C 6.19 g/m*3 6.48 C 0 km/h
2114 18-10-2010 01:00:00 5.18 C 5.97 g/m*3 5.18 C 0 km/h
2115 18-10-2010 02:00:00 5.8 C 6.35 g/m*3 5.8 C 0 km/h
2116 18-10-2010 03:00:00 6 C 6.3 g/m*3 6 C 0 km/h
2117 18-10-2010 04:00:00 6.02 C 6.25 g/m*3 6.02 C 0 km/h
2118 18-10-2010 05:00:00 5.84 C 6.1 g/m*3 5.84 C 0 km/h
2119 18-10-2010 06:00:00 5.8 C 6.16 g/m*3 5.8 C 0 km/h
2120 18-10-2010 07:00:00 5.76 C 6.14 g/m*3 5.76 C 0 km/h
2121 18-10-2010 08:00:00 5.78 C 6.2 g/m*3 5.78 C 0 km/h
2122 18-10-2010 09:00:00 6.66 C 6.44 g/m*3 6.66 C 0 km/h
2123 18-10-2010 10:00:00 7.56 C 5.99 g/m*3 7.56 C 0 km/h
2124 18-10-2010 11:00:00 7.76 C 5.06 g/m*3 7.76 C 0 km/h
2125 18-10-2010 12:00:00 8.26 C 4.98 g/m*3 8.26 C 0 km/h
Sensor: Nr:Datum:Temp:Abs-Feuchte:Windchill:Wind:
Aussen-T/F 2126 18-10-2010 13:00:00 8.82 C 4.85 g/m*3 8.82 C 0 km/h
2127 18-10-2010 14:00:00 8.88 C 4.86 g/m*3 8.88 C 0 km/h
2128 18-10-2010 15:00:00 8.74 C 4.86 g/m*3 8.74 C 0 km/h
2129 18-10-2010 16:00:00 8.74 C 4.91 g/m*3 8.74 C 0 km/h
2130 18-10-2010 17:00:00 8.52 C 4.86 g/m*3 8.52 C 0 km/h
2131 18-10-2010 18:00:00 7.76 C 4.97 g/m*3 7.76 C 0 km/h
2132 18-10-2010 19:00:00 6.32 C 4.89 g/m*3 6.32 C 0 km/h
2133 18-10-2010 20:00:00 5.6 C 5.05 g/m*3 5.6 C 0 km/h
2134 18-10-2010 21:00:00 5.18 C 5.03 g/m*3 5.18 C 0 km/h
2135 18-10-2010 22:00:00 4.92 C 5.06 g/m*3 4.92 C 0 km/h
2136 18-10-2010 23:00:00 4.86 C 5.17 g/m*3 4.86 C 0 km/h
2137 19-10-2010 00:00:00 5.14 C 5.24 g/m*3 5.14 C 0 km/h
2138 19-10-2010 01:00:00 5.42 C 5.27 g/m*3 5.42 C 0 km/h
2139 19-10-2010 02:00:00 5.5 C 5.32 g/m*3 5.5 C 0 km/h
2140 19-10-2010 03:00:00 4.96 C 5.75 g/m*3 4.96 C 0 km/h
2141 19-10-2010 04:00:00 5.04 C 6.04 g/m*3 5.04 C 0 km/h
2142 19-10-2010 05:00:00 5.42 C 6.06 g/m*3 5.42 C 0 km/h
2143 19-10-2010 06:00:00 5.6 C 6.31 g/m*3 5.6 C 0 km/h
2144 19-10-2010 07:00:00 5.98 C 6.38 g/m*3 5.98 C 0 km/h
2145 19-10-2010 08:00:00 5.98 C 6.42 g/m*3 5.98 C 0 km/h
2146 19-10-2010 09:00:00 6.54 C 6.62 g/m*3 6.54 C 0 km/h
2147 19-10-2010 10:00:00 7.34 C 6.65 g/m*3 7.34 C 0 km/h
2148 19-10-2010 11:00:00 7.5 C 6.93 g/m*3 7.5 C 0 km/h
2149 19-10-2010 12:00:00 7.98 C 7.08 g/m*3 7.98 C 0 km/h
2150 19-10-2010 13:00:00 9.08 C 7.48 g/m*3 9.08 C 0 km/h
Sensor: Nr:Datum:Temp:Abs-Feuchte:Windchill:Wind:
Aussen-T/F 2151 19-10-2010 14:00:00 9.8 C 7.42 g/m*3 9.8 C 0 km/h
2152 19-10-2010 15:00:00 10.34 C 7.37 g/m*3 10.34 C 0 km/h
2153 19-10-2010 16:00:00 12.46 C 7 g/m*3 12.46 C 0 km/h
2154 19-10-2010 17:00:00 10.3 C 7.22 g/m*3 10.3 C 0 km/h
2155 19-10-2010 18:00:00 9.04 C 6.96 g/m*3 9.04 C 0 km/h
2156 19-10-2010 19:00:00 7.98 C 6.85 g/m*3 7.98 C 0 km/h
2157 19-10-2010 20:00:00 7.36 C 6.46 g/m*3 7.36 C 0 km/h
2158 19-10-2010 21:00:00 6.94 C 6.22 g/m*3 6.94 C 0 km/h
2159 19-10-2010 22:00:00 6.52 C 6.16 g/m*3 6.52 C 0 km/h
2160 19-10-2010 23:00:00 6.54 C 6.2 g/m*3 6.54 C 0 km/h
2161 20-10-2010 00:00:00 6.34 C 6.16 g/m*3 6.34 C 0 km/h
2162 20-10-2010 01:00:00 6.38 C 6.16 g/m*3 6.38 C 0 km/h
2163 20-10-2010 02:00:00 5.94 C 6.39 g/m*3 5.94 C 0 km/h
2164 20-10-2010 03:00:00 5.76 C 6.53 g/m*3 5.76 C 0 km/h
2165 20-10-2010 04:00:00 5.84 C 6.51 g/m*3 5.84 C 0 km/h
2166 20-10-2010 05:00:00 5.62 C 6.56 g/m*3 5.62 C 0 km/h
2167 20-10-2010 06:00:00 5.52 C 6.61 g/m*3 5.52 C 0 km/h
2168 20-10-2010 07:00:00 5.5 C 6.64 g/m*3 5.5 C 0 km/h
2169 20-10-2010 08:00:00 5.6 C 6.66 g/m*3 5.6 C 0 km/h
2170 20-10-2010 09:00:00 6 C 6.84 g/m*3 6 C 0 km/h
2171 20-10-2010 10:00:00 6.92 C 6.95 g/m*3 6.92 C 0 km/h
2172 20-10-2010 11:00:00 6.84 C 6.44 g/m*3 6.84 C 0 km/h
2173 20-10-2010 12:00:00 6.92 C 6.38 g/m*3 6.92 C 0 km/h
2174 20-10-2010 13:00:00 7.92 C 6.2 g/m*3 7.92 C 0 km/h
2175 20-10-2010 14:00:00 9.48 C 5.67 g/m*3 9.48 C 0 km/h
Sensor: Nr:Datum:Temp:Abs-Feuchte:Windchill:Wind:
Aussen-T/F 2176 20-10-2010 15:00:00 7.68 C 5.56 g/m*3 7.68 C 0 km/h
2177 20-10-2010 16:00:00 7.36 C 5.06 g/m*3 7.36 C 0 km/h
2178 20-10-2010 17:00:00 7.02 C 4.92 g/m*3 7.02 C 0 km/h
2179 20-10-2010 18:00:00 6.32 C 5.04 g/m*3 6.32 C 0 km/h
2180 20-10-2010 19:00:00 4.64 C 5.24 g/m*3 4.64 C 0 km/h
2181 20-10-2010 20:00:00 4.54 C 5.25 g/m*3 4.54 C 0 km/h
2182 20-10-2010 21:00:00 4.46 C 5.11 g/m*3 4.46 C 0 km/h
2183 20-10-2010 22:00:00 4.48 C 5.07 g/m*3 4.48 C 0 km/h
2184 20-10-2010 23:00:00 4.32 C 5.05 g/m*3 4.32 C 0 km/h
2185 21-10-2010 00:00:00 4.6 C 5.11 g/m*3 4.6 C 0 km/h
2186 21-10-2010 01:00:00 4.44 C 5.04 g/m*3 4.44 C 0 km/h
2187 21-10-2010 02:00:00 3.74 C 4.97 g/m*3 3.74 C 0 km/h
2188 21-10-2010 03:00:00 3.32 C 4.98 g/m*3 3.32 C 0 km/h
2189 21-10-2010 04:00:00 2.64 C 4.9 g/m*3 2.64 C 0 km/h
2190 21-10-2010 05:00:00 1.92 C 4.82 g/m*3 1.92 C 0 km/h
2191 21-10-2010 06:00:00 1.7 C 4.9 g/m*3 1.7 C 0 km/h
2192 21-10-2010 07:00:00 1.66 C 5 g/m*3 1.66 C 0 km/h
2193 21-10-2010 08:00:00 2.1 C 5.14 g/m*3 2.1 C 0 km/h
2194 21-10-2010 09:00:00 3 C 5.24 g/m*3 3 C 0 km/h
2195 21-10-2010 10:00:00 4.16 C 5.06 g/m*3 4.16 C 0 km/h
2196 21-10-2010 11:00:00 5.64 C 4.99 g/m*3 5.64 C 0 km/h
2197 21-10-2010 12:00:00 6.98 C 4.63 g/m*3 6.98 C 0 km/h
2198 21-10-2010 13:00:00 8.7 C 4.13 g/m*3 8.7 C 0 km/h
2199 21-10-2010 14:00:00 10.38 C 3.87 g/m*3 10.38 C 0 km/h
2200 21-10-2010 15:00:00 10.66 C 3.63 g/m*3 10.66 C 0 km/h
Sensor: Nr:Datum:Temp:Abs-Feuchte:Windchill:Wind:
Aussen-T/F 2201 21-10-2010 16:00:00 10.4 C 3.64 g/m*3 10.4 C 0 km/h
2202 21-10-2010 17:00:00 10.96 C 3.55 g/m*3 10.96 C 0 km/h
2203 21-10-2010 18:00:00 7.38 C 3.99 g/m*3 7.38 C 0 km/h
2204 21-10-2010 19:00:00 5.64 C 4.05 g/m*3 5.64 C 0 km/h
2205 21-10-2010 20:00:00 4.86 C 3.96 g/m*3 4.86 C 0 km/h
2206 21-10-2010 21:00:00 4.62 C 3.74 g/m*3 4.62 C 0 km/h
2207 21-10-2010 22:00:00 3.84 C 3.84 g/m*3 3.84 C 0 km/h
2208 21-10-2010 23:00:00 3.14 C 3.89 g/m*3 3.14 C 0 km/h
2209 22-10-2010 00:00:00 2.38 C 4.06 g/m*3 2.38 C 0 km/h
2210 22-10-2010 01:00:00 1.74 C 4.11 g/m*3 1.74 C 0 km/h
2211 22-10-2010 02:00:00 2.12 C 4.09 g/m*3 2.12 C 0 km/h
2212 22-10-2010 03:00:00 2.16 C 4.08 g/m*3 2.16 C 0 km/h
2213 22-10-2010 04:00:00 1.48 C 4.09 g/m*3 1.48 C 0 km/h
2214 22-10-2010 05:00:00 1.38 C 4.11 g/m*3 1.38 C 0 km/h
2215 22-10-2010 06:00:00 1.66 C 4.06 g/m*3 1.66 C 0 km/h
2216 22-10-2010 07:00:00 0.94 C 3.98 g/m*3 0.94 C 0 km/h
2217 22-10-2010 08:00:00 1.28 C 4.04 g/m*3 1.28 C 0 km/h
2218 22-10-2010 09:00:00 2.06 C 4.3 g/m*3 2.06 C 0 km/h
2219 22-10-2010 10:00:00 4.3 C 4.23 g/m*3 4.3 C 0 km/h
2220 22-10-2010 11:00:00 5.36 C 3.94 g/m*3 5.36 C 0 km/h
2221 22-10-2010 12:00:00 6.56 C 3.9 g/m*3 6.56 C 0 km/h
2222 22-10-2010 13:00:00 7.18 C 3.89 g/m*3 7.18 C 0 km/h
2223 22-10-2010 14:00:00 7.36 C 3.87 g/m*3 7.36 C 0 km/h
2224 22-10-2010 15:00:00 7.22 C 3.82 g/m*3 7.22 C 0 km/h
2225 22-10-2010 16:00:00 7.42 C 4.33 g/m*3 7.42 C 0 km/h
Sensor: Nr:Datum:Temp:Abs-Feuchte:Windchill:Wind:
Aussen-T/F 2226 22-10-2010 17:00:00 7.22 C 4.28 g/m*3 7.22 C 0 km/h
2227 22-10-2010 18:00:00 6.18 C 4.1 g/m*3 6.18 C 0 km/h
2228 22-10-2010 19:00:00 6.2 C 3.69 g/m*3 6.2 C 0 km/h
2229 22-10-2010 20:00:00 6.02 C 3.82 g/m*3 6.02 C 0 km/h
2230 22-10-2010 21:00:00 5.72 C 3.9 g/m*3 5.72 C 0 km/h
2231 22-10-2010 22:00:00 4.14 C 4.09 g/m*3 4.14 C 0 km/h
2232 22-10-2010 23:00:00 2.76 C 4.31 g/m*3 2.76 C 0 km/h
2233 23-10-2010 00:00:00 1.7 C 4.3 g/m*3 1.7 C 0 km/h
2234 23-10-2010 01:00:00 1.08 C 4.29 g/m*3 1.08 C 0 km/h
2235 23-10-2010 02:00:00 0.54 C 4.24 g/m*3 0.54 C 0 km/h
2236 23-10-2010 03:00:00 0.1 C 4.19 g/m*3 0.1 C 0 km/h
2237 23-10-2010 04:00:00 -0.34 C 4.14 g/m*3 -0.34 C 0 km/h
2238 23-10-2010 05:00:00 -0.82 C 4.03 g/m*3 -0.82 C 0 km/h
2239 23-10-2010 06:00:00 -1.04 C 4 g/m*3 -1.04 C 0 km/h
2240 23-10-2010 07:00:00 -0.86 C 4.09 g/m*3 -0.86 C 0 km/h
2241 23-10-2010 08:00:00 -0.78 C 4.18 g/m*3 -0.78 C 0 km/h
2242 23-10-2010 09:00:00 -0.82 C 4.14 g/m*3 -0.82 C 0 km/h
2243 23-10-2010 10:00:00 1.06 C 4.78 g/m*3 1.06 C 0 km/h
2244 23-10-2010 11:00:00 4.08 C 5.33 g/m*3 4.08 C 0 km/h
2245 23-10-2010 12:00:00 6.64 C 5.16 g/m*3 6.64 C 0 km/h
2246 23-10-2010 13:00:00 8.56 C 4.97 g/m*3 8.56 C 0 km/h
2247 23-10-2010 14:00:00 9.08 C 4.25 g/m*3 9.08 C 0 km/h
2248 23-10-2010 15:00:00 8.42 C 4.64 g/m*3 8.42 C 0 km/h
2249 23-10-2010 16:00:00 7.92 C 4.93 g/m*3 7.92 C 0 km/h
2250 23-10-2010 17:00:00 7.88 C 5.35 g/m*3 7.88 C 0 km/h
Sensor: Nr:Datum:Temp:Abs-Feuchte:Windchill:Wind:
Aussen-T/F 2251 23-10-2010 18:00:00 8.04 C 5.49 g/m*3 8.04 C 0 km/h
2252 23-10-2010 19:00:00 8.56 C 5.16 g/m*3 8.56 C 0 km/h
2253 23-10-2010 20:00:00 9.14 C 5.27 g/m*3 9.14 C 0 km/h
2254 23-10-2010 21:00:00 9.26 C 5.77 g/m*3 9.26 C 0 km/h
2255 23-10-2010 22:00:00 9.375 C 5.85 g/m*3 9.38 C 0 km/h
2256 23-10-2010 23:00:00 9.32 C 5.67 g/m*3 9.32 C 0 km/h
2257 24-10-2010 00:00:00 9.02 C 5.74 g/m*3 9.02 C 0 km/h
2258 24-10-2010 01:00:00 8.98 C 5.85 g/m*3 8.98 C 0 km/h
2259 24-10-2010 02:00:00 8.46 C 6.28 g/m*3 8.46 C 0 km/h
2260 24-10-2010 03:00:00 8.46 C 6.3 g/m*3 8.46 C 0 km/h
2261 24-10-2010 04:00:00 8.66 C 6.02 g/m*3 8.66 C 0 km/h
2262 24-10-2010 05:00:00 8.5 C 5.98 g/m*3 8.5 C 0 km/h
2263 24-10-2010 06:00:00 7.98 C 6.24 g/m*3 7.98 C 0 km/h
2264 24-10-2010 07:00:00 7.06 C 6.72 g/m*3 7.06 C 0 km/h
2265 24-10-2010 08:00:00 6.96 C 6.91 g/m*3 6.96 C 0 km/h
2266 24-10-2010 09:00:00 7.14 C 7.02 g/m*3 7.14 C 0 km/h
2267 24-10-2010 10:00:00 7 C 6.65 g/m*3 7 C 0 km/h
2268 24-10-2010 11:00:00 8.3 C 5.85 g/m*3 8.3 C 0 km/h
2269 24-10-2010 12:00:00 9.36 C 4.75 g/m*3 9.36 C 0 km/h
2270 24-10-2010 13:00:00 10.46 C 4.6 g/m*3 10.46 C 0 km/h
2271 24-10-2010 14:00:00 11.62 C 4.29 g/m*3 11.62 C 0 km/h
2272 24-10-2010 15:00:00 12.3 C 4.23 g/m*3 12.3 C 0 km/h
2273 24-10-2010 16:00:00 13.04 C 3.75 g/m*3 13.04 C 0 km/h
2274 24-10-2010 17:00:00 12.02 C 4.01 g/m*3 12.02 C 0 km/h
2275 24-10-2010 18:00:00 9.56 C 4.75 g/m*3 9.56 C 0 km/h
Sensor: Nr:Datum:Temp:Abs-Feuchte:Windchill:Wind:
Aussen-T/F 2276 24-10-2010 19:00:00 7.42 C 5.14 g/m*3 7.42 C 0 km/h
2277 24-10-2010 20:00:00 6.48 C 5.18 g/m*3 6.48 C 0 km/h
2278 24-10-2010 21:00:00 6.12 C 5.38 g/m*3 6.12 C 0 km/h
2279 24-10-2010 22:00:00 5.62 C 5.56 g/m*3 5.62 C 0 km/h
2280 24-10-2010 23:00:00 4.84 C 5.49 g/m*3 4.84 C 0 km/h
2281 25-10-2010 00:00:00 4.8 C 5.7 g/m*3 4.8 C 0 km/h
2282 25-10-2010 01:00:00 4.5 C 5.65 g/m*3 4.5 C 0 km/h
2283 25-10-2010 02:00:00 4.42 C 5.69 g/m*3 4.42 C 0 km/h
2284 25-10-2010 03:00:00 4.62 C 5.76 g/m*3 4.62 C 0 km/h
2285 25-10-2010 04:00:00 5.1 C 5.73 g/m*3 5.1 C 0 km/h
2286 25-10-2010 05:00:00 5.1 C 5.62 g/m*3 5.1 C 0 km/h
2287 25-10-2010 06:00:00 5.04 C 5.55 g/m*3 5.04 C 0 km/h
2288 25-10-2010 07:00:00 4.86 C 5.51 g/m*3 4.86 C 0 km/h
2289 25-10-2010 08:00:00 4.9 C 5.52 g/m*3 4.9 C 0 km/h
2290 25-10-2010 09:00:00 5.06 C 5.47 g/m*3 5.06 C 0 km/h
2291 25-10-2010 10:00:00 5.8 C 5.5 g/m*3 5.8 C 0 km/h
2292 25-10-2010 11:00:00 6.54 C 5.44 g/m*3 6.54 C 0 km/h
2293 25-10-2010 12:00:00 7.84 C 5.3 g/m*3 7.84 C 0 km/h
2294 25-10-2010 13:00:00 8.74 C 5.12 g/m*3 8.74 C 0 km/h
2295 25-10-2010 14:00:00 10.1 C 4.63 g/m*3 10.1 C 0 km/h
2296 25-10-2010 15:00:00 10.4 C 3.91 g/m*3 10.4 C 0 km/h
2297 25-10-2010 16:00:00 10.72 C 3.91 g/m*3 10.72 C 0 km/h
2298 25-10-2010 17:00:00 10.68 C 4.06 g/m*3 10.68 C 0 km/h
2299 25-10-2010 18:00:00 8.36 C 4.25 g/m*3 8.36 C 0 km/h
2300 25-10-2010 19:00:00 6.22 C 4.68 g/m*3 6.22 C 0 km/h
Sensor: Nr:Datum:Temp:Abs-Feuchte:Windchill:Wind:
Aussen-T/F 2301 25-10-2010 20:00:00 4.66 C 4.77 g/m*3 4.66 C 0 km/h
2302 25-10-2010 21:00:00 3.92 C 4.92 g/m*3 3.92 C 0 km/h
2303 25-10-2010 22:00:00 3 C 4.83 g/m*3 3 C 0 km/h
2304 25-10-2010 23:00:00 2.28 C 4.79 g/m*3 2.28 C 0 km/h
2305 26-10-2010 00:00:00 1.88 C 4.78 g/m*3 1.88 C 0 km/h
2306 26-10-2010 01:00:00 1.48 C 4.76 g/m*3 1.48 C 0 km/h
2307 26-10-2010 02:00:00 0.82 C 4.64 g/m*3 0.82 C 0 km/h
2308 26-10-2010 03:00:00 0.3 C 4.5 g/m*3 0.3 C 0 km/h
2309 26-10-2010 04:00:00 0.12 C 4.51 g/m*3 0.12 C 0 km/h
2310 26-10-2010 05:00:00 0.08 C 4.56 g/m*3 0.08 C 0 km/h
2311 26-10-2010 06:00:00 0.14 C 4.6 g/m*3 0.14 C 0 km/h
2312 26-10-2010 07:00:00 -0.32 C 4.45 g/m*3 -0.32 C 0 km/h
2313 26-10-2010 08:00:00 -0.42 C 4.42 g/m*3 -0.42 C 0 km/h
2314 26-10-2010 09:00:00 -0.36 C 4.44 g/m*3 -0.36 C 0 km/h
2315 26-10-2010 10:00:00 0.1 C 4.58 g/m*3 0.1 C 0 km/h
2316 26-10-2010 11:00:00 1.22 C 4.82 g/m*3 1.22 C 0 km/h
2317 26-10-2010 12:00:00 3.16 C 5.19 g/m*3 3.16 C 0 km/h
2318 26-10-2010 13:00:00 5.54 C 5.61 g/m*3 5.54 C 0 km/h
2319 26-10-2010 14:00:00 8.88 C 5.51 g/m*3 8.88 C 0 km/h
2320 26-10-2010 15:00:00 9.72 C 5.28 g/m*3 9.72 C 0 km/h
2321 26-10-2010 16:00:00 9.24 C 5.41 g/m*3 9.24 C 0 km/h
2322 26-10-2010 17:00:00 8.04 C 5.69 g/m*3 8.04 C 0 km/h
2323 26-10-2010 18:00:00 7.08 C 5.64 g/m*3 7.08 C 0 km/h
2324 26-10-2010 19:00:00 6.58 C 5.68 g/m*3 6.58 C 0 km/h
2325 26-10-2010 20:00:00 6.34 C 5.66 g/m*3 6.34 C 0 km/h
Sensor: Nr:Datum:Temp:Abs-Feuchte:Windchill:Wind:
Aussen-T/F 2326 26-10-2010 21:00:00 6.06 C 5.58 g/m*3 6.06 C 0 km/h
2327 26-10-2010 22:00:00 5.7 C 5.71 g/m*3 5.7 C 0 km/h
2328 26-10-2010 23:00:00 5.6 C 5.73 g/m*3 5.6 C 0 km/h
2329 27-10-2010 00:00:00 5.16 C 5.6 g/m*3 5.16 C 0 km/h
2330 27-10-2010 01:00:00 5.36 C 5.14 g/m*3 5.36 C 0 km/h
2331 27-10-2010 02:00:00 5.54 C 5.11 g/m*3 5.54 C 0 km/h
2332 27-10-2010 03:00:00 5.48 C 5.26 g/m*3 5.48 C 0 km/h
2333 27-10-2010 04:00:00 5.42 C 5.24 g/m*3 5.42 C 0 km/h
2334 27-10-2010 05:00:00 5.64 C 5.16 g/m*3 5.64 C 0 km/h
2335 27-10-2010 06:00:00 5.68 C 5.22 g/m*3 5.68 C 0 km/h
2336 27-10-2010 07:00:00 5.76 C 5.16 g/m*3 5.76 C 0 km/h
2337 27-10-2010 08:00:00 5.68 C 5.09 g/m*3 5.68 C 0 km/h
2338 27-10-2010 09:00:00 5.84 C 5.65 g/m*3 5.84 C 0 km/h
2339 27-10-2010 10:00:00 7 C 5.8 g/m*3 7 C 0 km/h
2340 27-10-2010 11:00:00 8.22 C 5.45 g/m*3 8.22 C 0 km/h
2341 27-10-2010 12:00:00 9.62 C 4.46 g/m*3 9.62 C 0 km/h
2342 27-10-2010 13:00:00 10.92 C 3.84 g/m*3 10.92 C 0 km/h
2343 27-10-2010 14:00:00 11.06 C 3.64 g/m*3 11.06 C 0 km/h
2344 27-10-2010 15:00:00 11.56 C 3.55 g/m*3 11.56 C 0 km/h
2345 27-10-2010 16:00:00 11.98 C 3.43 g/m*3 11.98 C 0 km/h
2346 27-10-2010 17:00:00 11.6 C 3.55 g/m*3 11.6 C 0 km/h
2347 27-10-2010 18:00:00 10.44 C 4.27 g/m*3 10.44 C 0 km/h
2348 27-10-2010 19:00:00 10.04 C 4.41 g/m*3 10.04 C 0 km/h
2349 27-10-2010 20:00:00 9.8 C 4.42 g/m*3 9.8 C 0 km/h
2350 27-10-2010 21:00:00 9.56 C 4.71 g/m*3 9.56 C 0 km/h
Sensor: Nr:Datum:Temp:Abs-Feuchte:Windchill:Wind:
Aussen-T/F 2351 27-10-2010 22:00:00 9.2 C 4.89 g/m*3 9.2 C 0 km/h
2352 27-10-2010 23:00:00 9.02 C 4.86 g/m*3 9.02 C 0 km/h
2353 28-10-2010 00:00:00 8.66 C 4.87 g/m*3 8.66 C 0 km/h
2354 28-10-2010 01:00:00 8.46 C 4.91 g/m*3 8.46 C 0 km/h
2355 28-10-2010 02:00:00 8.06 C 5.05 g/m*3 8.06 C 0 km/h
2356 28-10-2010 03:00:00 7.62 C 4.86 g/m*3 7.62 C 0 km/h
2357 28-10-2010 04:00:00 7.66 C 5.06 g/m*3 7.66 C 0 km/h
2358 28-10-2010 05:00:00 7.52 C 5.05 g/m*3 7.52 C 0 km/h
2359 28-10-2010 06:00:00 7.98 C 4.41 g/m*3 7.98 C 0 km/h
2360 28-10-2010 07:00:00 8.48 C 4.31 g/m*3 8.48 C 0 km/h
2361 28-10-2010 08:00:00 8.7 C 4.67 g/m*3 8.7 C 0 km/h
2362 28-10-2010 09:00:00 8.86 C 4.91 g/m*3 8.86 C 0 km/h
2363 28-10-2010 10:00:00 7.9 C 6.09 g/m*3 7.9 C 0 km/h
2364 28-10-2010 11:00:00 9.7 C 5.97 g/m*3 9.7 C 0 km/h
2365 28-10-2010 12:00:00 10.72 C 5.78 g/m*3 10.72 C 0 km/h
2366 28-10-2010 13:00:00 11.34 C 5.69 g/m*3 11.34 C 0 km/h
2367 28-10-2010 14:00:00 12.3 C 5.67 g/m*3 12.3 C 0 km/h
2368 28-10-2010 15:00:00 12.72 C 5.66 g/m*3 12.72 C 0 km/h
2369 28-10-2010 16:00:00 11.62 C 6.12 g/m*3 11.62 C 0 km/h
2370 28-10-2010 17:00:00 11.08 C 6.14 g/m*3 11.08 C 0 km/h
2371 28-10-2010 18:00:00 9.86 C 6.13 g/m*3 9.86 C 0 km/h
2372 28-10-2010 19:00:00 9.18 C 6.22 g/m*3 9.18 C 0 km/h
2373 28-10-2010 20:00:00 9 C 6.24 g/m*3 9 C 0 km/h
2374 28-10-2010 21:00:00 8.38 C 6.3 g/m*3 8.38 C 0 km/h
2375 28-10-2010 22:00:00 7.56 C 6.36 g/m*3 7.56 C 0 km/h
Sensor: Nr:Datum:Temp:Abs-Feuchte:Windchill:Wind:
Aussen-T/F 2376 28-10-2010 23:00:00 6.78 C 6.32 g/m*3 6.78 C 0 km/h
2377 29-10-2010 00:00:00 6.26 C 6.26 g/m*3 6.26 C 0 km/h
2378 29-10-2010 01:00:00 6.28 C 6.4 g/m*3 6.28 C 0 km/h
2379 29-10-2010 02:00:00 6.46 C 6.57 g/m*3 6.46 C 0 km/h
2380 29-10-2010 03:00:00 7.23333 C 6.82 g/m*3 7.23 C 0 km/h
2381 02-11-2010 08:00:00 8.77778 C 6.98 g/m*3 8.78 C 0 km/h
2382 02-11-2010 09:00:00 9.9 C 6.85 g/m*3 9.9 C 0 km/h
2383 02-11-2010 10:00:00 11.04 C 6.74 g/m*3 11.04 C 0 km/h
2384 02-11-2010 11:00:00 11.88 C 6.43 g/m*3 11.88 C 0 km/h
2385 02-11-2010 12:00:00 12.52 C 6.49 g/m*3 12.52 C 0 km/h
2386 02-11-2010 13:00:00 12.72 C 6.33 g/m*3 12.72 C 0 km/h
2387 02-11-2010 14:00:00 12.8 C 6.36 g/m*3 12.8 C 0 km/h
2388 02-11-2010 15:00:00 12.92 C 6.39 g/m*3 12.92 C 0 km/h
2389 02-11-2010 16:00:00 12.34 C 6.44 g/m*3 12.34 C 0 km/h
2390 02-11-2010 17:00:00 11.34 C 6.61 g/m*3 11.34 C 0 km/h
2391 02-11-2010 18:00:00 11.22 C 6.66 g/m*3 11.22 C 0 km/h
2392 02-11-2010 19:00:00 11.46 C 6.66 g/m*3 11.46 C 0 km/h
2393 02-11-2010 20:00:00 11 C 7.01 g/m*3 11 C 0 km/h
2394 02-11-2010 21:00:00 10.94 C 7.18 g/m*3 10.94 C 0 km/h
2395 02-11-2010 22:00:00 11.08 C 7.42 g/m*3 11.08 C 0 km/h
2396 02-11-2010 23:00:00 11.14 C 7.57 g/m*3 11.14 C 0 km/h
2397 03-11-2010 00:00:00 11.32 C 7.66 g/m*3 11.32 C 0 km/h
2398 03-11-2010 01:00:00 10.88 C 7.49 g/m*3 10.88 C 0 km/h
2399 03-11-2010 02:00:00 11.68 C 7.56 g/m*3 11.68 C 0 km/h
2400 03-11-2010 03:00:00 12.06 C 7.34 g/m*3 12.06 C 0 km/h
Sensor: Nr:Datum:Temp:Abs-Feuchte:Windchill:Wind:
Aussen-T/F 2401 03-11-2010 04:00:00 12.44 C 7.47 g/m*3 12.44 C 0 km/h
2402 03-11-2010 05:00:00 12.72 C 7.49 g/m*3 12.72 C 0 km/h
2403 03-11-2010 06:00:00 12.66 C 7.62 g/m*3 12.66 C 0 km/h
2404 03-11-2010 07:00:00 12.76 C 7.66 g/m*3 12.76 C 0 km/h
2405 03-11-2010 08:00:00 13.28 C 7.57 g/m*3 13.28 C 0 km/h
2406 03-11-2010 09:00:00 13.78 C 7.64 g/m*3 13.78 C 0 km/h
2407 03-11-2010 10:00:00 14.2 C 7.55 g/m*3 14.2 C 0 km/h
2408 03-11-2010 11:00:00 14.42 C 7.65 g/m*3 14.42 C 0 km/h
2409 03-11-2010 12:00:00 13.94 C 7.74 g/m*3 13.94 C 0 km/h
2410 03-11-2010 13:00:00 13.54 C 7.83 g/m*3 13.54 C 0 km/h
2411 03-11-2010 14:00:00 13.66 C 7.94 g/m*3 13.66 C 0 km/h
2412 03-11-2010 15:00:00 13.78 C 8.07 g/m*3 13.78 C 0 km/h
2413 03-11-2010 16:00:00 13.46 C 8.1 g/m*3 13.46 C 0 km/h
2414 03-11-2010 17:00:00 13.06 C 8.2 g/m*3 13.06 C 0 km/h
2415 03-11-2010 18:00:00 12.66 C 8.31 g/m*3 12.66 C 0 km/h
2416 03-11-2010 19:00:00 12.96 C 8.26 g/m*3 12.96 C 0 km/h
2417 03-11-2010 20:00:00 13.38 C 8.2 g/m*3 13.38 C 0 km/h
2418 03-11-2010 21:00:00 13.54 C 8.16 g/m*3 13.54 C 0 km/h
2419 03-11-2010 22:00:00 14.1 C 8.16 g/m*3 14.1 C 0 km/h
2420 03-11-2010 23:00:00 14.2 C 8.4 g/m*3 14.2 C 0 km/h
2421 04-11-2010 00:00:00 14.3 C 8.77 g/m*3 14.3 C 0 km/h
2422 04-11-2010 01:00:00 14.74 C 9.06 g/m*3 14.74 C 0 km/h
2423 04-11-2010 02:00:00 14.96 C 9.06 g/m*3 14.96 C 0 km/h
2424 04-11-2010 03:00:00 15.16 C 9.12 g/m*3 15.16 C 0 km/h
2425 04-11-2010 04:00:00 15.22 C 9.3 g/m*3 15.22 C 0 km/h
Sensor: Nr:Datum:Temp:Abs-Feuchte:Windchill:Wind:
Aussen-T/F 2426 04-11-2010 05:00:00 15.54 C 9.41 g/m*3 15.54 C 0 km/h
2427 04-11-2010 06:00:00 15.7 C 9.61 g/m*3 15.7 C 0 km/h
2428 04-11-2010 07:00:00 15.92 C 9.52 g/m*3 15.92 C 0 km/h
2429 04-11-2010 08:00:00 16.2 C 9.43 g/m*3 16.2 C 0 km/h
2430 04-11-2010 09:00:00 16.64 C 9.06 g/m*3 16.64 C 0 km/h
2431 04-11-2010 10:00:00 17.24 C 8.84 g/m*3 17.24 C 0 km/h
2432 04-11-2010 11:00:00 17.82 C 8.45 g/m*3 17.82 C 0 km/h
2433 04-11-2010 12:00:00 18.44 C 8.17 g/m*3 18.44 C 0 km/h
2434 04-11-2010 13:00:00 18.54 C 8.18 g/m*3 18.54 C 0 km/h
2435 04-11-2010 14:00:00 18.44 C 8.01 g/m*3 18.44 C 0 km/h
2436 04-11-2010 15:00:00 18.24 C 8.13 g/m*3 18.24 C 0 km/h
2437 04-11-2010 16:00:00 17.52 C 8.42 g/m*3 17.52 C 0 km/h
2438 04-11-2010 17:00:00 16.92 C 8.44 g/m*3 16.92 C 0 km/h
2439 04-11-2010 18:00:00 16.78 C 8.43 g/m*3 16.78 C 0 km/h
2440 04-11-2010 19:00:00 16.92 C 8.47 g/m*3 16.92 C 0 km/h
2441 04-11-2010 20:00:00 16.12 C 8.12 g/m*3 16.12 C 0 km/h
2442 04-11-2010 21:00:00 15.74 C 8.05 g/m*3 15.74 C 0 km/h
2443 04-11-2010 22:00:00 15.38 C 7.87 g/m*3 15.38 C 0 km/h
2444 04-11-2010 23:00:00 15.4 C 7.88 g/m*3 15.4 C 0 km/h
2445 05-11-2010 00:00:00 15.34 C 7.88 g/m*3 15.34 C 0 km/h
2446 05-11-2010 01:00:00 15.14 C 7.53 g/m*3 15.14 C 0 km/h
2447 05-11-2010 02:00:00 14.74 C 7.45 g/m*3 14.74 C 0 km/h
2448 05-11-2010 03:00:00 14.46 C 7.37 g/m*3 14.46 C 0 km/h
2449 05-11-2010 04:00:00 14.2 C 7.38 g/m*3 14.2 C 0 km/h
2450 05-11-2010 05:00:00 14.14 C 7.18 g/m*3 14.14 C 0 km/h
Sensor: Nr:Datum:Temp:Abs-Feuchte:Windchill:Wind:
Aussen-T/F 2451 05-11-2010 06:00:00 13.82 C 7.13 g/m*3 13.82 C 0 km/h
2452 05-11-2010 07:00:00 13.46 C 6.95 g/m*3 13.46 C 0 km/h
2453 05-11-2010 08:00:00 13.88 C 6.61 g/m*3 13.88 C 0 km/h
2454 05-11-2010 09:00:00 14.52 C 6.72 g/m*3 14.52 C 0 km/h
2455 05-11-2010 10:00:00 14.9 C 6.88 g/m*3 14.9 C 0 km/h
2456 05-11-2010 11:00:00 15.22 C 6.99 g/m*3 15.22 C 0 km/h
2457 05-11-2010 12:00:00 15.14 C 7.09 g/m*3 15.14 C 0 km/h
2458 05-11-2010 13:00:00 15.1 C 7.1 g/m*3 15.1 C 0 km/h
2459 05-11-2010 14:00:00 14.8 C 7.4 g/m*3 14.8 C 0 km/h
2460 05-11-2010 15:00:00 14.6 C 7.48 g/m*3 14.6 C 0 km/h
2461 05-11-2010 16:00:00 14.56 C 7.49 g/m*3 14.56 C 0 km/h
2462 05-11-2010 17:00:00 14.64 C 7.55 g/m*3 14.64 C 0 km/h
2463 05-11-2010 18:00:00 14.76 C 7.58 g/m*3 14.76 C 0 km/h
2464 05-11-2010 19:00:00 14.36 C 7.57 g/m*3 14.36 C 0 km/h
2465 05-11-2010 20:00:00 14.44 C 7.58 g/m*3 14.44 C 0 km/h
2466 05-11-2010 21:00:00 14.28 C 7.61 g/m*3 14.28 C 0 km/h
2467 05-11-2010 22:00:00 14.02 C 7.58 g/m*3 14.02 C 0 km/h
2468 05-11-2010 23:00:00 13.94 C 7.57 g/m*3 13.94 C 0 km/h
2469 06-11-2010 00:00:00 14.04 C 7.57 g/m*3 14.04 C 0 km/h
2470 06-11-2010 01:00:00 14.02 C 7.61 g/m*3 14.02 C 0 km/h
2471 06-11-2010 02:00:00 13.38 C 7.69 g/m*3 13.38 C 0 km/h
2472 06-11-2010 03:00:00 12.9 C 7.98 g/m*3 12.9 C 0 km/h
2473 06-11-2010 04:00:00 12.78 C 8.12 g/m*3 12.78 C 0 km/h
2474 06-11-2010 05:00:00 13.12 C 8 g/m*3 13.12 C 0 km/h
2475 06-11-2010 06:00:00 13.46 C 7.86 g/m*3 13.46 C 0 km/h
Sensor: Nr:Datum:Temp:Abs-Feuchte:Windchill:Wind:
Aussen-T/F 2476 06-11-2010 07:00:00 13.48 C 7.57 g/m*3 13.48 C 0 km/h
2477 06-11-2010 08:00:00 13.34 C 7.5 g/m*3 13.34 C 0 km/h
2478 06-11-2010 09:00:00 11.92 C 7.55 g/m*3 11.92 C 0 km/h
2479 06-11-2010 10:00:00 10.18 C 7.93 g/m*3 10.18 C 0 km/h
2480 06-11-2010 11:00:00 10.58 C 8.19 g/m*3 10.58 C 0 km/h
2481 06-11-2010 12:00:00 9.78 C 7.67 g/m*3 9.78 C 0 km/h
2482 06-11-2010 13:00:00 9.08 C 7.46 g/m*3 9.08 C 0 km/h
2483 06-11-2010 14:00:00 8.92 C 7.67 g/m*3 8.92 C 0 km/h
2484 06-11-2010 15:00:00 8.64 C 7.67 g/m*3 8.64 C 0 km/h
2485 06-11-2010 16:00:00 8.2 C 7.54 g/m*3 8.2 C 0 km/h
2486 06-11-2010 17:00:00 7.84 C 7.49 g/m*3 7.84 C 0 km/h
2487 06-11-2010 18:00:00 7.44 C 7.34 g/m*3 7.44 C 0 km/h
2488 06-11-2010 19:00:00 7.42 C 7.41 g/m*3 7.42 C 0 km/h
2489 06-11-2010 20:00:00 7.2 C 7.3 g/m*3 7.2 C 0 km/h
2490 06-11-2010 21:00:00 7.26 C 7.33 g/m*3 7.26 C 0 km/h
2491 06-11-2010 22:00:00 7.48 C 7.43 g/m*3 7.48 C 0 km/h
2492 06-11-2010 23:00:00 7.36 C 7.38 g/m*3 7.36 C 0 km/h
2493 07-11-2010 00:00:00 7.22 C 7.31 g/m*3 7.22 C 0 km/h
2494 07-11-2010 01:00:00 7.18 C 7.29 g/m*3 7.18 C 0 km/h
2495 07-11-2010 02:00:00 6.98 C 7.24 g/m*3 6.98 C 0 km/h
2496 07-11-2010 03:00:00 7.3 C 7.4 g/m*3 7.3 C 0 km/h
2497 07-11-2010 04:00:00 7.18 C 7.34 g/m*3 7.18 C 0 km/h
2498 07-11-2010 05:00:00 6.8 C 7.19 g/m*3 6.8 C 0 km/h
2499 07-11-2010 06:00:00 6.48 C 7.04 g/m*3 6.48 C 0 km/h
2500 07-11-2010 07:00:00 6.7 C 7.14 g/m*3 6.7 C 0 km/h
Sensor: Nr:Datum:Temp:Abs-Feuchte:Windchill:Wind:
Aussen-T/F 2501 07-11-2010 08:00:00 7.16 C 7.28 g/m*3 7.16 C 0 km/h
2502 07-11-2010 09:00:00 7.46 C 7.47 g/m*3 7.46 C 0 km/h
2503 07-11-2010 10:00:00 7.82 C 7.68 g/m*3 7.82 C 0 km/h
2504 07-11-2010 11:00:00 8.06 C 7.67 g/m*3 8.06 C 0 km/h
2505 07-11-2010 12:00:00 8.74 C 7.87 g/m*3 8.74 C 0 km/h
2506 07-11-2010 13:00:00 8.48 C 7.5 g/m*3 8.48 C 0 km/h
2507 07-11-2010 14:00:00 8.22 C 7.43 g/m*3 8.22 C 0 km/h
2508 07-11-2010 15:00:00 7.5 C 7.17 g/m*3 7.5 C 0 km/h
2509 07-11-2010 16:00:00 6.82 C 6.97 g/m*3 6.82 C 0 km/h
2510 07-11-2010 17:00:00 6.76 C 7.02 g/m*3 6.76 C 0 km/h
2511 07-11-2010 18:00:00 6.58 C 6.94 g/m*3 6.58 C 0 km/h
2512 07-11-2010 19:00:00 5.72 C 6.61 g/m*3 5.72 C 0 km/h
2513 07-11-2010 20:00:00 5.18 C 6.4 g/m*3 5.18 C 0 km/h
2514 07-11-2010 21:00:00 4.98 C 6.32 g/m*3 4.98 C 0 km/h
2515 07-11-2010 22:00:00 4.9 C 6.32 g/m*3 4.9 C 0 km/h
2516 07-11-2010 23:00:00 4.64 C 6.22 g/m*3 4.64 C 0 km/h
2517 08-11-2010 00:00:00 4.04 C 5.95 g/m*3 4.04 C 0 km/h
2518 08-11-2010 01:00:00 4.12 C 5.97 g/m*3 4.12 C 0 km/h
2519 08-11-2010 02:00:00 4.04 C 5.97 g/m*3 4.04 C 0 km/h
2520 08-11-2010 03:00:00 4.46 C 6.16 g/m*3 4.46 C 0 km/h
2521 08-11-2010 04:00:00 4.4 C 6.14 g/m*3 4.4 C 0 km/h
2522 08-11-2010 05:00:00 4.6 C 6.22 g/m*3 4.6 C 0 km/h
2523 08-11-2010 06:00:00 4.86 C 6.33 g/m*3 4.86 C 0 km/h
2524 08-11-2010 07:00:00 4.74 C 6.26 g/m*3 4.74 C 0 km/h
2525 08-11-2010 08:00:00 4.96 C 6.34 g/m*3 4.96 C 0 km/h
Sensor: Nr:Datum:Temp:Abs-Feuchte:Windchill:Wind:
Aussen-T/F 2526 08-11-2010 09:00:00 5.84 C 6.58 g/m*3 5.84 C 0 km/h
2527 08-11-2010 10:00:00 7.08 C 6.5 g/m*3 7.08 C 0 km/h
2528 08-11-2010 11:00:00 7.26 C 5.75 g/m*3 7.26 C 0 km/h
2529 08-11-2010 12:00:00 6.78 C 5.3 g/m*3 6.78 C 0 km/h
2530 08-11-2010 13:00:00 7.24 C 5.15 g/m*3 7.24 C 0 km/h
2531 08-11-2010 14:00:00 6.88 C 4.74 g/m*3 6.88 C 0 km/h
2532 08-11-2010 15:00:00 5.6 C 4.67 g/m*3 5.6 C 0 km/h
2533 08-11-2010 16:00:00 2.98 C 4.87 g/m*3 2.98 C 0 km/h
2534 08-11-2010 17:00:00 2.08 C 4.85 g/m*3 2.08 C 0 km/h
2535 08-11-2010 18:00:00 1.46 C 4.79 g/m*3 1.46 C 0 km/h
2536 08-11-2010 19:00:00 2.26 C 5.11 g/m*3 2.26 C 0 km/h
2537 08-11-2010 20:00:00 3.5 C 5.42 g/m*3 3.5 C 0 km/h
2538 08-11-2010 21:00:00 3.9 C 5.56 g/m*3 3.9 C 0 km/h
2539 08-11-2010 22:00:00 4.22 C 5.72 g/m*3 4.22 C 0 km/h
2540 08-11-2010 23:00:00 4.44 C 5.62 g/m*3 4.44 C 0 km/h
2541 09-11-2010 00:00:00 4.24 C 5.65 g/m*3 4.24 C 0 km/h
2542 09-11-2010 01:00:00 4.2 C 5.73 g/m*3 4.2 C 0 km/h
2543 09-11-2010 02:00:00 4.2 C 5.79 g/m*3 4.2 C 0 km/h
2544 09-11-2010 03:00:00 4.46 C 5.97 g/m*3 4.46 C 0 km/h
2545 09-11-2010 04:00:00 4.44 C 5.96 g/m*3 4.44 C 0 km/h
2546 09-11-2010 05:00:00 4.74 C 6.08 g/m*3 4.74 C 0 km/h
2547 09-11-2010 06:00:00 5.1 C 6.16 g/m*3 5.1 C 0 km/h
2548 09-11-2010 07:00:00 5.58 C 6.24 g/m*3 5.58 C 0 km/h
2549 09-11-2010 08:00:00 6.42 C 6.09 g/m*3 6.42 C 0 km/h
2550 09-11-2010 09:00:00 6.9 C 6.1 g/m*3 6.9 C 0 km/h
Sensor: Nr:Datum:Temp:Abs-Feuchte:Windchill:Wind:
Aussen-T/F 2551 09-11-2010 10:00:00 7.9 C 6.26 g/m*3 7.9 C 0 km/h
2552 09-11-2010 11:00:00 9.16 C 6.29 g/m*3 9.16 C 0 km/h
2553 09-11-2010 12:00:00 9.52 C 6.43 g/m*3 9.52 C 0 km/h
2554 09-11-2010 13:00:00 9.66 C 6.47 g/m*3 9.66 C 0 km/h
2555 09-11-2010 14:00:00 8.86 C 6.85 g/m*3 8.86 C 0 km/h
2556 09-11-2010 15:00:00 8.42 C 7.07 g/m*3 8.42 C 0 km/h
2557 09-11-2010 16:00:00 7.92 C 7.19 g/m*3 7.92 C 0 km/h
2558 09-11-2010 17:00:00 7.3 C 7.05 g/m*3 7.3 C 0 km/h
2559 09-11-2010 18:00:00 6.64 C 6.83 g/m*3 6.64 C 0 km/h
2560 09-11-2010 19:00:00 6.86 C 7.02 g/m*3 6.86 C 0 km/h
2561 09-11-2010 20:00:00 6.78 C 7.03 g/m*3 6.78 C 0 km/h
2562 09-11-2010 21:00:00 6.84 C 7.05 g/m*3 6.84 C 0 km/h
2563 09-11-2010 22:00:00 6.78 C 7.03 g/m*3 6.78 C 0 km/h
2564 09-11-2010 23:00:00 6.84 C 7.05 g/m*3 6.84 C 0 km/h
2565 10-11-2010 00:00:00 6.56 C 6.93 g/m*3 6.56 C 0 km/h
2566 10-11-2010 01:00:00 6.92 C 7.14 g/m*3 6.92 C 0 km/h
2567 10-11-2010 02:00:00 6.9 C 7.14 g/m*3 6.9 C 0 km/h
2568 10-11-2010 03:00:00 7.1 C 7.18 g/m*3 7.1 C 0 km/h
2569 10-11-2010 04:00:00 6.88 C 7.12 g/m*3 6.88 C 0 km/h
2570 10-11-2010 05:00:00 6.9 C 7.13 g/m*3 6.9 C 0 km/h
2571 10-11-2010 06:00:00 6.82 C 7.09 g/m*3 6.82 C 0 km/h
2572 10-11-2010 07:00:00 6.34 C 6.87 g/m*3 6.34 C 0 km/h
2573 10-11-2010 08:00:00 6.72 C 7.05 g/m*3 6.72 C 0 km/h
2574 10-11-2010 09:00:00 8.22 C 7.56 g/m*3 8.22 C 0 km/h
2575 10-11-2010 10:00:00 9.6 C 6.93 g/m*3 9.6 C 0 km/h
Sensor: Nr:Datum:Temp:Abs-Feuchte:Windchill:Wind:
Aussen-T/F 2576 10-11-2010 11:00:00 9.64 C 6.48 g/m*3 9.64 C 0 km/h
2577 10-11-2010 12:00:00 10.18 C 6.48 g/m*3 10.18 C 0 km/h
2578 10-11-2010 13:00:00 11.08 C 6.16 g/m*3 11.08 C 0 km/h
2579 10-11-2010 14:00:00 10.52 C 6.02 g/m*3 10.52 C 0 km/h
2580 10-11-2010 15:00:00 7.86 C 6.41 g/m*3 7.86 C 0 km/h
2581 10-11-2010 16:00:00 6.24 C 6.18 g/m*3 6.24 C 0 km/h
2582 10-11-2010 17:00:00 5.94 C 5.81 g/m*3 5.94 C 0 km/h
2583 10-11-2010 18:00:00 5.22 C 5.67 g/m*3 5.22 C 0 km/h
2584 10-11-2010 19:00:00 5.2 C 5.63 g/m*3 5.2 C 0 km/h
2585 10-11-2010 20:00:00 5.34 C 5.5 g/m*3 5.34 C 0 km/h
2586 10-11-2010 21:00:00 4.46 C 5.52 g/m*3 4.46 C 0 km/h
2587 10-11-2010 22:00:00 4.55 C 5.59 g/m*3 4.55 C 0 km/h
2588 10-11-2010 23:00:00 4.3 C 5.34 g/m*3 4.3 C 0 km/h
2589 11-11-2010 00:00:00 4.6 C 5.29 g/m*3 4.6 C 0 km/h
2590 11-11-2010 01:00:00 4.5 C 5.44 g/m*3 4.5 C 0 km/h
2591 11-11-2010 02:00:00 5.02 C 5.42 g/m*3 5.02 C 0 km/h
2592 11-11-2010 03:00:00 4.84 C 5.23 g/m*3 4.84 C 0 km/h
2593 11-11-2010 04:00:00 4.3 C 5.24 g/m*3 4.3 C 0 km/h
2594 11-11-2010 05:00:00 4.12 C 5.2 g/m*3 4.12 C 0 km/h
2595 11-11-2010 06:00:00 3.7 C 5.01 g/m*3 3.7 C 0 km/h
2596 11-11-2010 07:00:00 3.56 C 4.98 g/m*3 3.56 C 0 km/h
2597 11-11-2010 08:00:00 2.32 C 4.71 g/m*3 2.32 C 0 km/h
2598 11-11-2010 09:00:00 3.66 C 5.28 g/m*3 3.66 C 0 km/h
2599 11-11-2010 10:00:00 5.58 C 4.59 g/m*3 5.58 C 0 km/h
2600 11-11-2010 11:00:00 6.94 C 3.78 g/m*3 6.94 C 0 km/h
Sensor: Nr:Datum:Temp:Abs-Feuchte:Windchill:Wind:
Aussen-T/F 2601 11-11-2010 12:00:00 7.46 C 3.98 g/m*3 7.46 C 0 km/h
2602 11-11-2010 13:00:00 7.7 C 4.15 g/m*3 7.7 C 0 km/h
2603 11-11-2010 14:00:00 7.36 C 4.24 g/m*3 7.36 C 0 km/h
2604 11-11-2010 15:00:00 6.8 C 4.45 g/m*3 6.8 C 0 km/h
2605 11-11-2010 16:00:00 5.54 C 5.08 g/m*3 5.54 C 0 km/h
2606 11-11-2010 17:00:00 5.28 C 5.48 g/m*3 5.28 C 0 km/h
2607 11-11-2010 18:00:00 5.64 C 5.87 g/m*3 5.64 C 0 km/h
2608 11-11-2010 19:00:00 6.22 C 6.27 g/m*3 6.22 C 0 km/h
2609 11-11-2010 20:00:00 7.5 C 6.34 g/m*3 7.5 C 0 km/h
2610 11-11-2010 21:00:00 8.44 C 6.57 g/m*3 8.44 C 0 km/h
2611 11-11-2010 22:00:00 9.34 C 7.23 g/m*3 9.34 C 0 km/h
2612 11-11-2010 23:00:00 9.78 C 7.69 g/m*3 9.78 C 0 km/h
2613 12-11-2010 00:00:00 9.74 C 6.82 g/m*3 9.74 C 0 km/h
2614 12-11-2010 01:00:00 9.84 C 5.93 g/m*3 9.84 C 0 km/h
2615 12-11-2010 02:00:00 9.88 C 5.63 g/m*3 9.88 C 0 km/h
2616 12-11-2010 03:00:00 9.6 C 5.81 g/m*3 9.6 C 0 km/h
2617 12-11-2010 04:00:00 9.8 C 5.6 g/m*3 9.8 C 0 km/h
2618 12-11-2010 05:00:00 9.94 C 5.77 g/m*3 9.94 C 0 km/h
2619 12-11-2010 06:00:00 10.62 C 5.77 g/m*3 10.62 C 0 km/h
2620 12-11-2010 07:00:00 10.62 C 5.8 g/m*3 10.62 C 0 km/h
2621 12-11-2010 08:00:00 10.7 C 5.81 g/m*3 10.7 C 0 km/h
2622 12-11-2010 09:00:00 10.84 C 5.85 g/m*3 10.84 C 0 km/h
2623 12-11-2010 10:00:00 10.7 C 6.11 g/m*3 10.7 C 0 km/h
2624 12-11-2010 11:00:00 11.42 C 6.08 g/m*3 11.42 C 0 km/h
2625 12-11-2010 12:00:00 11.88 C 5.99 g/m*3 11.88 C 0 km/h
Sensor: Nr:Datum:Temp:Abs-Feuchte:Windchill:Wind:
Aussen-T/F 2626 12-11-2010 13:00:00 11.64 C 6.29 g/m*3 11.64 C 0 km/h
2627 12-11-2010 14:00:00 11.6 C 6.55 g/m*3 11.6 C 0 km/h
2628 12-11-2010 15:00:00 11.6 C 6.57 g/m*3 11.6 C 0 km/h
2629 12-11-2010 16:00:00 11.54 C 6.73 g/m*3 11.54 C 0 km/h
2630 12-11-2010 17:00:00 11.16 C 7.2 g/m*3 11.16 C 0 km/h
2631 12-11-2010 18:00:00 10.48 C 7.73 g/m*3 10.48 C 0 km/h
2632 12-11-2010 19:00:00 10.52 C 8.29 g/m*3 10.52 C 0 km/h
2633 12-11-2010 20:00:00 11.52 C 8.77 g/m*3 11.52 C 0 km/h
2634 12-11-2010 21:00:00 12.16 C 9.28 g/m*3 12.16 C 0 km/h
2635 12-11-2010 22:00:00 13.3 C 9.22 g/m*3 13.3 C 0 km/h
2636 12-11-2010 23:00:00 13.88 C 8.69 g/m*3 13.88 C 0 km/h
2637 13-11-2010 00:00:00 13.82 C 8.85 g/m*3 13.82 C 0 km/h
2638 13-11-2010 01:00:00 13.86 C 9.06 g/m*3 13.86 C 0 km/h
2639 13-11-2010 02:00:00 13.78 C 9.28 g/m*3 13.78 C 0 km/h
2640 13-11-2010 03:00:00 14.2 C 9.33 g/m*3 14.2 C 0 km/h
2641 13-11-2010 04:00:00 14.14 C 9.25 g/m*3 14.14 C 0 km/h
2642 13-11-2010 05:00:00 14.5 C 9.1 g/m*3 14.5 C 0 km/h
2643 13-11-2010 06:00:00 14.62 C 9.05 g/m*3 14.62 C 0 km/h
2644 13-11-2010 07:00:00 14.72 C 9 g/m*3 14.72 C 0 km/h
2645 13-11-2010 08:00:00 14.72 C 9 g/m*3 14.72 C 0 km/h
2646 13-11-2010 09:00:00 14.18 C 9.15 g/m*3 14.18 C 0 km/h
2647 13-11-2010 10:00:00 14.32 C 9.23 g/m*3 14.32 C 0 km/h
2648 13-11-2010 11:00:00 14.76 C 9 g/m*3 14.76 C 0 km/h
2649 13-11-2010 12:00:00 14.8 C 8.84 g/m*3 14.8 C 0 km/h
2650 13-11-2010 13:00:00 14.76 C 8.85 g/m*3 14.76 C 0 km/h
Sensor: Nr:Datum:Temp:Abs-Feuchte:Windchill:Wind:
Aussen-T/F 2651 13-11-2010 14:00:00 14.78 C 8.68 g/m*3 14.78 C 0 km/h
2652 13-11-2010 15:00:00 14.82 C 8.55 g/m*3 14.82 C 0 km/h
2653 13-11-2010 16:00:00 14.68 C 8.68 g/m*3 14.68 C 0 km/h
2654 13-11-2010 17:00:00 14.26 C 8.75 g/m*3 14.26 C 0 km/h
2655 13-11-2010 18:00:00 14.68 C 8.7 g/m*3 14.68 C 0 km/h
2656 13-11-2010 19:00:00 14.94 C 8.51 g/m*3 14.94 C 0 km/h
2657 13-11-2010 20:00:00 15 C 8.28 g/m*3 15 C 0 km/h
2658 13-11-2010 21:00:00 14.52 C 8.39 g/m*3 14.52 C 0 km/h
2659 13-11-2010 22:00:00 14.86 C 8.11 g/m*3 14.86 C 0 km/h
2660 13-11-2010 23:00:00 14.74 C 8.05 g/m*3 14.74 C 0 km/h
2661 14-11-2010 00:00:00 15.08 C 8.07 g/m*3 15.08 C 0 km/h
2662 14-11-2010 01:00:00 14.24 C 8.27 g/m*3 14.24 C 0 km/h
2663 14-11-2010 02:00:00 13.58 C 8.7 g/m*3 13.58 C 0 km/h
2664 14-11-2010 03:00:00 14.36 C 8.39 g/m*3 14.36 C 0 km/h
2665 14-11-2010 04:00:00 14.02 C 8.38 g/m*3 14.02 C 0 km/h
2666 14-11-2010 05:00:00 13.9 C 8.46 g/m*3 13.9 C 0 km/h
2667 14-11-2010 06:00:00 13.42 C 8.36 g/m*3 13.42 C 0 km/h
2668 14-11-2010 07:00:00 11.92 C 8 g/m*3 11.92 C 0 km/h
2669 14-11-2010 08:00:00 12.66 C 7.53 g/m*3 12.66 C 0 km/h
2670 14-11-2010 09:00:00 14.28 C 7.24 g/m*3 14.28 C 0 km/h
2671 14-11-2010 10:00:00 15.02 C 7.22 g/m*3 15.02 C 0 km/h
2672 14-11-2010 11:00:00 15.44 C 7.22 g/m*3 15.44 C 0 km/h
2673 14-11-2010 12:00:00 16.16 C 7.4 g/m*3 16.16 C 0 km/h
2674 14-11-2010 13:00:00 17.46 C 7.44 g/m*3 17.46 C 0 km/h
2675 14-11-2010 14:00:00 17.64 C 7.25 g/m*3 17.64 C 0 km/h
Sensor: Nr:Datum:Temp:Abs-Feuchte:Windchill:Wind:
Aussen-T/F 2676 14-11-2010 15:00:00 17.7 C 7.12 g/m*3 17.7 C 0 km/h
2677 14-11-2010 16:00:00 15.72 C 7.64 g/m*3 15.72 C 0 km/h
2678 14-11-2010 17:00:00 14.74 C 8.13 g/m*3 14.74 C 0 km/h
2679 14-11-2010 18:00:00 14.16 C 8.02 g/m*3 14.16 C 0 km/h
2680 14-11-2010 19:00:00 13.96 C 7.89 g/m*3 13.96 C 0 km/h
2681 14-11-2010 20:00:00 14.02 C 7.68 g/m*3 14.02 C 0 km/h
2682 14-11-2010 21:00:00 13.92 C 7.27 g/m*3 13.92 C 0 km/h
2683 14-11-2010 22:00:00 13.78 C 7.09 g/m*3 13.78 C 0 km/h
2684 14-11-2010 23:00:00 13.42 C 6.94 g/m*3 13.42 C 0 km/h
2685 15-11-2010 00:00:00 12.88 C 6.98 g/m*3 12.88 C 0 km/h
2686 15-11-2010 01:00:00 12.22 C 6.91 g/m*3 12.22 C 0 km/h
2687 15-11-2010 02:00:00 11.78 C 6.92 g/m*3 11.78 C 0 km/h
2688 15-11-2010 03:00:00 10.9 C 7.02 g/m*3 10.9 C 0 km/h
2689 15-11-2010 04:00:00 10.24 C 6.95 g/m*3 10.24 C 0 km/h
2690 15-11-2010 05:00:00 9.92 C 6.53 g/m*3 9.92 C 0 km/h
2691 15-11-2010 06:00:00 9.34 C 6.27 g/m*3 9.34 C 0 km/h
2692 15-11-2010 07:00:00 8.96 C 6.42 g/m*3 8.96 C 0 km/h
2693 15-11-2010 08:00:00 9.1 C 6.28 g/m*3 9.1 C 0 km/h
2694 15-11-2010 09:00:00 9.16 C 6.07 g/m*3 9.16 C 0 km/h
2695 15-11-2010 10:00:00 9.82 C 5.87 g/m*3 9.82 C 0 km/h
2696 15-11-2010 11:00:00 10.3 C 5.75 g/m*3 10.3 C 0 km/h
2697 15-11-2010 12:00:00 10.84 C 5.57 g/m*3 10.84 C 0 km/h
2698 15-11-2010 13:00:00 10.48 C 5.62 g/m*3 10.48 C 0 km/h
2699 15-11-2010 14:00:00 10.24 C 5.5 g/m*3 10.24 C 0 km/h
2700 15-11-2010 15:00:00 9.68 C 5.54 g/m*3 9.68 C 0 km/h
Sensor: Nr:Datum:Temp:Abs-Feuchte:Windchill:Wind:
Aussen-T/F 2701 15-11-2010 16:00:00 8.96 C 5.7 g/m*3 8.96 C 0 km/h
2702 15-11-2010 17:00:00 8.16 C 5.81 g/m*3 8.16 C 0 km/h
2703 15-11-2010 18:00:00 8.14 C 5.89 g/m*3 8.14 C 0 km/h
2704 15-11-2010 19:00:00 7.98 C 5.88 g/m*3 7.98 C 0 km/h
2705 15-11-2010 20:00:00 7.6 C 5.95 g/m*3 7.6 C 0 km/h
2706 15-11-2010 21:00:00 7.16 C 5.93 g/m*3 7.16 C 0 km/h
2707 15-11-2010 22:00:00 6.94 C 5.97 g/m*3 6.94 C 0 km/h
2708 15-11-2010 23:00:00 6.68 C 5.99 g/m*3 6.68 C 0 km/h
2709 16-11-2010 00:00:00 5.88 C 5.95 g/m*3 5.88 C 0 km/h
2710 16-11-2010 01:00:00 5.2 C 5.87 g/m*3 5.2 C 0 km/h
2711 16-11-2010 02:00:00 5.48 C 6.1 g/m*3 5.48 C 0 km/h
2712 16-11-2010 03:00:00 5.86 C 6.21 g/m*3 5.86 C 0 km/h
2713 16-11-2010 04:00:00 5.22 C 5.97 g/m*3 5.22 C 0 km/h
2714 16-11-2010 05:00:00 5.5 C 6.07 g/m*3 5.5 C 0 km/h
2715 16-11-2010 06:00:00 5.22 C 5.83 g/m*3 5.22 C 0 km/h
2716 16-11-2010 07:00:00 5.18 C 5.79 g/m*3 5.18 C 0 km/h
2717 16-11-2010 08:00:00 5.42 C 5.83 g/m*3 5.42 C 0 km/h
2718 16-11-2010 09:00:00 5.88 C 5.82 g/m*3 5.88 C 0 km/h
2719 16-11-2010 10:00:00 6.26 C 5.74 g/m*3 6.26 C 0 km/h
2720 16-11-2010 11:00:00 6.56 C 5.65 g/m*3 6.56 C 0 km/h
2721 16-11-2010 12:00:00 7.34 C 5.53 g/m*3 7.34 C 0 km/h
2722 16-11-2010 13:00:00 7.54 C 5.59 g/m*3 7.54 C 0 km/h
2723 16-11-2010 14:00:00 7.68 C 5.52 g/m*3 7.68 C 0 km/h
2724 16-11-2010 15:00:00 7.24 C 5.51 g/m*3 7.24 C 0 km/h
2725 16-11-2010 16:00:00 7.08 C 5.53 g/m*3 7.08 C 0 km/h
Sensor: Nr:Datum:Temp:Abs-Feuchte:Windchill:Wind:
Aussen-T/F 2726 16-11-2010 17:00:00 6.8 C 5.64 g/m*3 6.8 C 0 km/h
2727 16-11-2010 18:00:00 6.22 C 5.67 g/m*3 6.22 C 0 km/h
2728 16-11-2010 19:00:00 5.92 C 5.75 g/m*3 5.92 C 0 km/h
2729 16-11-2010 20:00:00 5.56 C 5.71 g/m*3 5.56 C 0 km/h
2730 16-11-2010 21:00:00 5.42 C 5.66 g/m*3 5.42 C 0 km/h
2731 16-11-2010 22:00:00 5.24 C 5.61 g/m*3 5.24 C 0 km/h
2732 16-11-2010 23:00:00 4.6 C 5.58 g/m*3 4.6 C 0 km/h
2733 17-11-2010 00:00:00 4.78 C 5.72 g/m*3 4.78 C 0 km/h
2734 17-11-2010 01:00:00 5.08 C 5.62 g/m*3 5.08 C 0 km/h
2735 17-11-2010 02:00:00 5 C 5.59 g/m*3 5 C 0 km/h
2736 17-11-2010 03:00:00 4.92 C 5.66 g/m*3 4.92 C 0 km/h
2737 17-11-2010 04:00:00 4.8 C 5.65 g/m*3 4.8 C 0 km/h
2738 17-11-2010 05:00:00 4.74 C 5.72 g/m*3 4.74 C 0 km/h
2739 17-11-2010 06:00:00 4.7 C 5.73 g/m*3 4.7 C 0 km/h
2740 17-11-2010 07:00:00 4.72 C 5.67 g/m*3 4.72 C 0 km/h
2741 17-11-2010 08:00:00 5.1 C 4.98 g/m*3 5.1 C 0 km/h
2742 17-11-2010 09:00:00 5.56 C 4.64 g/m*3 5.56 C 0 km/h
2743 17-11-2010 10:00:00 5.78 C 4.66 g/m*3 5.78 C 0 km/h
2744 17-11-2010 11:00:00 6.04 C 4.6 g/m*3 6.04 C 0 km/h
2745 17-11-2010 12:00:00 6.28 C 4.6 g/m*3 6.28 C 0 km/h
2746 17-11-2010 13:00:00 6.54 C 4.63 g/m*3 6.54 C 0 km/h
2747 17-11-2010 14:00:00 6.18 C 4.55 g/m*3 6.18 C 0 km/h
2748 17-11-2010 15:00:00 5.86 C 4.67 g/m*3 5.86 C 0 km/h
2749 17-11-2010 16:00:00 5.54 C 4.8 g/m*3 5.54 C 0 km/h
2750 17-11-2010 17:00:00 5.26 C 4.91 g/m*3 5.26 C 0 km/h
Sensor: Nr:Datum:Temp:Abs-Feuchte:Windchill:Wind:
Aussen-T/F 2751 17-11-2010 18:00:00 5.2 C 4.97 g/m*3 5.2 C 0 km/h
2752 17-11-2010 19:00:00 5.3 C 4.99 g/m*3 5.3 C 0 km/h
2753 17-11-2010 20:00:00 5.3 C 5.12 g/m*3 5.3 C 0 km/h
2754 17-11-2010 21:00:00 5.26 C 5.21 g/m*3 5.26 C 0 km/h
2755 17-11-2010 22:00:00 5.04 C 5.34 g/m*3 5.04 C 0 km/h
2756 17-11-2010 23:00:00 4.52 C 5.58 g/m*3 4.52 C 0 km/h
2757 18-11-2010 00:00:00 4.56 C 5.74 g/m*3 4.56 C 0 km/h
2758 18-11-2010 01:00:00 4.28 C 5.71 g/m*3 4.28 C 0 km/h
2759 18-11-2010 02:00:00 4.28 C 5.77 g/m*3 4.28 C 0 km/h
2760 18-11-2010 03:00:00 4.06 C 5.75 g/m*3 4.06 C 0 km/h
2761 18-11-2010 04:00:00 4.28 C 5.88 g/m*3 4.28 C 0 km/h
2762 18-11-2010 05:00:00 4.28 C 5.89 g/m*3 4.28 C 0 km/h
2763 18-11-2010 06:00:00 3.92 C 5.81 g/m*3 3.92 C 0 km/h
2764 18-11-2010 07:00:00 3.98 C 5.84 g/m*3 3.98 C 0 km/h
2765 18-11-2010 08:00:00 4.22 C 5.94 g/m*3 4.22 C 0 km/h
2766 18-11-2010 09:00:00 4.94 C 6.2 g/m*3 4.94 C 0 km/h
2767 18-11-2010 10:00:00 5.96 C 6.24 g/m*3 5.96 C 0 km/h
2768 18-11-2010 11:00:00 6.9 C 6.02 g/m*3 6.9 C 0 km/h
2769 18-11-2010 12:00:00 7.54 C 5.92 g/m*3 7.54 C 0 km/h
2770 18-11-2010 13:00:00 8.36 C 5.7 g/m*3 8.36 C 0 km/h
2771 18-11-2010 14:00:00 8.14 C 5.32 g/m*3 8.14 C 0 km/h
2772 18-11-2010 15:00:00 7.76 C 5.39 g/m*3 7.76 C 0 km/h
2773 18-11-2010 16:00:00 6.9 C 5.77 g/m*3 6.9 C 0 km/h
2774 18-11-2010 17:00:00 6.12 C 5.87 g/m*3 6.12 C 0 km/h
2775 18-11-2010 18:00:00 6.2 C 6.02 g/m*3 6.2 C 0 km/h
Sensor: Nr:Datum:Temp:Abs-Feuchte:Windchill:Wind:
Aussen-T/F 2776 18-11-2010 19:00:00 5.94 C 6.01 g/m*3 5.94 C 0 km/h
2777 18-11-2010 20:00:00 5.58 C 6.23 g/m*3 5.58 C 0 km/h
2778 18-11-2010 21:00:00 5.52 C 6.27 g/m*3 5.52 C 0 km/h
2779 18-11-2010 22:00:00 5.5 C 6.32 g/m*3 5.5 C 0 km/h
2780 18-11-2010 23:00:00 5.64 C 6.42 g/m*3 5.64 C 0 km/h
2781 19-11-2010 00:00:00 5.66 C 6.26 g/m*3 5.66 C 0 km/h
2782 19-11-2010 01:00:00 5.58 C 6.11 g/m*3 5.58 C 0 km/h
2783 19-11-2010 02:00:00 5.34 C 6.17 g/m*3 5.34 C 0 km/h
2784 19-11-2010 03:00:00 5.12 C 6.08 g/m*3 5.12 C 0 km/h
2785 19-11-2010 04:00:00 5.04 C 6.05 g/m*3 5.04 C 0 km/h
2786 19-11-2010 05:00:00 4.94 C 6.04 g/m*3 4.94 C 0 km/h
2787 19-11-2010 06:00:00 4.9 C 6.02 g/m*3 4.9 C 0 km/h
2788 19-11-2010 07:00:00 5.14 C 6.1 g/m*3 5.14 C 0 km/h
2789 19-11-2010 08:00:00 5.44 C 6.23 g/m*3 5.44 C 0 km/h
2790 19-11-2010 09:00:00 6.32 C 6.26 g/m*3 6.32 C 0 km/h
2791 19-11-2010 10:00:00 7.62 C 6.28 g/m*3 7.62 C 0 km/h
2792 19-11-2010 11:00:00 8.84 C 6.06 g/m*3 8.84 C 0 km/h
2793 19-11-2010 12:00:00 9.52 C 5.85 g/m*3 9.52 C 0 km/h
2794 19-11-2010 13:00:00 9.74 C 5.82 g/m*3 9.74 C 0 km/h
2795 19-11-2010 14:00:00 9.94 C 5.69 g/m*3 9.94 C 0 km/h
2796 19-11-2010 15:00:00 8.5 C 5.93 g/m*3 8.5 C 0 km/h
2797 19-11-2010 16:00:00 7.04 C 6.23 g/m*3 7.04 C 0 km/h
2798 19-11-2010 17:00:00 7.58 C 6.31 g/m*3 7.58 C 0 km/h
2799 19-11-2010 18:00:00 7.62 C 6.32 g/m*3 7.62 C 0 km/h
2800 19-11-2010 19:00:00 6.96 C 6.23 g/m*3 6.96 C 0 km/h
Sensor: Nr:Datum:Temp:Abs-Feuchte:Windchill:Wind:
Aussen-T/F 2801 19-11-2010 20:00:00 5.1 C 5.91 g/m*3 5.1 C 0 km/h
2802 19-11-2010 21:00:00 3.86 C 5.62 g/m*3 3.86 C 0 km/h
2803 19-11-2010 22:00:00 3.92 C 5.74 g/m*3 3.92 C 0 km/h
2804 19-11-2010 23:00:00 4.54 C 6.02 g/m*3 4.54 C 0 km/h
2805 20-11-2010 00:00:00 4.04 C 5.86 g/m*3 4.04 C 0 km/h
2806 20-11-2010 01:00:00 4.18 C 5.92 g/m*3 4.18 C 0 km/h
2807 20-11-2010 02:00:00 1.94 C 5.11 g/m*3 1.94 C 0 km/h
2808 20-11-2010 03:00:00 1.34 C 4.91 g/m*3 1.34 C 0 km/h
2809 20-11-2010 04:00:00 2.64 C 5.37 g/m*3 2.64 C 0 km/h
2810 20-11-2010 05:00:00 3.34 C 5.65 g/m*3 3.34 C 0 km/h
2811 20-11-2010 06:00:00 3.76 C 5.82 g/m*3 3.76 C 0 km/h
2812 20-11-2010 07:00:00 4.06 C 5.94 g/m*3 4.06 C 0 km/h
2813 20-11-2010 08:00:00 4.4 C 6.07 g/m*3 4.4 C 0 km/h
2814 20-11-2010 09:00:00 5.04 C 6.32 g/m*3 5.04 C 0 km/h
2815 20-11-2010 10:00:00 6.02 C 6.63 g/m*3 6.02 C 0 km/h
2816 20-11-2010 11:00:00 7.46 C 6.75 g/m*3 7.46 C 0 km/h
2817 20-11-2010 12:00:00 9.1 C 6.67 g/m*3 9.1 C 0 km/h
2818 20-11-2010 13:00:00 8.88 C 6.37 g/m*3 8.88 C 0 km/h
2819 20-11-2010 14:00:00 8.78 C 6.29 g/m*3 8.78 C 0 km/h
2820 20-11-2010 15:00:00 7.76 C 6.19 g/m*3 7.76 C 0 km/h
2821 20-11-2010 16:00:00 5.34 C 5.87 g/m*3 5.34 C 0 km/h
2822 20-11-2010 17:00:00 4.6 C 5.9 g/m*3 4.6 C 0 km/h
2823 20-11-2010 18:00:00 4.4 C 5.9 g/m*3 4.4 C 0 km/h
2824 20-11-2010 19:00:00 3.92 C 5.75 g/m*3 3.92 C 0 km/h
2825 20-11-2010 20:00:00 3.28 C 5.55 g/m*3 3.28 C 0 km/h
Sensor: Nr:Datum:Temp:Abs-Feuchte:Windchill:Wind:
Aussen-T/F 2826 20-11-2010 21:00:00 3.26 C 5.57 g/m*3 3.26 C 0 km/h
2827 20-11-2010 22:00:00 4.32 C 5.98 g/m*3 4.32 C 0 km/h
2828 20-11-2010 23:00:00 4.12 C 5.92 g/m*3 4.12 C 0 km/h
2829 21-11-2010 00:00:00 4.32 C 5.96 g/m*3 4.32 C 0 km/h
2830 21-11-2010 01:00:00 4.48 C 5.75 g/m*3 4.48 C 0 km/h
2831 21-11-2010 02:00:00 4.44 C 5.43 g/m*3 4.44 C 0 km/h
2832 21-11-2010 03:00:00 4.5 C 5.28 g/m*3 4.5 C 0 km/h
2833 21-11-2010 04:00:00 4.56 C 5.06 g/m*3 4.56 C 0 km/h
2834 21-11-2010 05:00:00 4.5 C 4.94 g/m*3 4.5 C 0 km/h
2835 21-11-2010 06:00:00 4.4 C 4.92 g/m*3 4.4 C 0 km/h
2836 21-11-2010 07:00:00 4.38 C 5.05 g/m*3 4.38 C 0 km/h
2837 21-11-2010 08:00:00 4.7 C 5.14 g/m*3 4.7 C 0 km/h
2838 21-11-2010 09:00:00 5 C 4.92 g/m*3 5 C 0 km/h
2839 21-11-2010 10:00:00 5.36 C 4.82 g/m*3 5.36 C 0 km/h
2840 21-11-2010 11:00:00 5.3 C 4.63 g/m*3 5.3 C 0 km/h
2841 21-11-2010 12:00:00 5.1 C 4.53 g/m*3 5.1 C 0 km/h
2842 21-11-2010 13:00:00 5.12 C 4.45 g/m*3 5.12 C 0 km/h
2843 21-11-2010 14:00:00 4.88 C 4.42 g/m*3 4.88 C 0 km/h
2844 21-11-2010 15:00:00 4.44 C 4.28 g/m*3 4.44 C 0 km/h
2845 21-11-2010 16:00:00 4.16 C 4.38 g/m*3 4.16 C 0 km/h
2846 21-11-2010 17:00:00 3.96 C 4.5 g/m*3 3.96 C 0 km/h
2847 21-11-2010 18:00:00 3.96 C 4.57 g/m*3 3.96 C 0 km/h
2848 21-11-2010 19:00:00 4.06 C 4.61 g/m*3 4.06 C 0 km/h
2849 21-11-2010 20:00:00 4.3 C 4.55 g/m*3 4.3 C 0 km/h
2850 21-11-2010 21:00:00 4.16 C 4.5 g/m*3 4.16 C 0 km/h
Sensor: Nr:Datum:Temp:Abs-Feuchte:Windchill:Wind:
Aussen-T/F 2851 21-11-2010 22:00:00 3.76 C 4.66 g/m*3 3.76 C 0 km/h
2852 21-11-2010 23:00:00 3.76 C 4.81 g/m*3 3.76 C 0 km/h
2853 22-11-2010 00:00:00 4.06 C 4.93 g/m*3 4.06 C 0 km/h
2854 22-11-2010 01:00:00 4.08 C 4.92 g/m*3 4.08 C 0 km/h
2855 22-11-2010 02:00:00 4.16 C 4.97 g/m*3 4.16 C 0 km/h
2856 22-11-2010 03:00:00 4.46 C 5.06 g/m*3 4.46 C 0 km/h
2857 22-11-2010 04:00:00 4.86 C 5.01 g/m*3 4.86 C 0 km/h
2858 22-11-2010 05:00:00 4.88 C 4.95 g/m*3 4.88 C 0 km/h
2859 22-11-2010 06:00:00 4.7 C 4.86 g/m*3 4.7 C 0 km/h
2860 22-11-2010 07:00:00 4.64 C 4.79 g/m*3 4.64 C 0 km/h
2861 22-11-2010 08:00:00 4.64 C 4.8 g/m*3 4.64 C 0 km/h
2862 22-11-2010 09:00:00 4.74 C 4.81 g/m*3 4.74 C 0 km/h
2863 22-11-2010 10:00:00 4.82 C 4.86 g/m*3 4.82 C 0 km/h
2864 22-11-2010 11:00:00 4.48 C 4.95 g/m*3 4.48 C 0 km/h
2865 22-11-2010 12:00:00 4.2 C 5.21 g/m*3 4.2 C 0 km/h
2866 22-11-2010 13:00:00 4.24 C 5.38 g/m*3 4.24 C 0 km/h
2867 22-11-2010 14:00:00 4.78 C 5.25 g/m*3 4.78 C 0 km/h
2868 22-11-2010 15:00:00 4.9 C 5.02 g/m*3 4.9 C 0 km/h
2869 22-11-2010 16:00:00 4.32 C 4.91 g/m*3 4.32 C 0 km/h
2870 22-11-2010 17:00:00 4.04 C 4.99 g/m*3 4.04 C 0 km/h
2871 22-11-2010 18:00:00 4.28 C 4.95 g/m*3 4.28 C 0 km/h
2872 22-11-2010 19:00:00 4.38 C 4.88 g/m*3 4.38 C 0 km/h
2873 22-11-2010 20:00:00 4.42 C 4.8 g/m*3 4.42 C 0 km/h
2874 22-11-2010 21:00:00 4.4 C 4.82 g/m*3 4.4 C 0 km/h
2875 22-11-2010 22:00:00 4.5 C 4.89 g/m*3 4.5 C 0 km/h
Sensor: Nr:Datum:Temp:Abs-Feuchte:Windchill:Wind:
Aussen-T/F 2876 22-11-2010 23:00:00 4.4 C 4.94 g/m*3 4.4 C 0 km/h
2877 23-11-2010 00:00:00 4.44 C 4.94 g/m*3 4.44 C 0 km/h
2878 23-11-2010 01:00:00 4.46 C 4.85 g/m*3 4.46 C 0 km/h
2879 23-11-2010 02:00:00 4.26 C 4.62 g/m*3 4.26 C 0 km/h
2880 23-11-2010 03:00:00 4.08 C 4.42 g/m*3 4.08 C 0 km/h
2881 23-11-2010 04:00:00 3.68 C 4.52 g/m*3 3.68 C 0 km/h
2882 23-11-2010 05:00:00 3.2 C 4.65 g/m*3 3.2 C 0 km/h
2883 23-11-2010 06:00:00 2.66 C 5.01 g/m*3 2.66 C 0 km/h
2884 23-11-2010 07:00:00 2.96 C 5.08 g/m*3 2.96 C 0 km/h
2885 23-11-2010 08:00:00 3.18 C 4.89 g/m*3 3.18 C 0 km/h
2886 23-11-2010 09:00:00 3.68 C 4.75 g/m*3 3.68 C 0 km/h
2887 23-11-2010 10:00:00 4.26 C 4.58 g/m*3 4.26 C 0 km/h
2888 23-11-2010 11:00:00 4.72 C 4.66 g/m*3 4.72 C 0 km/h
2889 23-11-2010 12:00:00 5.28 C 4.47 g/m*3 5.28 C 0 km/h
2890 23-11-2010 13:00:00 6.04 C 4.37 g/m*3 6.04 C 0 km/h
2891 23-11-2010 14:00:00 5.74 C 4.25 g/m*3 5.74 C 0 km/h
2892 23-11-2010 15:00:00 5.54 C 4.25 g/m*3 5.54 C 0 km/h
2893 23-11-2010 16:00:00 5.38 C 4.47 g/m*3 5.38 C 0 km/h
2894 23-11-2010 17:00:00 5.32 C 4.46 g/m*3 5.32 C 0 km/h
2895 23-11-2010 18:00:00 5.28 C 4.42 g/m*3 5.28 C 0 km/h
2896 23-11-2010 19:00:00 5.2 C 4.5 g/m*3 5.2 C 0 km/h
2897 23-11-2010 20:00:00 5.14 C 4.46 g/m*3 5.14 C 0 km/h
2898 23-11-2010 21:00:00 4.98 C 4.33 g/m*3 4.98 C 0 km/h
2899 23-11-2010 22:00:00 4.95 C 4.33 g/m*3 4.95 C 0 km/h
2900 23-11-2010 23:00:00 4.64 C 4.39 g/m*3 4.64 C 0 km/h
Sensor: Nr:Datum:Temp:Abs-Feuchte:Windchill:Wind:
Aussen-T/F 2901 24-11-2010 00:00:00 4.32 C 4.44 g/m*3 4.32 C 0 km/h
2902 24-11-2010 01:00:00 3.96 C 4.46 g/m*3 3.96 C 0 km/h
2903 24-11-2010 02:00:00 3.42 C 4.5 g/m*3 3.42 C 0 km/h
2904 24-11-2010 03:00:00 3.52 C 4.62 g/m*3 3.52 C 0 km/h
2905 24-11-2010 04:00:00 3.46 C 4.72 g/m*3 3.46 C 0 km/h
2906 24-11-2010 05:00:00 2.92 C 5 g/m*3 2.92 C 0 km/h
2907 24-11-2010 06:00:00 3.2 C 5.07 g/m*3 3.2 C 0 km/h
2908 24-11-2010 07:00:00 3.34 C 5.01 g/m*3 3.34 C 0 km/h
2909 24-11-2010 08:00:00 3.42 C 5.08 g/m*3 3.42 C 0 km/h
2910 24-11-2010 09:00:00 4.22 C 4.99 g/m*3 4.22 C 0 km/h
2911 24-11-2010 10:00:00 5.22 C 4.7 g/m*3 5.22 C 0 km/h
2912 24-11-2010 11:00:00 5.22 C 4.78 g/m*3 5.22 C 0 km/h
2913 24-11-2010 12:00:00 5.8 C 4.57 g/m*3 5.8 C 0 km/h
2914 24-11-2010 13:00:00 5.36 C 4.61 g/m*3 5.36 C 0 km/h
2915 24-11-2010 14:00:00 4.48 C 5.08 g/m*3 4.48 C 0 km/h
2916 24-11-2010 15:00:00 3.48 C 5.24 g/m*3 3.48 C 0 km/h
2917 24-11-2010 16:00:00 3.3 C 5.22 g/m*3 3.3 C 0 km/h
2918 24-11-2010 17:00:00 2.28 C 4.88 g/m*3 2.28 C 0 km/h
2919 24-11-2010 18:00:00 1.64 C 4.9 g/m*3 1.64 C 0 km/h
2920 24-11-2010 19:00:00 2.02 C 5.09 g/m*3 2.02 C 0 km/h
2921 24-11-2010 20:00:00 1.42 C 4.91 g/m*3 1.42 C 0 km/h
2922 24-11-2010 21:00:00 1.42 C 4.91 g/m*3 1.42 C 0 km/h
2923 24-11-2010 22:00:00 2.14 C 5.13 g/m*3 2.14 C 0 km/h
2924 24-11-2010 23:00:00 2.4 C 5.06 g/m*3 2.4 C 0 km/h
2925 25-11-2010 00:00:00 2.5 C 4.93 g/m*3 2.5 C 0 km/h
Sensor: Nr:Datum:Temp:Abs-Feuchte:Windchill:Wind:
Aussen-T/F 2926 25-11-2010 01:00:00 2.94 C 4.82 g/m*3 2.94 C 0 km/h
2927 25-11-2010 02:00:00 2.76 C 4.55 g/m*3 2.76 C 0 km/h
2928 25-11-2010 03:00:00 2.82 C 4.43 g/m*3 2.82 C 0 km/h
2929 25-11-2010 04:00:00 2.02 C 4.2 g/m*3 2.02 C 0 km/h
2930 25-11-2010 05:00:00 1.3 C 4.08 g/m*3 1.3 C 0 km/h
2931 25-11-2010 06:00:00 0.66 C 4.12 g/m*3 0.66 C 0 km/h
2932 25-11-2010 07:00:00 0.06 C 4.24 g/m*3 0.06 C 0 km/h
2933 25-11-2010 08:00:00 -0.28 C 4.23 g/m*3 -0.28 C 0 km/h
2934 25-11-2010 09:00:00 0.58 C 4.45 g/m*3 0.58 C 0 km/h
2935 25-11-2010 10:00:00 0.8 C 4.42 g/m*3 0.8 C 0 km/h
2936 25-11-2010 11:00:00 1.76 C 4.53 g/m*3 1.76 C 0 km/h
2937 25-11-2010 12:00:00 2 C 4.51 g/m*3 2 C 0 km/h
2938 25-11-2010 13:00:00 3.48 C 4.22 g/m*3 3.48 C 0 km/h
2939 25-11-2010 14:00:00 3.66 C 4.03 g/m*3 3.66 C 0 km/h
2940 25-11-2010 15:00:00 3.28 C 3.96 g/m*3 3.28 C 0 km/h
2941 25-11-2010 16:00:00 2.04 C 4.21 g/m*3 2.04 C 0 km/h
2942 25-11-2010 17:00:00 2.04 C 4.35 g/m*3 2.04 C 0 km/h
2943 25-11-2010 18:00:00 1.74 C 4.42 g/m*3 1.74 C 0 km/h
2944 25-11-2010 19:00:00 0.98 C 4.38 g/m*3 0.98 C 0 km/h
2945 25-11-2010 20:00:00 0.7 C 4.4 g/m*3 0.7 C 0 km/h
2946 25-11-2010 21:00:00 1.24 C 4.5 g/m*3 1.24 C 0 km/h
2947 25-11-2010 22:00:00 1.34 C 4.49 g/m*3 1.34 C 0 km/h
2948 25-11-2010 23:00:00 1.36 C 4.52 g/m*3 1.36 C 0 km/h
2949 26-11-2010 00:00:00 1.4 C 4.51 g/m*3 1.4 C 0 km/h
2950 26-11-2010 01:00:00 1.06 C 4.49 g/m*3 1.06 C 0 km/h
Sensor: Nr:Datum:Temp:Abs-Feuchte:Windchill:Wind:
Aussen-T/F 2951 26-11-2010 02:00:00 1.06 C 4.47 g/m*3 1.06 C 0 km/h
2952 26-11-2010 03:00:00 0.74 C 4.37 g/m*3 0.74 C 0 km/h
2953 26-11-2010 04:00:00 0.32 C 4.4 g/m*3 0.32 C 0 km/h
2954 26-11-2010 05:00:00 0.26 C 4.47 g/m*3 0.26 C 0 km/h
2955 26-11-2010 06:00:00 0.22 C 4.49 g/m*3 0.22 C 0 km/h
2956 26-11-2010 07:00:00 0 C 4.46 g/m*3 0 C 0 km/h
2957 26-11-2010 08:00:00 0.04 C 4.49 g/m*3 0.04 C 0 km/h
2958 26-11-2010 09:00:00 0.14 C 4.55 g/m*3 0.14 C 0 km/h
2959 26-11-2010 10:00:00 0.58 C 4.66 g/m*3 0.58 C 0 km/h
2960 26-11-2010 11:00:00 1.12 C 4.61 g/m*3 1.12 C 0 km/h
2961 26-11-2010 12:00:00 0.84 C 4.41 g/m*3 0.84 C 0 km/h
2962 26-11-2010 13:00:00 0.9 C 4.37 g/m*3 0.9 C 0 km/h
2963 26-11-2010 14:00:00 1.6 C 4.17 g/m*3 1.6 C 0 km/h
2964 26-11-2010 15:00:00 0.8 C 3.8 g/m*3 0.8 C 0 km/h
2965 26-11-2010 16:00:00 -1.48 C 3.69 g/m*3 -1.48 C 0 km/h
2966 26-11-2010 17:00:00 -2.36 C 3.65 g/m*3 -2.36 C 0 km/h
2967 26-11-2010 18:00:00 -1.38 C 4 g/m*3 -1.38 C 0 km/h
2968 26-11-2010 19:00:00 -1.54 C 3.96 g/m*3 -1.54 C 0 km/h
2969 26-11-2010 20:00:00 -1.96 C 3.85 g/m*3 -1.96 C 0 km/h
2970 26-11-2010 21:00:00 -2.34 C 3.75 g/m*3 -2.34 C 0 km/h
2971 26-11-2010 22:00:00 -3.24 C 3.5 g/m*3 -3.24 C 0 km/h
2972 26-11-2010 23:00:00 -3.76 C 3.35 g/m*3 -3.76 C 0 km/h
2973 27-11-2010 00:00:00 -4.08 C 3.27 g/m*3 -4.08 C 0 km/h
2974 27-11-2010 01:00:00 -3.54 C 3.39 g/m*3 -3.54 C 0 km/h
2975 27-11-2010 02:00:00 -3.94 C 3.25 g/m*3 -3.94 C 0 km/h
Sensor: Nr:Datum:Temp:Abs-Feuchte:Windchill:Wind:
Aussen-T/F 2976 27-11-2010 03:00:00 -3.16 C 3.46 g/m*3 -3.16 C 0 km/h
2977 27-11-2010 04:00:00 -4.12 C 3.19 g/m*3 -4.12 C 0 km/h
2978 27-11-2010 05:00:00 -4.28 C 3.15 g/m*3 -4.28 C 0 km/h
2979 27-11-2010 06:00:00 -3.52 C 3.35 g/m*3 -3.52 C 0 km/h
2980 27-11-2010 07:00:00 -3.54 C 3.33 g/m*3 -3.54 C 0 km/h
2981 27-11-2010 08:00:00 -3 C 3.48 g/m*3 -3 C 0 km/h
2982 27-11-2010 09:00:00 -1.8 C 3.8 g/m*3 -1.8 C 0 km/h
2983 27-11-2010 10:00:00 -0.84 C 4.06 g/m*3 -0.84 C 0 km/h
2984 27-11-2010 11:00:00 -0.2 C 4.19 g/m*3 -0.2 C 0 km/h
2985 27-11-2010 12:00:00 0.38 C 4 g/m*3 0.38 C 0 km/h
2986 27-11-2010 13:00:00 0.86 C 3.91 g/m*3 0.86 C 0 km/h
2987 27-11-2010 14:00:00 1.48 C 3.79 g/m*3 1.48 C 0 km/h
2988 27-11-2010 15:00:00 0.76 C 3.8 g/m*3 0.76 C 0 km/h
2989 27-11-2010 16:00:00 -0.72 C 3.59 g/m*3 -0.72 C 0 km/h
2990 27-11-2010 17:00:00 -0.86 C 3.65 g/m*3 -0.86 C 0 km/h
2991 27-11-2010 18:00:00 -1.58 C 3.59 g/m*3 -1.58 C 0 km/h
2992 27-11-2010 19:00:00 -0.92 C 3.75 g/m*3 -0.92 C 0 km/h
2993 27-11-2010 20:00:00 -1.5 C 3.52 g/m*3 -1.5 C 0 km/h
2994 27-11-2010 21:00:00 -3.1 C 3.27 g/m*3 -3.1 C 0 km/h
2995 27-11-2010 22:00:00 -3.36 C 3.3 g/m*3 -3.36 C 0 km/h
2996 27-11-2010 23:00:00 -3.22 C 3.31 g/m*3 -3.22 C 0 km/h
2997 28-11-2010 00:00:00 -3.76 C 3.2 g/m*3 -3.76 C 0 km/h
2998 28-11-2010 01:00:00 -2.76 C 3.5 g/m*3 -2.76 C 0 km/h
2999 28-11-2010 02:00:00 -2.18 C 3.6 g/m*3 -2.18 C 0 km/h
3000 28-11-2010 03:00:00 -3.4 C 3.22 g/m*3 -3.4 C 0 km/h
Sensor: Nr:Datum:Temp:Abs-Feuchte:Windchill:Wind:
Aussen-T/F 3001 28-11-2010 04:00:00 -2.64 C 3.47 g/m*3 -2.64 C 0 km/h
3002 28-11-2010 05:00:00 -2.72 C 3.42 g/m*3 -2.72 C 0 km/h
3003 28-11-2010 06:00:00 -2.18 C 3.56 g/m*3 -2.18 C 0 km/h
3004 28-11-2010 07:00:00 -1.88 C 3.58 g/m*3 -1.88 C 0 km/h
3005 28-11-2010 08:00:00 -1.66 C 3.6 g/m*3 -1.66 C 0 km/h
3006 28-11-2010 09:00:00 -1.18 C 3.62 g/m*3 -1.18 C 0 km/h
3007 28-11-2010 10:00:00 -0.38 C 3.63 g/m*3 -0.38 C 0 km/h
3008 28-11-2010 11:00:00 -0.18 C 3.55 g/m*3 -0.18 C 0 km/h
3009 28-11-2010 12:00:00 0.02 C 3.59 g/m*3 0.02 C 0 km/h
3010 28-11-2010 13:00:00 0.14 C 3.63 g/m*3 0.14 C 0 km/h
3011 28-11-2010 14:00:00 0.5 C 3.69 g/m*3 0.5 C 0 km/h
3012 28-11-2010 15:00:00 0.54 C 3.71 g/m*3 0.54 C 0 km/h
3013 28-11-2010 16:00:00 -0.34 C 3.68 g/m*3 -0.34 C 0 km/h
3014 28-11-2010 17:00:00 -0.64 C 3.67 g/m*3 -0.64 C 0 km/h
3015 28-11-2010 18:00:00 -1.1 C 3.71 g/m*3 -1.1 C 0 km/h
3016 28-11-2010 19:00:00 -0.7 C 3.7 g/m*3 -0.7 C 0 km/h
3017 28-11-2010 20:00:00 -0.8 C 3.55 g/m*3 -0.8 C 0 km/h
3018 28-11-2010 21:00:00 -0.86 C 3.46 g/m*3 -0.86 C 0 km/h
3019 28-11-2010 22:00:00 -1.6 C 3.36 g/m*3 -1.6 C 0 km/h
3020 28-11-2010 23:00:00 -2.04 C 3.42 g/m*3 -2.04 C 0 km/h
3021 29-11-2010 00:00:00 -1.48 C 3.37 g/m*3 -1.48 C 0 km/h
3022 29-11-2010 01:00:00 -1.8 C 3.31 g/m*3 -1.8 C 0 km/h
3023 29-11-2010 02:00:00 -1.88 C 3.26 g/m*3 -1.88 C 0 km/h
3024 29-11-2010 03:00:00 -2 C 3.21 g/m*3 -2 C 0 km/h
3025 29-11-2010 04:00:00 -2 C 3.22 g/m*3 -2 C 0 km/h
Sensor: Nr:Datum:Temp:Abs-Feuchte:Windchill:Wind:
Aussen-T/F 3026 29-11-2010 05:00:00 -1.82 C 3.27 g/m*3 -1.82 C 0 km/h
3027 29-11-2010 06:00:00 -1.68 C 3.31 g/m*3 -1.68 C 0 km/h
3028 29-11-2010 07:00:00 -1.66 C 3.29 g/m*3 -1.66 C 0 km/h
3029 29-11-2010 08:00:00 -1.6 C 3.33 g/m*3 -1.6 C 0 km/h
3030 29-11-2010 09:00:00 -1.38 C 3.3 g/m*3 -1.38 C 0 km/h
3031 29-11-2010 10:00:00 -1.3 C 3.37 g/m*3 -1.3 C 0 km/h
3032 29-11-2010 11:00:00 -1.22 C 3.45 g/m*3 -1.22 C 0 km/h
3033 29-11-2010 12:00:00 -1.14 C 3.52 g/m*3 -1.14 C 0 km/h
3034 29-11-2010 13:00:00 -0.84 C 3.57 g/m*3 -0.84 C 0 km/h
3035 29-11-2010 14:00:00 -1.02 C 3.67 g/m*3 -1.02 C 0 km/h
3036 29-11-2010 15:00:00 -1.3 C 3.72 g/m*3 -1.3 C 0 km/h
3037 29-11-2010 16:00:00 -1.46 C 3.73 g/m*3 -1.46 C 0 km/h
3038 29-11-2010 17:00:00 -1.68 C 3.71 g/m*3 -1.68 C 0 km/h
3039 29-11-2010 18:00:00 -1.68 C 3.75 g/m*3 -1.68 C 0 km/h
3040 29-11-2010 19:00:00 -1.7 C 3.75 g/m*3 -1.7 C 0 km/h
3041 29-11-2010 20:00:00 -1.64 C 3.8 g/m*3 -1.64 C 0 km/h
3042 29-11-2010 21:00:00 -1.66 C 3.8 g/m*3 -1.66 C 0 km/h
3043 29-11-2010 22:00:00 -1.78 C 3.77 g/m*3 -1.78 C 0 km/h
3044 29-11-2010 23:00:00 -1.68 C 3.83 g/m*3 -1.68 C 0 km/h
3045 30-11-2010 00:00:00 -1.78 C 3.81 g/m*3 -1.78 C 0 km/h
3046 30-11-2010 01:00:00 -1.96 C 3.76 g/m*3 -1.96 C 0 km/h
3047 30-11-2010 02:00:00 -1.68 C 3.84 g/m*3 -1.68 C 0 km/h
3048 30-11-2010 03:00:00 -1.7 C 3.82 g/m*3 -1.7 C 0 km/h
3049 30-11-2010 04:00:00 -2.36 C 3.62 g/m*3 -2.36 C 0 km/h
3050 30-11-2010 05:00:00 -2.4 C 3.62 g/m*3 -2.4 C 0 km/h
Sensor: Nr:Datum:Temp:Abs-Feuchte:Windchill:Wind:
Aussen-T/F 3051 30-11-2010 06:00:00 -2.26 C 3.66 g/m*3 -2.26 C 0 km/h
3052 30-11-2010 07:00:00 -2.28 C 3.66 g/m*3 -2.28 C 0 km/h
3053 30-11-2010 08:00:00 -2.08 C 3.66 g/m*3 -2.08 C 0 km/h
3054 30-11-2010 09:00:00 -2 C 3.58 g/m*3 -2 C 0 km/h
3055 30-11-2010 10:00:00 -1.82 C 3.51 g/m*3 -1.82 C 0 km/h
3056 30-11-2010 11:00:00 -1.5 C 3.44 g/m*3 -1.5 C 0 km/h
3057 30-11-2010 12:00:00 -1.3 C 3.28 g/m*3 -1.3 C 0 km/h
3058 30-11-2010 13:00:00 -1.08 C 3.25 g/m*3 -1.08 C 0 km/h
3059 30-11-2010 14:00:00 -1.32 C 3.2 g/m*3 -1.32 C 0 km/h
3060 30-11-2010 15:00:00 -1.48 C 3.23 g/m*3 -1.48 C 0 km/h
3061 30-11-2010 16:00:00 -1.5 C 3.23 g/m*3 -1.5 C 0 km/h
3062 30-11-2010 17:00:00 -1.92 C 3.21 g/m*3 -1.92 C 0 km/h
3063 30-11-2010 18:00:00 -2.1 C 3.18 g/m*3 -2.1 C 0 km/h
3064 30-11-2010 19:00:00 -2.1 C 3.17 g/m*3 -2.1 C 0 km/h
3065 30-11-2010 20:00:00 -2.26 C 3.11 g/m*3 -2.26 C 0 km/h
3066 30-11-2010 21:00:00 -2.4 C 3.05 g/m*3 -2.4 C 0 km/h
3067 30-11-2010 22:00:00 -2.58 C 2.94 g/m*3 -2.58 C 0 km/h
3068 30-11-2010 23:00:00 -2.76 C 2.83 g/m*3 -2.76 C 0 km/h
3069 01-12-2010 00:00:00 -3 C 2.76 g/m*3 -3 C 0 km/h
3070 01-12-2010 01:00:00 -3.3 C 2.67 g/m*3 -3.3 C 0 km/h
3071 01-12-2010 02:00:00 -3.88 C 2.51 g/m*3 -3.88 C 0 km/h
3072 01-12-2010 03:00:00 -4.34 C 2.36 g/m*3 -4.34 C 0 km/h
3073 01-12-2010 04:00:00 -5 C 2.23 g/m*3 -5 C 0 km/h
3074 01-12-2010 05:00:00 -5.4 C 2.18 g/m*3 -5.4 C 0 km/h
3075 01-12-2010 06:00:00 -5.56 C 2.14 g/m*3 -5.56 C 0 km/h
Sensor: Nr:Datum:Temp:Abs-Feuchte:Windchill:Wind:
Aussen-T/F 3076 01-12-2010 07:00:00 -5.9 C 2.05 g/m*3 -5.9 C 0 km/h
3077 01-12-2010 08:00:00 -6.26 C 1.95 g/m*3 -6.26 C 0 km/h
3078 01-12-2010 09:00:00 -5.96 C 1.92 g/m*3 -5.96 C 0 km/h
3079 01-12-2010 10:00:00 -5.54 C 1.95 g/m*3 -5.54 C 0 km/h
3080 01-12-2010 11:00:00 -5.48 C 1.97 g/m*3 -5.48 C 0 km/h
3081 01-12-2010 12:00:00 -5.82 C 1.93 g/m*3 -5.82 C 0 km/h
3082 01-12-2010 13:00:00 -6.1 C 1.85 g/m*3 -6.1 C 0 km/h
3083 01-12-2010 14:00:00 -6.18 C 1.79 g/m*3 -6.18 C 0 km/h
3084 01-12-2010 15:00:00 -6.28 C 1.78 g/m*3 -6.28 C 0 km/h
3085 01-12-2010 16:00:00 -6.58 C 1.75 g/m*3 -6.58 C 0 km/h
3086 01-12-2010 17:00:00 -6.58 C 1.8 g/m*3 -6.58 C 0 km/h
3087 01-12-2010 18:00:00 -6.54 C 1.82 g/m*3 -6.54 C 0 km/h
3088 01-12-2010 19:00:00 -6.58 C 1.81 g/m*3 -6.58 C 0 km/h
3089 01-12-2010 20:00:00 -6.64 C 1.77 g/m*3 -6.64 C 0 km/h
3090 01-12-2010 21:00:00 -6.74 C 1.74 g/m*3 -6.74 C 0 km/h
3091 01-12-2010 22:00:00 -6.86 C 1.73 g/m*3 -6.86 C 0 km/h
3092 01-12-2010 23:00:00 -7.06 C 1.77 g/m*3 -7.06 C 0 km/h
3093 02-12-2010 00:00:00 -7.14 C 1.81 g/m*3 -7.14 C 0 km/h
3094 02-12-2010 01:00:00 -7.12 C 1.79 g/m*3 -7.12 C 0 km/h
3095 02-12-2010 02:00:00 -7.28 C 1.71 g/m*3 -7.28 C 0 km/h
3096 02-12-2010 03:00:00 -7.32 C 1.74 g/m*3 -7.32 C 0 km/h
3097 02-12-2010 04:00:00 -7.5 C 1.78 g/m*3 -7.5 C 0 km/h
3098 02-12-2010 05:00:00 -7.64 C 1.79 g/m*3 -7.64 C 0 km/h
3099 02-12-2010 06:00:00 -7.76 C 1.84 g/m*3 -7.76 C 0 km/h
3100 02-12-2010 07:00:00 -7.72 C 1.89 g/m*3 -7.72 C 0 km/h
Sensor: Nr:Datum:Temp:Abs-Feuchte:Windchill:Wind:
Aussen-T/F 3101 02-12-2010 08:00:00 -7.7 C 1.87 g/m*3 -7.7 C 0 km/h
3102 02-12-2010 09:00:00 -7.1 C 1.96 g/m*3 -7.1 C 0 km/h
3103 02-12-2010 10:00:00 -6.14 C 1.99 g/m*3 -6.14 C 0 km/h
3104 02-12-2010 11:00:00 -5.62 C 2.03 g/m*3 -5.62 C 0 km/h
3105 02-12-2010 12:00:00 -6.08 C 2.05 g/m*3 -6.08 C 0 km/h
3106 02-12-2010 13:00:00 -5.3 C 2.15 g/m*3 -5.3 C 0 km/h
3107 02-12-2010 14:00:00 -5.6 C 2.16 g/m*3 -5.6 C 0 km/h
3108 02-12-2010 15:00:00 -4.74 C 2.28 g/m*3 -4.74 C 0 km/h
3109 02-12-2010 16:00:00 -5.12 C 2.3 g/m*3 -5.12 C 0 km/h
3110 02-12-2010 17:00:00 -7.36 C 2.12 g/m*3 -7.36 C 0 km/h
3111 02-12-2010 18:00:00 -8.02 C 2.2 g/m*3 -8.02 C 0 km/h
3112 02-12-2010 19:00:00 -8.42 C 2.16 g/m*3 -8.42 C 0 km/h
3113 02-12-2010 20:00:00 -8.04 C 2.25 g/m*3 -8.04 C 0 km/h
3114 02-12-2010 21:00:00 -7.54 C 2.33 g/m*3 -7.54 C 0 km/h
3115 02-12-2010 22:00:00 -8.54 C 2.13 g/m*3 -8.54 C 0 km/h
3116 02-12-2010 23:00:00 -7.96 C 2.23 g/m*3 -7.96 C 0 km/h
3117 03-12-2010 00:00:00 -9.88 C 1.86 g/m*3 -9.88 C 0 km/h
3118 03-12-2010 01:00:00 -9.66 C 1.91 g/m*3 -9.66 C 0 km/h
3119 03-12-2010 02:00:00 -9.12 C 2 g/m*3 -9.12 C 0 km/h
3120 03-12-2010 03:00:00 -8.78 C 2.04 g/m*3 -8.78 C 0 km/h
3121 03-12-2010 04:00:00 -8.06 C 2.15 g/m*3 -8.06 C 0 km/h
3122 03-12-2010 05:00:00 -8.68 C 2.03 g/m*3 -8.68 C 0 km/h
3123 03-12-2010 06:00:00 -9.48 C 1.91 g/m*3 -9.48 C 0 km/h
3124 03-12-2010 07:00:00 -8.92 C 2.03 g/m*3 -8.92 C 0 km/h
3125 03-12-2010 08:00:00 -9.92 C 1.85 g/m*3 -9.92 C 0 km/h
Sensor: Nr:Datum:Temp:Abs-Feuchte:Windchill:Wind:
Aussen-T/F 3126 03-12-2010 09:00:00 -9.8 C 1.85 g/m*3 -9.8 C 0 km/h
3127 03-12-2010 10:00:00 -8.1 C 2.05 g/m*3 -8.1 C 0 km/h
3128 03-12-2010 11:00:00 -6.32 C 2.23 g/m*3 -6.32 C 0 km/h
3129 03-12-2010 12:00:00 -5.16 C 2.28 g/m*3 -5.16 C 0 km/h
3130 03-12-2010 13:00:00 -4.74 C 2.32 g/m*3 -4.74 C 0 km/h
3131 03-12-2010 14:00:00 -4.26 C 2.38 g/m*3 -4.26 C 0 km/h
3132 03-12-2010 15:00:00 -4.68 C 2.4 g/m*3 -4.68 C 0 km/h
3133 03-12-2010 16:00:00 -6.18 C 2.37 g/m*3 -6.18 C 0 km/h
3134 03-12-2010 17:00:00 -6.98 C 2.34 g/m*3 -6.98 C 0 km/h
3135 03-12-2010 18:00:00 -7.02 C 2.36 g/m*3 -7.02 C 0 km/h
3136 03-12-2010 19:00:00 -5.74 C 2.63 g/m*3 -5.74 C 0 km/h
3137 03-12-2010 20:00:00 -5.36 C 2.64 g/m*3 -5.36 C 0 km/h
3138 03-12-2010 21:00:00 -5.72 C 2.55 g/m*3 -5.72 C 0 km/h
3139 03-12-2010 22:00:00 -6.78 C 2.39 g/m*3 -6.78 C 0 km/h
3140 03-12-2010 23:00:00 -7.92 C 2.24 g/m*3 -7.92 C 0 km/h
3141 04-12-2010 00:00:00 -8.5 C 2.17 g/m*3 -8.5 C 0 km/h
3142 04-12-2010 01:00:00 -9.1 C 2.06 g/m*3 -9.1 C 0 km/h
3143 04-12-2010 02:00:00 -9.26 C 2.02 g/m*3 -9.26 C 0 km/h
3144 04-12-2010 03:00:00 -9.94 C 1.9 g/m*3 -9.94 C 0 km/h
3145 04-12-2010 04:00:00 -7.96 C 2.24 g/m*3 -7.96 C 0 km/h
3146 04-12-2010 05:00:00 -5.52 C 2.67 g/m*3 -5.52 C 0 km/h
3147 04-12-2010 06:00:00 -4.94 C 2.59 g/m*3 -4.94 C 0 km/h
3148 04-12-2010 07:00:00 -5.14 C 2.58 g/m*3 -5.14 C 0 km/h
3149 04-12-2010 08:00:00 -3.94 C 2.67 g/m*3 -3.94 C 0 km/h
3150 04-12-2010 09:00:00 -3.1 C 2.58 g/m*3 -3.1 C 0 km/h
Sensor: Nr:Datum:Temp:Abs-Feuchte:Windchill:Wind:
Aussen-T/F 3151 04-12-2010 10:00:00 -2.12 C 2.68 g/m*3 -2.12 C 0 km/h
3152 04-12-2010 11:00:00 -1.38 C 2.45 g/m*3 -1.38 C 0 km/h
3153 04-12-2010 12:00:00 -0.86 C 2.46 g/m*3 -0.86 C 0 km/h
3154 04-12-2010 13:00:00 -1.4 C 2.41 g/m*3 -1.4 C 0 km/h
3155 04-12-2010 14:00:00 -1 C 2.47 g/m*3 -1 C 0 km/h
3156 04-12-2010 15:00:00 -0.92 C 2.52 g/m*3 -0.92 C 0 km/h
3157 04-12-2010 16:00:00 -1.22 C 2.64 g/m*3 -1.22 C 0 km/h
3158 04-12-2010 17:00:00 -1.08 C 2.76 g/m*3 -1.08 C 0 km/h
3159 04-12-2010 18:00:00 -0.9 C 2.79 g/m*3 -0.9 C 0 km/h
3160 04-12-2010 19:00:00 -0.92 C 2.79 g/m*3 -0.92 C 0 km/h
3161 04-12-2010 20:00:00 -0.96 C 2.87 g/m*3 -0.96 C 0 km/h
3162 04-12-2010 21:00:00 -1.1 C 3.13 g/m*3 -1.1 C 0 km/h
3163 04-12-2010 22:00:00 -1.18 C 3.46 g/m*3 -1.18 C 0 km/h
3164 04-12-2010 23:00:00 -1.12 C 3.51 g/m*3 -1.12 C 0 km/h
3165 05-12-2010 00:00:00 -0.5 C 3.48 g/m*3 -0.5 C 0 km/h
3166 05-12-2010 01:00:00 0.12 C 3.31 g/m*3 0.12 C 0 km/h
3167 05-12-2010 02:00:00 0.02 C 3.49 g/m*3 0.02 C 0 km/h
3168 05-12-2010 03:00:00 0.12 C 3.53 g/m*3 0.12 C 0 km/h
3169 05-12-2010 04:00:00 0.12 C 3.58 g/m*3 0.12 C 0 km/h
3170 05-12-2010 05:00:00 0.22 C 3.25 g/m*3 0.22 C 0 km/h
3171 05-12-2010 06:00:00 0.22 C 3.02 g/m*3 0.22 C 0 km/h
3172 05-12-2010 07:00:00 -0.08 C 2.91 g/m*3 -0.08 C 0 km/h
3173 05-12-2010 08:00:00 -0.32 C 2.9 g/m*3 -0.32 C 0 km/h
3174 05-12-2010 09:00:00 0.02 C 2.96 g/m*3 0.02 C 0 km/h
3175 05-12-2010 10:00:00 1.68 C 2.83 g/m*3 1.68 C 0 km/h
Sensor: Nr:Datum:Temp:Abs-Feuchte:Windchill:Wind:
Aussen-T/F 3176 05-12-2010 11:00:00 2.54 C 2.77 g/m*3 2.54 C 0 km/h
3177 05-12-2010 12:00:00 3.1 C 2.67 g/m*3 3.1 C 0 km/h
3178 05-12-2010 13:00:00 3.4 C 2.63 g/m*3 3.4 C 0 km/h
3179 05-12-2010 14:00:00 3.24 C 2.6 g/m*3 3.24 C 0 km/h
3180 05-12-2010 15:00:00 2.22 C 3.05 g/m*3 2.22 C 0 km/h
3181 05-12-2010 16:00:00 1.24 C 3.28 g/m*3 1.24 C 0 km/h
3182 05-12-2010 17:00:00 1.38 C 3.4 g/m*3 1.38 C 0 km/h
3183 05-12-2010 18:00:00 0.88 C 3.81 g/m*3 0.88 C 0 km/h
3184 05-12-2010 19:00:00 0.86 C 3.97 g/m*3 0.86 C 0 km/h
3185 05-12-2010 20:00:00 0.62 C 4.08 g/m*3 0.62 C 0 km/h
3186 05-12-2010 21:00:00 0.34 C 4.27 g/m*3 0.34 C 0 km/h
3187 05-12-2010 22:00:00 0.36 C 4.35 g/m*3 0.36 C 0 km/h
3188 05-12-2010 23:00:00 0.2 C 4.33 g/m*3 0.2 C 0 km/h
3189 06-12-2010 00:00:00 0.12 C 4.35 g/m*3 0.12 C 0 km/h
3190 06-12-2010 01:00:00 0.12 C 4.38 g/m*3 0.12 C 0 km/h
3191 06-12-2010 02:00:00 0.1 C 4.39 g/m*3 0.1 C 0 km/h
3192 06-12-2010 03:00:00 0.1 C 4.35 g/m*3 0.1 C 0 km/h
3193 06-12-2010 04:00:00 0.14 C 4.38 g/m*3 0.14 C 0 km/h
3194 06-12-2010 05:00:00 0.04 C 4.33 g/m*3 0.04 C 0 km/h
3195 06-12-2010 06:00:00 0.02 C 4.37 g/m*3 0.02 C 0 km/h
3196 06-12-2010 07:00:00 0 C 4.34 g/m*3 0 C 0 km/h
3197 06-12-2010 08:00:00 0.06 C 4.31 g/m*3 0.06 C 0 km/h
3198 06-12-2010 09:00:00 0.84 C 4.37 g/m*3 0.84 C 0 km/h
3199 06-12-2010 10:00:00 1.38 C 4.04 g/m*3 1.38 C 0 km/h
3200 06-12-2010 11:00:00 1.88 C 3.94 g/m*3 1.88 C 0 km/h
Sensor: Nr:Datum:Temp:Abs-Feuchte:Windchill:Wind:
Aussen-T/F 3201 06-12-2010 12:00:00 2.4 C 3.76 g/m*3 2.4 C 0 km/h
3202 06-12-2010 13:00:00 2.54 C 3.68 g/m*3 2.54 C 0 km/h
3203 06-12-2010 14:00:00 1.9 C 3.59 g/m*3 1.9 C 0 km/h
3204 06-12-2010 15:00:00 <